<?xml version='1.0' encoding='UTF-8'?>
<gpx version="1.1" creator="https://www.komoot.de" xmlns="http://www.topografix.com/GPX/1/1" xmlns:xsi="http://www.w3.org/2001/XMLSchema-instance" xsi:schemaLocation="http://www.topografix.com/GPX/1/1 http://www.topografix.com/GPX/1/1/gpx.xsd">
  <metadata>
    <name>Casa forestal Prado Grande-AR Puente Palo-Acequia Grande-Acequia Almiar-Atalaya de Soportújar-Centro budista</name>
    <author>
      <link href="https://www.komoot.de">
        <text>komoot</text>
        <type>text/html</type>
      </link>
    </author>
  </metadata>
  <trk>
    <name>Casa forestal Prado Grande-AR Puente Palo-Acequia Grande-Acequia Almiar-Atalaya de Soportújar-Centro budista</name>
    <trkseg>
      <trkpt lat="36.942811" lon="-3.406001">
        <ele>1403.862566</ele>
        <time>2021-07-04T07:11:25.160Z</time>
      </trkpt>
      <trkpt lat="36.943215" lon="-3.406189">
        <ele>1403.862566</ele>
        <time>2021-07-04T07:12:47.800Z</time>
      </trkpt>
      <trkpt lat="36.943306" lon="-3.406202">
        <ele>1403.862566</ele>
        <time>2021-07-04T07:12:55.843Z</time>
      </trkpt>
      <trkpt lat="36.943386" lon="-3.406287">
        <ele>1403.862566</ele>
        <time>2021-07-04T07:13:03.799Z</time>
      </trkpt>
      <trkpt lat="36.943454" lon="-3.406365">
        <ele>1403.862566</ele>
        <time>2021-07-04T07:13:07.833Z</time>
      </trkpt>
      <trkpt lat="36.943533" lon="-3.406425">
        <ele>1403.862566</ele>
        <time>2021-07-04T07:13:14.801Z</time>
      </trkpt>
      <trkpt lat="36.943625" lon="-3.406472">
        <ele>1403.913753</ele>
        <time>2021-07-04T07:13:22.790Z</time>
      </trkpt>
      <trkpt lat="36.943711" lon="-3.406516">
        <ele>1404.300452</ele>
        <time>2021-07-04T07:13:32.804Z</time>
      </trkpt>
      <trkpt lat="36.943807" lon="-3.406552">
        <ele>1404.717562</ele>
        <time>2021-07-04T07:13:45.817Z</time>
      </trkpt>
      <trkpt lat="36.943903" lon="-3.406594">
        <ele>1405.140833</ele>
        <time>2021-07-04T07:13:56.792Z</time>
      </trkpt>
      <trkpt lat="36.943997" lon="-3.406631">
        <ele>1405.550962</ele>
        <time>2021-07-04T07:14:02.781Z</time>
      </trkpt>
      <trkpt lat="36.944082" lon="-3.406672">
        <ele>1405.930108</ele>
        <time>2021-07-04T07:14:13.768Z</time>
      </trkpt>
      <trkpt lat="36.944543" lon="-3.406496">
        <ele>1407.936112</ele>
        <time>2021-07-04T07:15:08.837Z</time>
      </trkpt>
      <trkpt lat="36.944614" lon="-3.406405">
        <ele>1408.359132</ele>
        <time>2021-07-04T07:15:16.805Z</time>
      </trkpt>
      <trkpt lat="36.944675" lon="-3.406319">
        <ele>1408.741608</ele>
        <time>2021-07-04T07:15:24.861Z</time>
      </trkpt>
      <trkpt lat="36.944740" lon="-3.406234">
        <ele>1409.132922</ele>
        <time>2021-07-04T07:15:33.798Z</time>
      </trkpt>
      <trkpt lat="36.944808" lon="-3.406157">
        <ele>1409.514627</ele>
        <time>2021-07-04T07:15:42.804Z</time>
      </trkpt>
      <trkpt lat="36.944877" lon="-3.406064">
        <ele>1409.936725</ele>
        <time>2021-07-04T07:15:51.802Z</time>
      </trkpt>
      <trkpt lat="36.944957" lon="-3.405995">
        <ele>1410.341124</ele>
        <time>2021-07-04T07:16:00.797Z</time>
      </trkpt>
      <trkpt lat="36.945038" lon="-3.405927">
        <ele>1410.747095</ele>
        <time>2021-07-04T07:16:07.808Z</time>
      </trkpt>
      <trkpt lat="36.945108" lon="-3.405856">
        <ele>1411.122133</ele>
        <time>2021-07-04T07:16:14.795Z</time>
      </trkpt>
      <trkpt lat="36.945182" lon="-3.405791">
        <ele>1411.332877</ele>
        <time>2021-07-04T07:16:24.791Z</time>
      </trkpt>
      <trkpt lat="36.945269" lon="-3.405763">
        <ele>1411.293939</ele>
        <time>2021-07-04T07:16:32.809Z</time>
      </trkpt>
      <trkpt lat="36.945361" lon="-3.405755">
        <ele>1411.253965</ele>
        <time>2021-07-04T07:16:41.796Z</time>
      </trkpt>
      <trkpt lat="36.945453" lon="-3.405737">
        <ele>1411.213603</ele>
        <time>2021-07-04T07:16:49.803Z</time>
      </trkpt>
      <trkpt lat="36.945546" lon="-3.405727">
        <ele>1411.173143</ele>
        <time>2021-07-04T07:16:57.814Z</time>
      </trkpt>
      <trkpt lat="36.945642" lon="-3.405751">
        <ele>1411.130709</ele>
        <time>2021-07-04T07:17:05.802Z</time>
      </trkpt>
      <trkpt lat="36.945741" lon="-3.405775">
        <ele>1411.086999</ele>
        <time>2021-07-04T07:17:13.805Z</time>
      </trkpt>
      <trkpt lat="36.945841" lon="-3.405787">
        <ele>1411.043455</ele>
        <time>2021-07-04T07:17:21.795Z</time>
      </trkpt>
      <trkpt lat="36.945940" lon="-3.405795">
        <ele>1411.000454</ele>
        <time>2021-07-04T07:17:30.803Z</time>
      </trkpt>
      <trkpt lat="36.946024" lon="-3.405836">
        <ele>1410.961372</ele>
        <time>2021-07-04T07:17:38.802Z</time>
      </trkpt>
      <trkpt lat="36.946103" lon="-3.405893">
        <ele>1410.921844</ele>
        <time>2021-07-04T07:17:46.800Z</time>
      </trkpt>
      <trkpt lat="36.946180" lon="-3.405972">
        <ele>1410.878682</ele>
        <time>2021-07-04T07:17:54.804Z</time>
      </trkpt>
      <trkpt lat="36.946249" lon="-3.406062">
        <ele>1410.835479</ele>
        <time>2021-07-04T07:18:03.840Z</time>
      </trkpt>
      <trkpt lat="36.946306" lon="-3.406150">
        <ele>1410.796240</ele>
        <time>2021-07-04T07:18:16.772Z</time>
      </trkpt>
      <trkpt lat="36.946442" lon="-3.406308">
        <ele>1410.715798</ele>
        <time>2021-07-04T07:19:06.814Z</time>
      </trkpt>
      <trkpt lat="36.947022" lon="-3.406483">
        <ele>1413.062620</ele>
        <time>2021-07-04T07:19:56.807Z</time>
      </trkpt>
      <trkpt lat="36.947115" lon="-3.406484">
        <ele>1413.962812</ele>
        <time>2021-07-04T07:20:02.794Z</time>
      </trkpt>
      <trkpt lat="36.947216" lon="-3.406509">
        <ele>1414.959350</ele>
        <time>2021-07-04T07:20:09.794Z</time>
      </trkpt>
      <trkpt lat="36.947311" lon="-3.406507">
        <ele>1415.878998</ele>
        <time>2021-07-04T07:20:16.788Z</time>
      </trkpt>
      <trkpt lat="36.947400" lon="-3.406469">
        <ele>1416.789211</ele>
        <time>2021-07-04T07:20:22.802Z</time>
      </trkpt>
      <trkpt lat="36.947479" lon="-3.406413">
        <ele>1417.668041</ele>
        <time>2021-07-04T07:20:29.793Z</time>
      </trkpt>
      <trkpt lat="36.947547" lon="-3.406332">
        <ele>1418.576772</ele>
        <time>2021-07-04T07:20:38.824Z</time>
      </trkpt>
      <trkpt lat="36.947621" lon="-3.406261">
        <ele>1419.479358</ele>
        <time>2021-07-04T07:20:44.798Z</time>
      </trkpt>
      <trkpt lat="36.947723" lon="-3.406259">
        <ele>1420.466751</ele>
        <time>2021-07-04T07:20:52.788Z</time>
      </trkpt>
      <trkpt lat="36.947811" lon="-3.406282">
        <ele>1421.336898</ele>
        <time>2021-07-04T07:20:58.797Z</time>
      </trkpt>
      <trkpt lat="36.947916" lon="-3.406296">
        <ele>1422.358960</ele>
        <time>2021-07-04T07:21:05.796Z</time>
      </trkpt>
      <trkpt lat="36.948007" lon="-3.406303">
        <ele>1423.241425</ele>
        <time>2021-07-04T07:21:11.773Z</time>
      </trkpt>
      <trkpt lat="36.948101" lon="-3.406297">
        <ele>1424.152446</ele>
        <time>2021-07-04T07:21:19.812Z</time>
      </trkpt>
      <trkpt lat="36.948194" lon="-3.406273">
        <ele>1425.071551</ele>
        <time>2021-07-04T07:21:27.772Z</time>
      </trkpt>
      <trkpt lat="36.948296" lon="-3.406272">
        <ele>1426.058853</ele>
        <time>2021-07-04T07:21:36.779Z</time>
      </trkpt>
      <trkpt lat="36.948398" lon="-3.406297">
        <ele>1427.064886</ele>
        <time>2021-07-04T07:21:44.776Z</time>
      </trkpt>
      <trkpt lat="36.948486" lon="-3.406333">
        <ele>1427.961016</ele>
        <time>2021-07-04T07:21:51.780Z</time>
      </trkpt>
      <trkpt lat="36.948576" lon="-3.406375">
        <ele>1428.305346</ele>
        <time>2021-07-04T07:22:00.774Z</time>
      </trkpt>
      <trkpt lat="36.948637" lon="-3.406464">
        <ele>1428.630499</ele>
        <time>2021-07-04T07:22:07.774Z</time>
      </trkpt>
      <trkpt lat="36.948686" lon="-3.406572">
        <ele>1428.974905</ele>
        <time>2021-07-04T07:22:12.774Z</time>
      </trkpt>
      <trkpt lat="36.948738" lon="-3.406673">
        <ele>1429.308090</ele>
        <time>2021-07-04T07:22:21.778Z</time>
      </trkpt>
      <trkpt lat="36.948796" lon="-3.406773">
        <ele>1429.650748</ele>
        <time>2021-07-04T07:22:27.783Z</time>
      </trkpt>
      <trkpt lat="36.948864" lon="-3.406850">
        <ele>1429.968989</ele>
        <time>2021-07-04T07:22:36.783Z</time>
      </trkpt>
      <trkpt lat="36.948966" lon="-3.406889">
        <ele>1430.339094</ele>
        <time>2021-07-04T07:22:43.782Z</time>
      </trkpt>
      <trkpt lat="36.949053" lon="-3.406926">
        <ele>1430.657952</ele>
        <time>2021-07-04T07:22:49.794Z</time>
      </trkpt>
      <trkpt lat="36.949136" lon="-3.406999">
        <ele>1431.009999</ele>
        <time>2021-07-04T07:22:57.781Z</time>
      </trkpt>
      <trkpt lat="36.949205" lon="-3.407090">
        <ele>1431.357871</ele>
        <time>2021-07-04T07:23:05.781Z</time>
      </trkpt>
      <trkpt lat="36.949268" lon="-3.407177">
        <ele>1431.683451</ele>
        <time>2021-07-04T07:23:12.775Z</time>
      </trkpt>
      <trkpt lat="36.949339" lon="-3.407255">
        <ele>1432.011309</ele>
        <time>2021-07-04T07:23:20.772Z</time>
      </trkpt>
      <trkpt lat="36.949401" lon="-3.407353">
        <ele>1432.357931</ele>
        <time>2021-07-04T07:23:27.775Z</time>
      </trkpt>
      <trkpt lat="36.949471" lon="-3.407442">
        <ele>1432.704226</ele>
        <time>2021-07-04T07:23:34.771Z</time>
      </trkpt>
      <trkpt lat="36.949533" lon="-3.407532">
        <ele>1433.033742</ele>
        <time>2021-07-04T07:23:41.796Z</time>
      </trkpt>
      <trkpt lat="36.949593" lon="-3.407636">
        <ele>1433.389452</ele>
        <time>2021-07-04T07:23:48.782Z</time>
      </trkpt>
      <trkpt lat="36.949627" lon="-3.407756">
        <ele>1433.742528</ele>
        <time>2021-07-04T07:23:55.778Z</time>
      </trkpt>
      <trkpt lat="36.949649" lon="-3.407878">
        <ele>1434.089361</ele>
        <time>2021-07-04T07:24:01.777Z</time>
      </trkpt>
      <trkpt lat="36.949671" lon="-3.407997">
        <ele>1434.285957</ele>
        <time>2021-07-04T07:24:07.774Z</time>
      </trkpt>
      <trkpt lat="36.949708" lon="-3.408109">
        <ele>1434.392898</ele>
        <time>2021-07-04T07:24:16.787Z</time>
      </trkpt>
      <trkpt lat="36.949739" lon="-3.408220">
        <ele>1434.496653</ele>
        <time>2021-07-04T07:24:26.777Z</time>
      </trkpt>
      <trkpt lat="36.949765" lon="-3.408341">
        <ele>1434.607217</ele>
        <time>2021-07-04T07:24:35.779Z</time>
      </trkpt>
      <trkpt lat="36.949786" lon="-3.408454">
        <ele>1434.709589</ele>
        <time>2021-07-04T07:24:42.779Z</time>
      </trkpt>
      <trkpt lat="36.949806" lon="-3.408565">
        <ele>1434.809995</ele>
        <time>2021-07-04T07:24:49.776Z</time>
      </trkpt>
      <trkpt lat="36.949816" lon="-3.408686">
        <ele>1434.917336</ele>
        <time>2021-07-04T07:24:56.774Z</time>
      </trkpt>
      <trkpt lat="36.949866" lon="-3.408796">
        <ele>1435.029003</ele>
        <time>2021-07-04T07:25:05.780Z</time>
      </trkpt>
      <trkpt lat="36.949937" lon="-3.408883">
        <ele>1435.138727</ele>
        <time>2021-07-04T07:25:13.779Z</time>
      </trkpt>
      <trkpt lat="36.950001" lon="-3.408976">
        <ele>1435.247024</ele>
        <time>2021-07-04T07:25:21.782Z</time>
      </trkpt>
      <trkpt lat="36.950071" lon="-3.409061">
        <ele>1435.354725</ele>
        <time>2021-07-04T07:25:28.771Z</time>
      </trkpt>
      <trkpt lat="36.950142" lon="-3.409151">
        <ele>1435.466318</ele>
        <time>2021-07-04T07:25:36.774Z</time>
      </trkpt>
      <trkpt lat="36.950201" lon="-3.409247">
        <ele>1435.573181</ele>
        <time>2021-07-04T07:25:45.779Z</time>
      </trkpt>
      <trkpt lat="36.950260" lon="-3.409352">
        <ele>1435.686444</ele>
        <time>2021-07-04T07:25:51.772Z</time>
      </trkpt>
      <trkpt lat="36.950326" lon="-3.409445">
        <ele>1435.796194</ele>
        <time>2021-07-04T07:25:59.799Z</time>
      </trkpt>
      <trkpt lat="36.950403" lon="-3.409526">
        <ele>1435.907267</ele>
        <time>2021-07-04T07:26:07.774Z</time>
      </trkpt>
      <trkpt lat="36.950480" lon="-3.409608">
        <ele>1436.018909</ele>
        <time>2021-07-04T07:26:15.777Z</time>
      </trkpt>
      <trkpt lat="36.950561" lon="-3.409673">
        <ele>1436.125157</ele>
        <time>2021-07-04T07:26:23.796Z</time>
      </trkpt>
      <trkpt lat="36.950640" lon="-3.409726">
        <ele>1436.291357</ele>
        <time>2021-07-04T07:26:32.776Z</time>
      </trkpt>
      <trkpt lat="36.950726" lon="-3.409769">
        <ele>1436.765043</ele>
        <time>2021-07-04T07:26:40.775Z</time>
      </trkpt>
      <trkpt lat="36.950805" lon="-3.409829">
        <ele>1437.237713</ele>
        <time>2021-07-04T07:26:48.775Z</time>
      </trkpt>
      <trkpt lat="36.950889" lon="-3.409884">
        <ele>1437.722616</ele>
        <time>2021-07-04T07:26:54.772Z</time>
      </trkpt>
      <trkpt lat="36.950983" lon="-3.409915">
        <ele>1438.219821</ele>
        <time>2021-07-04T07:27:01.780Z</time>
      </trkpt>
      <trkpt lat="36.951082" lon="-3.409916">
        <ele>1438.726199</ele>
        <time>2021-07-04T07:27:09.794Z</time>
      </trkpt>
      <trkpt lat="36.951177" lon="-3.409881">
        <ele>1439.232725</ele>
        <time>2021-07-04T07:27:21.803Z</time>
      </trkpt>
      <trkpt lat="36.951282" lon="-3.409854">
        <ele>1439.780998</ele>
        <time>2021-07-04T07:27:29.781Z</time>
      </trkpt>
      <trkpt lat="36.951384" lon="-3.409846">
        <ele>1440.303728</ele>
        <time>2021-07-04T07:27:34.774Z</time>
      </trkpt>
      <trkpt lat="36.951474" lon="-3.409856">
        <ele>1440.765868</ele>
        <time>2021-07-04T07:27:39.778Z</time>
      </trkpt>
      <trkpt lat="36.951562" lon="-3.409890">
        <ele>1441.236934</ele>
        <time>2021-07-04T07:27:47.770Z</time>
      </trkpt>
      <trkpt lat="36.951629" lon="-3.409996">
        <ele>1441.789344</ele>
        <time>2021-07-04T07:27:55.801Z</time>
      </trkpt>
      <trkpt lat="36.951694" lon="-3.410081">
        <ele>1442.270217</ele>
        <time>2021-07-04T07:28:03.776Z</time>
      </trkpt>
      <trkpt lat="36.951776" lon="-3.410155">
        <ele>1442.787318</ele>
        <time>2021-07-04T07:28:12.774Z</time>
      </trkpt>
      <trkpt lat="36.951859" lon="-3.410239">
        <ele>1443.333309</ele>
        <time>2021-07-04T07:28:23.773Z</time>
      </trkpt>
      <trkpt lat="36.951956" lon="-3.410263">
        <ele>1443.839047</ele>
        <time>2021-07-04T07:28:31.801Z</time>
      </trkpt>
      <trkpt lat="36.952046" lon="-3.410223">
        <ele>1444.327549</ele>
        <time>2021-07-04T07:28:39.776Z</time>
      </trkpt>
      <trkpt lat="36.952116" lon="-3.410152">
        <ele>1444.788426</ele>
        <time>2021-07-04T07:28:52.764Z</time>
      </trkpt>
      <trkpt lat="36.952175" lon="-3.410055">
        <ele>1445.286684</ele>
        <time>2021-07-04T07:29:22.783Z</time>
      </trkpt>
      <trkpt lat="36.952231" lon="-3.409953">
        <ele>1446.554172</ele>
        <time>2021-07-04T07:29:32.797Z</time>
      </trkpt>
      <trkpt lat="36.952297" lon="-3.409868">
        <ele>1447.991399</ele>
        <time>2021-07-04T07:29:40.774Z</time>
      </trkpt>
      <trkpt lat="36.952384" lon="-3.409811">
        <ele>1449.481632</ele>
        <time>2021-07-04T07:29:51.777Z</time>
      </trkpt>
      <trkpt lat="36.952475" lon="-3.409848">
        <ele>1450.933623</ele>
        <time>2021-07-04T07:30:00.774Z</time>
      </trkpt>
      <trkpt lat="36.952533" lon="-3.409954">
        <ele>1452.491518</ele>
        <time>2021-07-04T07:30:16.774Z</time>
      </trkpt>
      <trkpt lat="36.952597" lon="-3.410042">
        <ele>1453.934454</ele>
        <time>2021-07-04T07:30:23.777Z</time>
      </trkpt>
      <trkpt lat="36.952678" lon="-3.410111">
        <ele>1455.421405</ele>
        <time>2021-07-04T07:30:32.776Z</time>
      </trkpt>
      <trkpt lat="36.952766" lon="-3.410085">
        <ele>1456.793522</ele>
        <time>2021-07-04T07:30:44.773Z</time>
      </trkpt>
      <trkpt lat="36.952838" lon="-3.410007">
        <ele>1458.238680</ele>
        <time>2021-07-04T07:30:54.772Z</time>
      </trkpt>
      <trkpt lat="36.952928" lon="-3.409963">
        <ele>1459.704961</ele>
        <time>2021-07-04T07:31:03.777Z</time>
      </trkpt>
      <trkpt lat="36.952934" lon="-3.410081">
        <ele>1461.138815</ele>
        <time>2021-07-04T07:31:36.771Z</time>
      </trkpt>
      <trkpt lat="36.952904" lon="-3.410187">
        <ele>1462.502489</ele>
        <time>2021-07-04T07:31:43.776Z</time>
      </trkpt>
      <trkpt lat="36.952866" lon="-3.410290">
        <ele>1463.878235</ele>
        <time>2021-07-04T07:31:53.776Z</time>
      </trkpt>
      <trkpt lat="36.952855" lon="-3.410410">
        <ele>1465.342993</ele>
        <time>2021-07-04T07:32:03.778Z</time>
      </trkpt>
      <trkpt lat="36.952935" lon="-3.410474">
        <ele>1466.783878</ele>
        <time>2021-07-04T07:32:18.776Z</time>
      </trkpt>
      <trkpt lat="36.953029" lon="-3.410439">
        <ele>1468.272133</ele>
        <time>2021-07-04T07:32:32.774Z</time>
      </trkpt>
      <trkpt lat="36.953089" lon="-3.410353">
        <ele>1469.656566</ele>
        <time>2021-07-04T07:32:44.774Z</time>
      </trkpt>
      <trkpt lat="36.953177" lon="-3.410381">
        <ele>1471.034458</ele>
        <time>2021-07-04T07:33:01.774Z</time>
      </trkpt>
      <trkpt lat="36.953207" lon="-3.410490">
        <ele>1472.432473</ele>
        <time>2021-07-04T07:33:13.776Z</time>
      </trkpt>
      <trkpt lat="36.953295" lon="-3.410522">
        <ele>1474.438244</ele>
        <time>2021-07-04T07:33:41.778Z</time>
      </trkpt>
      <trkpt lat="36.953384" lon="-3.410497">
        <ele>1476.580322</ele>
        <time>2021-07-04T07:33:49.788Z</time>
      </trkpt>
      <trkpt lat="36.953476" lon="-3.410513">
        <ele>1478.761606</ele>
        <time>2021-07-04T07:34:14.795Z</time>
      </trkpt>
      <trkpt lat="36.953572" lon="-3.410511">
        <ele>1481.016373</ele>
        <time>2021-07-04T07:34:23.812Z</time>
      </trkpt>
      <trkpt lat="36.953671" lon="-3.410524">
        <ele>1483.354044</ele>
        <time>2021-07-04T07:34:34.780Z</time>
      </trkpt>
      <trkpt lat="36.953768" lon="-3.410535">
        <ele>1485.641317</ele>
        <time>2021-07-04T07:34:46.773Z</time>
      </trkpt>
      <trkpt lat="36.953871" lon="-3.410542">
        <ele>1488.063723</ele>
        <time>2021-07-04T07:34:58.793Z</time>
      </trkpt>
      <trkpt lat="36.953965" lon="-3.410548">
        <ele>1490.274080</ele>
        <time>2021-07-04T07:35:09.776Z</time>
      </trkpt>
      <trkpt lat="36.954055" lon="-3.410554">
        <ele>1492.390628</ele>
        <time>2021-07-04T07:35:25.778Z</time>
      </trkpt>
      <trkpt lat="36.954141" lon="-3.410512">
        <ele>1494.558596</ele>
        <time>2021-07-04T07:35:48.773Z</time>
      </trkpt>
      <trkpt lat="36.954228" lon="-3.410482">
        <ele>1496.677845</ele>
        <time>2021-07-04T07:36:26.772Z</time>
      </trkpt>
      <trkpt lat="36.954320" lon="-3.410473">
        <ele>1498.844955</ele>
        <time>2021-07-04T07:36:37.776Z</time>
      </trkpt>
      <trkpt lat="36.954403" lon="-3.410422">
        <ele>1501.016417</ele>
        <time>2021-07-04T07:36:44.773Z</time>
      </trkpt>
      <trkpt lat="36.954478" lon="-3.410351">
        <ele>1503.224915</ele>
        <time>2021-07-04T07:36:54.801Z</time>
      </trkpt>
      <trkpt lat="36.954561" lon="-3.410205">
        <ele>1506.587380</ele>
        <time>2021-07-04T07:37:36.774Z</time>
      </trkpt>
      <trkpt lat="36.954618" lon="-3.410110">
        <ele>1508.816766</ele>
        <time>2021-07-04T07:38:02.773Z</time>
      </trkpt>
      <trkpt lat="36.954641" lon="-3.409994">
        <ele>1511.059660</ele>
        <time>2021-07-04T07:38:10.772Z</time>
      </trkpt>
      <trkpt lat="36.954658" lon="-3.409878">
        <ele>1513.272851</ele>
        <time>2021-07-04T07:38:19.778Z</time>
      </trkpt>
      <trkpt lat="36.954651" lon="-3.409754">
        <ele>1515.668626</ele>
        <time>2021-07-04T07:38:28.774Z</time>
      </trkpt>
      <trkpt lat="36.954633" lon="-3.409641">
        <ele>1518.035088</ele>
        <time>2021-07-04T07:38:39.787Z</time>
      </trkpt>
      <trkpt lat="36.954608" lon="-3.409522">
        <ele>1520.562167</ele>
        <time>2021-07-04T07:38:47.778Z</time>
      </trkpt>
      <trkpt lat="36.954630" lon="-3.409412">
        <ele>1522.891038</ele>
        <time>2021-07-04T07:39:04.775Z</time>
      </trkpt>
      <trkpt lat="36.954712" lon="-3.409465">
        <ele>1525.263040</ele>
        <time>2021-07-04T07:39:51.775Z</time>
      </trkpt>
      <trkpt lat="36.954790" lon="-3.409521">
        <ele>1527.574225</ele>
        <time>2021-07-04T07:40:10.792Z</time>
      </trkpt>
      <trkpt lat="36.954850" lon="-3.409620">
        <ele>1530.126113</ele>
        <time>2021-07-04T07:40:18.774Z</time>
      </trkpt>
      <trkpt lat="36.954918" lon="-3.409713">
        <ele>1532.715053</ele>
        <time>2021-07-04T07:40:33.809Z</time>
      </trkpt>
      <trkpt lat="36.954987" lon="-3.409802">
        <ele>1535.261819</ele>
        <time>2021-07-04T07:40:41.773Z</time>
      </trkpt>
      <trkpt lat="36.955053" lon="-3.409884">
        <ele>1537.652130</ele>
        <time>2021-07-04T07:40:49.773Z</time>
      </trkpt>
      <trkpt lat="36.955135" lon="-3.409833">
        <ele>1540.005562</ele>
        <time>2021-07-04T07:41:05.774Z</time>
      </trkpt>
      <trkpt lat="36.955132" lon="-3.409720">
        <ele>1542.327630</ele>
        <time>2021-07-04T07:41:19.791Z</time>
      </trkpt>
      <trkpt lat="36.955214" lon="-3.409668">
        <ele>1544.690275</ele>
        <time>2021-07-04T07:41:47.770Z</time>
      </trkpt>
      <trkpt lat="36.955290" lon="-3.409746">
        <ele>1547.216456</ele>
        <time>2021-07-04T07:42:14.775Z</time>
      </trkpt>
      <trkpt lat="36.955353" lon="-3.409828">
        <ele>1549.552677</ele>
        <time>2021-07-04T07:42:24.771Z</time>
      </trkpt>
      <trkpt lat="36.955428" lon="-3.409893">
        <ele>1551.897396</ele>
        <time>2021-07-04T07:42:35.785Z</time>
      </trkpt>
      <trkpt lat="36.955530" lon="-3.409901">
        <ele>1554.524054</ele>
        <time>2021-07-04T07:42:50.771Z</time>
      </trkpt>
      <trkpt lat="36.955623" lon="-3.409878">
        <ele>1556.960489</ele>
        <time>2021-07-04T07:43:00.775Z</time>
      </trkpt>
      <trkpt lat="36.955700" lon="-3.409808">
        <ele>1559.406550</ele>
        <time>2021-07-04T07:43:11.777Z</time>
      </trkpt>
      <trkpt lat="36.955632" lon="-3.409732">
        <ele>1561.705130</ele>
        <time>2021-07-04T07:43:25.776Z</time>
      </trkpt>
      <trkpt lat="36.955630" lon="-3.409617">
        <ele>1563.886879</ele>
        <time>2021-07-04T07:44:00.823Z</time>
      </trkpt>
      <trkpt lat="36.955697" lon="-3.409540">
        <ele>1566.046051</ele>
        <time>2021-07-04T07:44:21.784Z</time>
      </trkpt>
      <trkpt lat="36.955774" lon="-3.409481">
        <ele>1568.189089</ele>
        <time>2021-07-04T07:44:33.773Z</time>
      </trkpt>
      <trkpt lat="36.955838" lon="-3.409400">
        <ele>1570.349638</ele>
        <time>2021-07-04T07:44:39.771Z</time>
      </trkpt>
      <trkpt lat="36.955912" lon="-3.409329">
        <ele>1572.562919</ele>
        <time>2021-07-04T07:44:46.775Z</time>
      </trkpt>
      <trkpt lat="36.955995" lon="-3.409271">
        <ele>1574.819323</ele>
        <time>2021-07-04T07:44:56.775Z</time>
      </trkpt>
      <trkpt lat="36.956077" lon="-3.409217">
        <ele>1577.018694</ele>
        <time>2021-07-04T07:45:21.788Z</time>
      </trkpt>
      <trkpt lat="36.956175" lon="-3.409210">
        <ele>1579.348580</ele>
        <time>2021-07-04T07:45:32.787Z</time>
      </trkpt>
      <trkpt lat="36.956266" lon="-3.409218">
        <ele>1581.513854</ele>
        <time>2021-07-04T07:45:58.777Z</time>
      </trkpt>
      <trkpt lat="36.956356" lon="-3.409216">
        <ele>1583.650405</ele>
        <time>2021-07-04T07:46:05.770Z</time>
      </trkpt>
      <trkpt lat="36.956448" lon="-3.409193">
        <ele>1585.877239</ele>
        <time>2021-07-04T07:46:14.776Z</time>
      </trkpt>
      <trkpt lat="36.956538" lon="-3.409167">
        <ele>1588.069635</ele>
        <time>2021-07-04T07:46:28.776Z</time>
      </trkpt>
      <trkpt lat="36.956623" lon="-3.409124">
        <ele>1590.245784</ele>
        <time>2021-07-04T07:46:37.771Z</time>
      </trkpt>
      <trkpt lat="36.956639" lon="-3.409009">
        <ele>1592.459802</ele>
        <time>2021-07-04T07:46:50.782Z</time>
      </trkpt>
      <trkpt lat="36.956609" lon="-3.408903">
        <ele>1594.592678</ele>
        <time>2021-07-04T07:47:05.774Z</time>
      </trkpt>
      <trkpt lat="36.956698" lon="-3.408920">
        <ele>1596.729623</ele>
        <time>2021-07-04T07:47:47.777Z</time>
      </trkpt>
      <trkpt lat="36.956791" lon="-3.408911">
        <ele>1598.943635</ele>
        <time>2021-07-04T07:47:53.781Z</time>
      </trkpt>
      <trkpt lat="36.956899" lon="-3.408914">
        <ele>1601.507723</ele>
        <time>2021-07-04T07:47:59.778Z</time>
      </trkpt>
      <trkpt lat="36.956994" lon="-3.408916">
        <ele>1603.762935</ele>
        <time>2021-07-04T07:48:11.770Z</time>
      </trkpt>
      <trkpt lat="36.957085" lon="-3.408915">
        <ele>1604.858555</ele>
        <time>2021-07-04T07:48:20.775Z</time>
      </trkpt>
      <trkpt lat="36.957178" lon="-3.408919">
        <ele>1605.928731</ele>
        <time>2021-07-04T07:48:29.778Z</time>
      </trkpt>
      <trkpt lat="36.957269" lon="-3.408905">
        <ele>1606.983152</ele>
        <time>2021-07-04T07:48:39.776Z</time>
      </trkpt>
      <trkpt lat="36.957361" lon="-3.408881">
        <ele>1608.063940</ele>
        <time>2021-07-04T07:48:47.777Z</time>
      </trkpt>
      <trkpt lat="36.957449" lon="-3.408853">
        <ele>1609.108181</ele>
        <time>2021-07-04T07:48:55.774Z</time>
      </trkpt>
      <trkpt lat="36.957613" lon="-3.408822">
        <ele>1611.015652</ele>
        <time>2021-07-04T07:49:32.773Z</time>
      </trkpt>
      <trkpt lat="36.957698" lon="-3.408777">
        <ele>1612.077067</ele>
        <time>2021-07-04T07:49:40.809Z</time>
      </trkpt>
      <trkpt lat="36.957789" lon="-3.408736">
        <ele>1613.189369</ele>
        <time>2021-07-04T07:49:49.777Z</time>
      </trkpt>
      <trkpt lat="36.957878" lon="-3.408707">
        <ele>1614.247037</ele>
        <time>2021-07-04T07:50:00.778Z</time>
      </trkpt>
      <trkpt lat="36.957955" lon="-3.408641">
        <ele>1615.320372</ele>
        <time>2021-07-04T07:50:10.782Z</time>
      </trkpt>
      <trkpt lat="36.958046" lon="-3.408587">
        <ele>1616.478609</ele>
        <time>2021-07-04T07:50:16.774Z</time>
      </trkpt>
      <trkpt lat="36.958140" lon="-3.408596">
        <ele>1617.562813</ele>
        <time>2021-07-04T07:50:26.779Z</time>
      </trkpt>
      <trkpt lat="36.958229" lon="-3.408625">
        <ele>1618.620481</ele>
        <time>2021-07-04T07:50:36.777Z</time>
      </trkpt>
      <trkpt lat="36.958301" lon="-3.408698">
        <ele>1619.686163</ele>
        <time>2021-07-04T07:50:48.774Z</time>
      </trkpt>
      <trkpt lat="36.958368" lon="-3.408782">
        <ele>1620.776853</ele>
        <time>2021-07-04T07:50:58.777Z</time>
      </trkpt>
      <trkpt lat="36.958455" lon="-3.408833">
        <ele>1621.881724</ele>
        <time>2021-07-04T07:51:08.771Z</time>
      </trkpt>
      <trkpt lat="36.958543" lon="-3.408865">
        <ele>1622.935624</ele>
        <time>2021-07-04T07:51:20.783Z</time>
      </trkpt>
      <trkpt lat="36.958626" lon="-3.408910">
        <ele>1623.975892</ele>
        <time>2021-07-04T07:51:30.778Z</time>
      </trkpt>
      <trkpt lat="36.958719" lon="-3.408910">
        <ele>1625.382884</ele>
        <time>2021-07-04T07:51:41.779Z</time>
      </trkpt>
      <trkpt lat="36.958807" lon="-3.408861">
        <ele>1627.234999</ele>
        <time>2021-07-04T07:51:51.772Z</time>
      </trkpt>
      <trkpt lat="36.958848" lon="-3.408756">
        <ele>1629.030703</ele>
        <time>2021-07-04T07:52:03.773Z</time>
      </trkpt>
      <trkpt lat="36.958805" lon="-3.408653">
        <ele>1630.816329</ele>
        <time>2021-07-04T07:52:13.778Z</time>
      </trkpt>
      <trkpt lat="36.958737" lon="-3.408574">
        <ele>1632.600504</ele>
        <time>2021-07-04T07:52:26.771Z</time>
      </trkpt>
      <trkpt lat="36.958831" lon="-3.408560">
        <ele>1634.420809</ele>
        <time>2021-07-04T07:52:59.772Z</time>
      </trkpt>
      <trkpt lat="36.958920" lon="-3.408532">
        <ele>1636.185464</ele>
        <time>2021-07-04T07:53:17.776Z</time>
      </trkpt>
      <trkpt lat="36.959006" lon="-3.408495">
        <ele>1637.934176</ele>
        <time>2021-07-04T07:53:32.802Z</time>
      </trkpt>
      <trkpt lat="36.959100" lon="-3.408500">
        <ele>1639.743358</ele>
        <time>2021-07-04T07:53:44.798Z</time>
      </trkpt>
      <trkpt lat="36.959198" lon="-3.408498">
        <ele>1641.628076</ele>
        <time>2021-07-04T07:53:54.775Z</time>
      </trkpt>
      <trkpt lat="36.959292" lon="-3.408489">
        <ele>1643.440909</ele>
        <time>2021-07-04T07:54:05.773Z</time>
      </trkpt>
      <trkpt lat="36.959381" lon="-3.408472">
        <ele>1645.172133</ele>
        <time>2021-07-04T07:54:14.776Z</time>
      </trkpt>
      <trkpt lat="36.959478" lon="-3.408445">
        <ele>1647.082951</ele>
        <time>2021-07-04T07:54:24.791Z</time>
      </trkpt>
      <trkpt lat="36.959566" lon="-3.408403">
        <ele>1648.894007</ele>
        <time>2021-07-04T07:54:36.804Z</time>
      </trkpt>
      <trkpt lat="36.959658" lon="-3.408349">
        <ele>1650.848012</ele>
        <time>2021-07-04T07:54:44.778Z</time>
      </trkpt>
      <trkpt lat="36.959749" lon="-3.408316">
        <ele>1652.669858</ele>
        <time>2021-07-04T07:54:57.772Z</time>
      </trkpt>
      <trkpt lat="36.959842" lon="-3.408310">
        <ele>1654.460554</ele>
        <time>2021-07-04T07:55:13.787Z</time>
      </trkpt>
      <trkpt lat="36.960073" lon="-3.408196">
        <ele>1659.199318</ele>
        <time>2021-07-04T07:56:30.787Z</time>
      </trkpt>
      <trkpt lat="36.960167" lon="-3.408178">
        <ele>1660.402493</ele>
        <time>2021-07-04T07:56:44.794Z</time>
      </trkpt>
      <trkpt lat="36.960294" lon="-3.408291">
        <ele>1662.374080</ele>
        <time>2021-07-04T07:57:35.800Z</time>
      </trkpt>
      <trkpt lat="36.960380" lon="-3.408408">
        <ele>1663.981303</ele>
        <time>2021-07-04T07:57:46.790Z</time>
      </trkpt>
      <trkpt lat="36.960463" lon="-3.408343">
        <ele>1665.220121</ele>
        <time>2021-07-04T07:58:40.794Z</time>
      </trkpt>
      <trkpt lat="36.960395" lon="-3.408428">
        <ele>1666.436144</ele>
        <time>2021-07-04T07:58:50.799Z</time>
      </trkpt>
      <trkpt lat="36.960475" lon="-3.408483">
        <ele>1667.591018</ele>
        <time>2021-07-04T07:59:30.796Z</time>
      </trkpt>
      <trkpt lat="36.960572" lon="-3.408506">
        <ele>1668.840142</ele>
        <time>2021-07-04T07:59:47.817Z</time>
      </trkpt>
      <trkpt lat="36.960667" lon="-3.408491">
        <ele>1670.051656</ele>
        <time>2021-07-04T07:59:58.796Z</time>
      </trkpt>
      <trkpt lat="36.960758" lon="-3.408472">
        <ele>1671.218944</ele>
        <time>2021-07-04T08:00:06.793Z</time>
      </trkpt>
      <trkpt lat="36.960854" lon="-3.408455">
        <ele>1672.445681</ele>
        <time>2021-07-04T08:00:16.838Z</time>
      </trkpt>
      <trkpt lat="36.960945" lon="-3.408456">
        <ele>1673.597100</ele>
        <time>2021-07-04T08:00:25.797Z</time>
      </trkpt>
      <trkpt lat="36.961046" lon="-3.408471">
        <ele>1674.883967</ele>
        <time>2021-07-04T08:00:33.804Z</time>
      </trkpt>
      <trkpt lat="36.961143" lon="-3.408499">
        <ele>1676.143480</ele>
        <time>2021-07-04T08:00:41.794Z</time>
      </trkpt>
      <trkpt lat="36.961238" lon="-3.408513">
        <ele>1677.353769</ele>
        <time>2021-07-04T08:00:51.804Z</time>
      </trkpt>
      <trkpt lat="36.961325" lon="-3.408558">
        <ele>1678.544843</ele>
        <time>2021-07-04T08:01:04.798Z</time>
      </trkpt>
      <trkpt lat="36.961424" lon="-3.408545">
        <ele>1679.804314</ele>
        <time>2021-07-04T08:01:18.779Z</time>
      </trkpt>
      <trkpt lat="36.961521" lon="-3.408491">
        <ele>1681.147550</ele>
        <time>2021-07-04T08:01:24.783Z</time>
      </trkpt>
      <trkpt lat="36.961604" lon="-3.408444">
        <ele>1682.458918</ele>
        <time>2021-07-04T08:01:31.771Z</time>
      </trkpt>
      <trkpt lat="36.961699" lon="-3.408431">
        <ele>1684.132714</ele>
        <time>2021-07-04T08:01:49.774Z</time>
      </trkpt>
      <trkpt lat="36.961779" lon="-3.408491">
        <ele>1685.766215</ele>
        <time>2021-07-04T08:02:11.773Z</time>
      </trkpt>
      <trkpt lat="36.961878" lon="-3.408514">
        <ele>1687.529776</ele>
        <time>2021-07-04T08:02:29.781Z</time>
      </trkpt>
      <trkpt lat="36.961970" lon="-3.408521">
        <ele>1689.144087</ele>
        <time>2021-07-04T08:02:51.774Z</time>
      </trkpt>
      <trkpt lat="36.962066" lon="-3.408533">
        <ele>1690.833847</ele>
        <time>2021-07-04T08:03:08.777Z</time>
      </trkpt>
      <trkpt lat="36.962158" lon="-3.408556">
        <ele>1692.477017</ele>
        <time>2021-07-04T08:03:17.777Z</time>
      </trkpt>
      <trkpt lat="36.962243" lon="-3.408593">
        <ele>1694.053231</ele>
        <time>2021-07-04T08:03:32.774Z</time>
      </trkpt>
      <trkpt lat="36.962338" lon="-3.408634">
        <ele>1695.813265</ele>
        <time>2021-07-04T08:03:39.798Z</time>
      </trkpt>
      <trkpt lat="36.962429" lon="-3.408659">
        <ele>1697.445035</ele>
        <time>2021-07-04T08:03:55.775Z</time>
      </trkpt>
      <trkpt lat="36.962519" lon="-3.408657">
        <ele>1699.021591</ele>
        <time>2021-07-04T08:04:03.774Z</time>
      </trkpt>
      <trkpt lat="36.962615" lon="-3.408654">
        <ele>1700.703509</ele>
        <time>2021-07-04T08:04:09.773Z</time>
      </trkpt>
      <trkpt lat="36.962706" lon="-3.408691">
        <ele>1702.379332</ele>
        <time>2021-07-04T08:04:21.781Z</time>
      </trkpt>
      <trkpt lat="36.962876" lon="-3.408798">
        <ele>1705.712136</ele>
        <time>2021-07-04T08:05:08.774Z</time>
      </trkpt>
      <trkpt lat="36.962969" lon="-3.408787">
        <ele>1707.348244</ele>
        <time>2021-07-04T08:05:17.796Z</time>
      </trkpt>
      <trkpt lat="36.963062" lon="-3.408772">
        <ele>1708.990566</ele>
        <time>2021-07-04T08:05:27.777Z</time>
      </trkpt>
      <trkpt lat="36.963156" lon="-3.408774">
        <ele>1710.637169</ele>
        <time>2021-07-04T08:05:38.776Z</time>
      </trkpt>
      <trkpt lat="36.963252" lon="-3.408768">
        <ele>1712.320658</ele>
        <time>2021-07-04T08:05:52.774Z</time>
      </trkpt>
      <trkpt lat="36.963343" lon="-3.408763">
        <ele>1713.905288</ele>
        <time>2021-07-04T08:06:13.771Z</time>
      </trkpt>
      <trkpt lat="36.963438" lon="-3.408770">
        <ele>1715.538089</ele>
        <time>2021-07-04T08:06:21.774Z</time>
      </trkpt>
      <trkpt lat="36.963537" lon="-3.408767">
        <ele>1717.237196</ele>
        <time>2021-07-04T08:06:29.778Z</time>
      </trkpt>
      <trkpt lat="36.963627" lon="-3.408776">
        <ele>1718.786307</ele>
        <time>2021-07-04T08:06:38.775Z</time>
      </trkpt>
      <trkpt lat="36.963720" lon="-3.408817">
        <ele>1720.478074</ele>
        <time>2021-07-04T08:06:47.774Z</time>
      </trkpt>
      <trkpt lat="36.963817" lon="-3.408811">
        <ele>1722.144399</ele>
        <time>2021-07-04T08:06:57.776Z</time>
      </trkpt>
      <trkpt lat="36.963908" lon="-3.408801">
        <ele>1723.711753</ele>
        <time>2021-07-04T08:07:10.778Z</time>
      </trkpt>
      <trkpt lat="36.964002" lon="-3.408823">
        <ele>1725.352532</ele>
        <time>2021-07-04T08:07:21.771Z</time>
      </trkpt>
      <trkpt lat="36.964093" lon="-3.408847">
        <ele>1726.948170</ele>
        <time>2021-07-04T08:07:34.772Z</time>
      </trkpt>
      <trkpt lat="36.964186" lon="-3.408862">
        <ele>1728.557029</ele>
        <time>2021-07-04T08:07:45.775Z</time>
      </trkpt>
      <trkpt lat="36.964277" lon="-3.408870">
        <ele>1730.122224</ele>
        <time>2021-07-04T08:07:56.770Z</time>
      </trkpt>
      <trkpt lat="36.964421" lon="-3.408807">
        <ele>1732.739534</ele>
        <time>2021-07-04T08:10:02.842Z</time>
      </trkpt>
      <trkpt lat="36.964510" lon="-3.408791">
        <ele>1734.282240</ele>
        <time>2021-07-04T08:10:11.825Z</time>
      </trkpt>
      <trkpt lat="36.964576" lon="-3.408712">
        <ele>1735.849171</ele>
        <time>2021-07-04T08:10:25.829Z</time>
      </trkpt>
      <trkpt lat="36.964624" lon="-3.408606">
        <ele>1737.519486</ele>
        <time>2021-07-04T08:10:31.814Z</time>
      </trkpt>
      <trkpt lat="36.964561" lon="-3.408491">
        <ele>1739.431008</ele>
        <time>2021-07-04T08:10:38.800Z</time>
      </trkpt>
      <trkpt lat="36.964642" lon="-3.408562">
        <ele>1741.127730</ele>
        <time>2021-07-04T08:11:02.785Z</time>
      </trkpt>
      <trkpt lat="36.964730" lon="-3.408589">
        <ele>1742.682313</ele>
        <time>2021-07-04T08:11:26.772Z</time>
      </trkpt>
      <trkpt lat="36.964678" lon="-3.408495">
        <ele>1744.249682</ele>
        <time>2021-07-04T08:11:43.771Z</time>
      </trkpt>
      <trkpt lat="36.964651" lon="-3.408384">
        <ele>1746.414847</ele>
        <time>2021-07-04T08:11:54.774Z</time>
      </trkpt>
      <trkpt lat="36.964738" lon="-3.408346">
        <ele>1748.567011</ele>
        <time>2021-07-04T08:12:11.771Z</time>
      </trkpt>
      <trkpt lat="36.964830" lon="-3.408372">
        <ele>1750.769867</ele>
        <time>2021-07-04T08:12:29.774Z</time>
      </trkpt>
      <trkpt lat="36.964920" lon="-3.408386">
        <ele>1752.888086</ele>
        <time>2021-07-04T08:13:01.775Z</time>
      </trkpt>
      <trkpt lat="36.965013" lon="-3.408369">
        <ele>1755.083244</ele>
        <time>2021-07-04T08:13:10.774Z</time>
      </trkpt>
      <trkpt lat="36.965021" lon="-3.408253">
        <ele>1757.256032</ele>
        <time>2021-07-04T08:13:41.799Z</time>
      </trkpt>
      <trkpt lat="36.964946" lon="-3.408178">
        <ele>1759.498217</ele>
        <time>2021-07-04T08:13:55.775Z</time>
      </trkpt>
      <trkpt lat="36.964836" lon="-3.408160">
        <ele>1762.089249</ele>
        <time>2021-07-04T08:14:02.775Z</time>
      </trkpt>
      <trkpt lat="36.964758" lon="-3.408097">
        <ele>1764.257446</ele>
        <time>2021-07-04T08:14:12.783Z</time>
      </trkpt>
      <trkpt lat="36.964813" lon="-3.408004">
        <ele>1766.416662</ele>
        <time>2021-07-04T08:14:43.771Z</time>
      </trkpt>
      <trkpt lat="36.965036" lon="-3.407998">
        <ele>1771.626265</ele>
        <time>2021-07-04T08:15:20.772Z</time>
      </trkpt>
      <trkpt lat="36.965130" lon="-3.407993">
        <ele>1773.823715</ele>
        <time>2021-07-04T08:15:30.779Z</time>
      </trkpt>
      <trkpt lat="36.965224" lon="-3.407973">
        <ele>1776.050682</ele>
        <time>2021-07-04T08:15:48.775Z</time>
      </trkpt>
      <trkpt lat="36.965236" lon="-3.407851">
        <ele>1778.344572</ele>
        <time>2021-07-04T08:16:01.773Z</time>
      </trkpt>
      <trkpt lat="36.965323" lon="-3.407799">
        <ele>1780.596371</ele>
        <time>2021-07-04T08:16:38.778Z</time>
      </trkpt>
      <trkpt lat="36.965405" lon="-3.407847">
        <ele>1782.710690</ele>
        <time>2021-07-04T08:16:48.778Z</time>
      </trkpt>
      <trkpt lat="36.965497" lon="-3.407830">
        <ele>1784.882739</ele>
        <time>2021-07-04T08:17:00.792Z</time>
      </trkpt>
      <trkpt lat="36.965585" lon="-3.407793">
        <ele>1786.637102</ele>
        <time>2021-07-04T08:17:09.777Z</time>
      </trkpt>
      <trkpt lat="36.965681" lon="-3.407785">
        <ele>1787.709560</ele>
        <time>2021-07-04T08:17:20.769Z</time>
      </trkpt>
      <trkpt lat="36.965773" lon="-3.407798">
        <ele>1788.741577</ele>
        <time>2021-07-04T08:17:27.774Z</time>
      </trkpt>
      <trkpt lat="36.966271" lon="-3.407743">
        <ele>1794.314235</ele>
        <time>2021-07-04T08:18:42.783Z</time>
      </trkpt>
      <trkpt lat="36.966367" lon="-3.407735">
        <ele>1795.386693</ele>
        <time>2021-07-04T08:18:54.777Z</time>
      </trkpt>
      <trkpt lat="36.966450" lon="-3.407789">
        <ele>1796.429408</ele>
        <time>2021-07-04T08:19:00.778Z</time>
      </trkpt>
      <trkpt lat="36.966525" lon="-3.407860">
        <ele>1797.477623</ele>
        <time>2021-07-04T08:19:09.803Z</time>
      </trkpt>
      <trkpt lat="36.966603" lon="-3.407922">
        <ele>1798.507595</ele>
        <time>2021-07-04T08:19:18.775Z</time>
      </trkpt>
      <trkpt lat="36.966685" lon="-3.407987">
        <ele>1799.589528</ele>
        <time>2021-07-04T08:19:25.774Z</time>
      </trkpt>
      <trkpt lat="36.966771" lon="-3.408040">
        <ele>1800.658060</ele>
        <time>2021-07-04T08:19:33.774Z</time>
      </trkpt>
      <trkpt lat="36.966855" lon="-3.408097">
        <ele>1801.723149</ele>
        <time>2021-07-04T08:19:41.776Z</time>
      </trkpt>
      <trkpt lat="36.966935" lon="-3.408150">
        <ele>1802.732113</ele>
        <time>2021-07-04T08:19:48.782Z</time>
      </trkpt>
      <trkpt lat="36.967017" lon="-3.408218">
        <ele>1803.828573</ele>
        <time>2021-07-04T08:19:57.773Z</time>
      </trkpt>
      <trkpt lat="36.967083" lon="-3.408302">
        <ele>1804.877811</ele>
        <time>2021-07-04T08:20:03.778Z</time>
      </trkpt>
      <trkpt lat="36.967154" lon="-3.408388">
        <ele>1805.979165</ele>
        <time>2021-07-04T08:20:12.802Z</time>
      </trkpt>
      <trkpt lat="36.967219" lon="-3.408477">
        <ele>1806.102322</ele>
        <time>2021-07-04T08:20:21.772Z</time>
      </trkpt>
      <trkpt lat="36.967289" lon="-3.408551">
        <ele>1805.819817</ele>
        <time>2021-07-04T08:20:28.773Z</time>
      </trkpt>
      <trkpt lat="36.967375" lon="-3.408607">
        <ele>1805.520926</ele>
        <time>2021-07-04T08:20:40.776Z</time>
      </trkpt>
      <trkpt lat="36.967476" lon="-3.408662">
        <ele>1805.181329</ele>
        <time>2021-07-04T08:20:48.778Z</time>
      </trkpt>
      <trkpt lat="36.967580" lon="-3.408729">
        <ele>1804.820696</ele>
        <time>2021-07-04T08:20:52.804Z</time>
      </trkpt>
      <trkpt lat="36.967682" lon="-3.408781">
        <ele>1804.481126</ele>
        <time>2021-07-04T08:20:56.769Z</time>
      </trkpt>
      <trkpt lat="36.967777" lon="-3.408833">
        <ele>1804.161440</ele>
        <time>2021-07-04T08:21:01.775Z</time>
      </trkpt>
      <trkpt lat="36.967861" lon="-3.408886">
        <ele>1803.871406</ele>
        <time>2021-07-04T08:21:05.772Z</time>
      </trkpt>
      <trkpt lat="36.967935" lon="-3.408952">
        <ele>1803.591250</ele>
        <time>2021-07-04T08:21:12.773Z</time>
      </trkpt>
      <trkpt lat="36.968031" lon="-3.408999">
        <ele>1803.273428</ele>
        <time>2021-07-04T08:21:19.776Z</time>
      </trkpt>
      <trkpt lat="36.968126" lon="-3.409014">
        <ele>1802.978206</ele>
        <time>2021-07-04T08:21:25.771Z</time>
      </trkpt>
      <trkpt lat="36.968225" lon="-3.409038">
        <ele>1802.667299</ele>
        <time>2021-07-04T08:21:31.774Z</time>
      </trkpt>
      <trkpt lat="36.968308" lon="-3.408987">
        <ele>1802.382222</ele>
        <time>2021-07-04T08:21:40.779Z</time>
      </trkpt>
      <trkpt lat="36.968403" lon="-3.408979">
        <ele>1802.088659</ele>
        <time>2021-07-04T08:21:51.795Z</time>
      </trkpt>
      <trkpt lat="36.968504" lon="-3.408999">
        <ele>1801.773385</ele>
        <time>2021-07-04T08:21:58.770Z</time>
      </trkpt>
      <trkpt lat="36.968596" lon="-3.409021">
        <ele>1801.484604</ele>
        <time>2021-07-04T08:22:05.777Z</time>
      </trkpt>
      <trkpt lat="36.968678" lon="-3.409079">
        <ele>1801.194206</ele>
        <time>2021-07-04T08:22:14.773Z</time>
      </trkpt>
      <trkpt lat="36.968719" lon="-3.409183">
        <ele>1800.908529</ele>
        <time>2021-07-04T08:22:22.779Z</time>
      </trkpt>
      <trkpt lat="36.968722" lon="-3.409299">
        <ele>1800.792163</ele>
        <time>2021-07-04T08:22:29.810Z</time>
      </trkpt>
      <trkpt lat="36.968682" lon="-3.409178">
        <ele>1800.859741</ele>
        <time>2021-07-04T08:23:13.812Z</time>
      </trkpt>
      <trkpt lat="36.968593" lon="-3.409236">
        <ele>1800.924554</ele>
        <time>2021-07-04T08:23:33.777Z</time>
      </trkpt>
      <trkpt lat="36.968509" lon="-3.409314">
        <ele>1800.992113</ele>
        <time>2021-07-04T08:23:40.771Z</time>
      </trkpt>
      <trkpt lat="36.968427" lon="-3.409392">
        <ele>1801.058639</ele>
        <time>2021-07-04T08:23:46.775Z</time>
      </trkpt>
      <trkpt lat="36.968367" lon="-3.409492">
        <ele>1801.123178</ele>
        <time>2021-07-04T08:23:53.776Z</time>
      </trkpt>
      <trkpt lat="36.968297" lon="-3.409566">
        <ele>1801.182362</ele>
        <time>2021-07-04T08:23:59.778Z</time>
      </trkpt>
      <trkpt lat="36.968204" lon="-3.409610">
        <ele>1801.246581</ele>
        <time>2021-07-04T08:24:06.774Z</time>
      </trkpt>
      <trkpt lat="36.968116" lon="-3.409658">
        <ele>1801.308586</ele>
        <time>2021-07-04T08:24:13.803Z</time>
      </trkpt>
      <trkpt lat="36.968037" lon="-3.409718">
        <ele>1801.368274</ele>
        <time>2021-07-04T08:24:20.783Z</time>
      </trkpt>
      <trkpt lat="36.967954" lon="-3.409782">
        <ele>1801.431243</ele>
        <time>2021-07-04T08:24:28.773Z</time>
      </trkpt>
      <trkpt lat="36.967866" lon="-3.409849">
        <ele>1801.497775</ele>
        <time>2021-07-04T08:24:33.772Z</time>
      </trkpt>
      <trkpt lat="36.967785" lon="-3.409911">
        <ele>1801.559103</ele>
        <time>2021-07-04T08:24:39.779Z</time>
      </trkpt>
      <trkpt lat="36.967699" lon="-3.409974">
        <ele>1801.623467</ele>
        <time>2021-07-04T08:24:50.776Z</time>
      </trkpt>
      <trkpt lat="36.967630" lon="-3.410049">
        <ele>1801.682497</ele>
        <time>2021-07-04T08:25:03.776Z</time>
      </trkpt>
      <trkpt lat="36.967598" lon="-3.410155">
        <ele>1801.740976</ele>
        <time>2021-07-04T08:25:13.779Z</time>
      </trkpt>
      <trkpt lat="36.967558" lon="-3.410258">
        <ele>1801.800078</ele>
        <time>2021-07-04T08:25:25.773Z</time>
      </trkpt>
      <trkpt lat="36.967503" lon="-3.410347">
        <ele>1801.858145</ele>
        <time>2021-07-04T08:25:33.779Z</time>
      </trkpt>
      <trkpt lat="36.967461" lon="-3.410449">
        <ele>1801.917364</ele>
        <time>2021-07-04T08:25:40.772Z</time>
      </trkpt>
      <trkpt lat="36.967414" lon="-3.410560">
        <ele>1802.686868</ele>
        <time>2021-07-04T08:25:45.799Z</time>
      </trkpt>
      <trkpt lat="36.967351" lon="-3.410678">
        <ele>1803.655937</ele>
        <time>2021-07-04T08:25:55.775Z</time>
      </trkpt>
      <trkpt lat="36.967289" lon="-3.410766">
        <ele>1804.457076</ele>
        <time>2021-07-04T08:26:04.779Z</time>
      </trkpt>
      <trkpt lat="36.967240" lon="-3.410861">
        <ele>1805.229188</ele>
        <time>2021-07-04T08:26:14.800Z</time>
      </trkpt>
      <trkpt lat="36.967183" lon="-3.410967">
        <ele>1806.101646</ele>
        <time>2021-07-04T08:26:19.782Z</time>
      </trkpt>
      <trkpt lat="36.967135" lon="-3.411068">
        <ele>1806.904082</ele>
        <time>2021-07-04T08:26:25.805Z</time>
      </trkpt>
      <trkpt lat="36.967112" lon="-3.411193">
        <ele>1807.779958</ele>
        <time>2021-07-04T08:26:35.780Z</time>
      </trkpt>
      <trkpt lat="36.967115" lon="-3.411320">
        <ele>1808.647528</ele>
        <time>2021-07-04T08:26:41.774Z</time>
      </trkpt>
      <trkpt lat="36.967120" lon="-3.411432">
        <ele>1809.413488</ele>
        <time>2021-07-04T08:26:50.772Z</time>
      </trkpt>
      <trkpt lat="36.967089" lon="-3.411543">
        <ele>1810.216396</ele>
        <time>2021-07-04T08:27:08.776Z</time>
      </trkpt>
      <trkpt lat="36.967077" lon="-3.411660">
        <ele>1811.021860</ele>
        <time>2021-07-04T08:27:28.773Z</time>
      </trkpt>
      <trkpt lat="36.967076" lon="-3.411775">
        <ele>1811.807159</ele>
        <time>2021-07-04T08:27:33.782Z</time>
      </trkpt>
      <trkpt lat="36.967068" lon="-3.411897">
        <ele>1812.643010</ele>
        <time>2021-07-04T08:27:37.773Z</time>
      </trkpt>
      <trkpt lat="36.967044" lon="-3.412021">
        <ele>1813.514206</ele>
        <time>2021-07-04T08:27:42.776Z</time>
      </trkpt>
      <trkpt lat="36.967033" lon="-3.412141">
        <ele>1814.338976</ele>
        <time>2021-07-04T08:27:47.772Z</time>
      </trkpt>
      <trkpt lat="36.967034" lon="-3.412259">
        <ele>1815.144758</ele>
        <time>2021-07-04T08:28:04.799Z</time>
      </trkpt>
      <trkpt lat="36.967048" lon="-3.412372">
        <ele>1815.925576</ele>
        <time>2021-07-04T08:28:17.780Z</time>
      </trkpt>
      <trkpt lat="36.967041" lon="-3.412496">
        <ele>1816.774394</ele>
        <time>2021-07-04T08:28:22.781Z</time>
      </trkpt>
      <trkpt lat="36.967029" lon="-3.412624">
        <ele>1817.455309</ele>
        <time>2021-07-04T08:28:30.772Z</time>
      </trkpt>
      <trkpt lat="36.967022" lon="-3.412742">
        <ele>1817.814172</ele>
        <time>2021-07-04T08:28:38.781Z</time>
      </trkpt>
      <trkpt lat="36.967018" lon="-3.412871">
        <ele>1818.205705</ele>
        <time>2021-07-04T08:28:46.774Z</time>
      </trkpt>
      <trkpt lat="36.967006" lon="-3.412983">
        <ele>1818.548427</ele>
        <time>2021-07-04T08:28:50.772Z</time>
      </trkpt>
      <trkpt lat="36.967004" lon="-3.413099">
        <ele>1818.900321</ele>
        <time>2021-07-04T08:28:56.805Z</time>
      </trkpt>
      <trkpt lat="36.966929" lon="-3.413168">
        <ele>1819.253653</ele>
        <time>2021-07-04T08:30:04.780Z</time>
      </trkpt>
      <trkpt lat="36.966981" lon="-3.413068">
        <ele>1819.615515</ele>
        <time>2021-07-04T08:31:43.833Z</time>
      </trkpt>
      <trkpt lat="36.967064" lon="-3.413015">
        <ele>1819.969211</ele>
        <time>2021-07-04T08:31:53.790Z</time>
      </trkpt>
      <trkpt lat="36.967099" lon="-3.412903">
        <ele>1820.333949</ele>
        <time>2021-07-04T08:32:07.791Z</time>
      </trkpt>
      <trkpt lat="36.967129" lon="-3.412791">
        <ele>1820.692210</ele>
        <time>2021-07-04T08:32:17.801Z</time>
      </trkpt>
      <trkpt lat="36.967146" lon="-3.412677">
        <ele>1821.043926</ele>
        <time>2021-07-04T08:32:34.804Z</time>
      </trkpt>
      <trkpt lat="36.967113" lon="-3.412560">
        <ele>1821.420232</ele>
        <time>2021-07-04T08:32:41.792Z</time>
      </trkpt>
      <trkpt lat="36.967086" lon="-3.412445">
        <ele>1821.783758</ele>
        <time>2021-07-04T08:32:46.801Z</time>
      </trkpt>
      <trkpt lat="36.967073" lon="-3.412324">
        <ele>1822.154037</ele>
        <time>2021-07-04T08:32:55.797Z</time>
      </trkpt>
      <trkpt lat="36.967083" lon="-3.412200">
        <ele>1822.532022</ele>
        <time>2021-07-04T08:33:04.824Z</time>
      </trkpt>
      <trkpt lat="36.967102" lon="-3.412088">
        <ele>1822.879275</ele>
        <time>2021-07-04T08:33:15.795Z</time>
      </trkpt>
      <trkpt lat="36.967121" lon="-3.411971">
        <ele>1823.241375</ele>
        <time>2021-07-04T08:33:30.799Z</time>
      </trkpt>
      <trkpt lat="36.967132" lon="-3.411856">
        <ele>1823.592644</ele>
        <time>2021-07-04T08:33:40.795Z</time>
      </trkpt>
      <trkpt lat="36.967151" lon="-3.411737">
        <ele>1823.960690</ele>
        <time>2021-07-04T08:33:49.801Z</time>
      </trkpt>
      <trkpt lat="36.967179" lon="-3.411620">
        <ele>1823.998827</ele>
        <time>2021-07-04T08:34:01.798Z</time>
      </trkpt>
      <trkpt lat="36.967225" lon="-3.411496">
        <ele>1823.749200</ele>
        <time>2021-07-04T08:34:07.802Z</time>
      </trkpt>
      <trkpt lat="36.967279" lon="-3.411391">
        <ele>1823.521196</ele>
        <time>2021-07-04T08:34:14.833Z</time>
      </trkpt>
      <trkpt lat="36.967328" lon="-3.411278">
        <ele>1823.286440</ele>
        <time>2021-07-04T08:34:20.822Z</time>
      </trkpt>
      <trkpt lat="36.967370" lon="-3.411174">
        <ele>1823.073667</ele>
        <time>2021-07-04T08:34:32.871Z</time>
      </trkpt>
      <trkpt lat="36.967423" lon="-3.411081">
        <ele>1822.865088</ele>
        <time>2021-07-04T08:34:49.822Z</time>
      </trkpt>
      <trkpt lat="36.967590" lon="-3.410757">
        <ele>1822.161075</ele>
        <time>2021-07-04T08:35:19.793Z</time>
      </trkpt>
      <trkpt lat="36.967657" lon="-3.410666">
        <ele>1821.935127</ele>
        <time>2021-07-04T08:35:28.803Z</time>
      </trkpt>
      <trkpt lat="36.967728" lon="-3.410582">
        <ele>1821.711854</ele>
        <time>2021-07-04T08:35:35.792Z</time>
      </trkpt>
      <trkpt lat="36.967799" lon="-3.410502">
        <ele>1821.493533</ele>
        <time>2021-07-04T08:35:45.830Z</time>
      </trkpt>
      <trkpt lat="36.967875" lon="-3.410430">
        <ele>1821.275706</ele>
        <time>2021-07-04T08:35:51.803Z</time>
      </trkpt>
      <trkpt lat="36.967960" lon="-3.410349">
        <ele>1821.031561</ele>
        <time>2021-07-04T08:36:03.789Z</time>
      </trkpt>
      <trkpt lat="36.968039" lon="-3.410281">
        <ele>1820.812449</ele>
        <time>2021-07-04T08:36:10.795Z</time>
      </trkpt>
      <trkpt lat="36.968105" lon="-3.410190">
        <ele>1820.588044</ele>
        <time>2021-07-04T08:36:23.791Z</time>
      </trkpt>
      <trkpt lat="36.968156" lon="-3.410097">
        <ele>1820.382087</ele>
        <time>2021-07-04T08:36:30.800Z</time>
      </trkpt>
      <trkpt lat="36.968215" lon="-3.410012">
        <ele>1820.176497</ele>
        <time>2021-07-04T08:36:39.790Z</time>
      </trkpt>
      <trkpt lat="36.968283" lon="-3.409934">
        <ele>1820.271351</ele>
        <time>2021-07-04T08:36:47.788Z</time>
      </trkpt>
      <trkpt lat="36.968374" lon="-3.409936">
        <ele>1821.400257</ele>
        <time>2021-07-04T08:37:09.799Z</time>
      </trkpt>
      <trkpt lat="36.968465" lon="-3.409911">
        <ele>1822.555858</ele>
        <time>2021-07-04T08:37:26.800Z</time>
      </trkpt>
      <trkpt lat="36.968556" lon="-3.409932">
        <ele>1823.703615</ele>
        <time>2021-07-04T08:37:35.821Z</time>
      </trkpt>
      <trkpt lat="36.968655" lon="-3.409948">
        <ele>1824.941770</ele>
        <time>2021-07-04T08:37:45.805Z</time>
      </trkpt>
      <trkpt lat="36.968815" lon="-3.409950">
        <ele>1826.926451</ele>
        <time>2021-07-04T08:38:32.813Z</time>
      </trkpt>
      <trkpt lat="36.968957" lon="-3.409935">
        <ele>1828.694030</ele>
        <time>2021-07-04T08:39:18.801Z</time>
      </trkpt>
      <trkpt lat="36.969048" lon="-3.409969">
        <ele>1829.871979</ele>
        <time>2021-07-04T08:39:28.783Z</time>
      </trkpt>
      <trkpt lat="36.969140" lon="-3.409944">
        <ele>1831.039698</ele>
        <time>2021-07-04T08:39:42.808Z</time>
      </trkpt>
      <trkpt lat="36.969223" lon="-3.409884">
        <ele>1832.228573</ele>
        <time>2021-07-04T08:39:50.798Z</time>
      </trkpt>
      <trkpt lat="36.969315" lon="-3.409875">
        <ele>1833.373188</ele>
        <time>2021-07-04T08:40:04.788Z</time>
      </trkpt>
      <trkpt lat="36.969407" lon="-3.409904">
        <ele>1834.549956</ele>
        <time>2021-07-04T08:40:30.800Z</time>
      </trkpt>
      <trkpt lat="36.969481" lon="-3.409970">
        <ele>1835.677021</ele>
        <time>2021-07-04T08:40:38.797Z</time>
      </trkpt>
      <trkpt lat="36.969573" lon="-3.409973">
        <ele>1836.818543</ele>
        <time>2021-07-04T08:41:29.797Z</time>
      </trkpt>
      <trkpt lat="36.969660" lon="-3.409923">
        <ele>1838.005981</ele>
        <time>2021-07-04T08:41:41.796Z</time>
      </trkpt>
      <trkpt lat="36.969746" lon="-3.409876">
        <ele>1839.169947</ele>
        <time>2021-07-04T08:42:07.825Z</time>
      </trkpt>
      <trkpt lat="36.969841" lon="-3.409845">
        <ele>1840.387680</ele>
        <time>2021-07-04T08:42:16.827Z</time>
      </trkpt>
      <trkpt lat="36.969931" lon="-3.409825">
        <ele>1841.521466</ele>
        <time>2021-07-04T08:42:23.792Z</time>
      </trkpt>
      <trkpt lat="36.969966" lon="-3.409929">
        <ele>1842.511414</ele>
        <time>2021-07-04T08:43:04.791Z</time>
      </trkpt>
      <trkpt lat="36.970002" lon="-3.410041">
        <ele>1843.222975</ele>
        <time>2021-07-04T08:43:19.807Z</time>
      </trkpt>
      <trkpt lat="36.970064" lon="-3.410131">
        <ele>1843.923407</ele>
        <time>2021-07-04T08:43:44.797Z</time>
      </trkpt>
      <trkpt lat="36.970225" lon="-3.410147">
        <ele>1845.114892</ele>
        <time>2021-07-04T08:44:44.798Z</time>
      </trkpt>
      <trkpt lat="36.970306" lon="-3.410098">
        <ele>1845.778587</ele>
        <time>2021-07-04T08:44:51.793Z</time>
      </trkpt>
      <trkpt lat="36.970405" lon="-3.410016">
        <ele>1846.654378</ele>
        <time>2021-07-04T08:44:56.798Z</time>
      </trkpt>
      <trkpt lat="36.970482" lon="-3.409950">
        <ele>1847.342863</ele>
        <time>2021-07-04T08:45:09.800Z</time>
      </trkpt>
      <trkpt lat="36.970557" lon="-3.409875">
        <ele>1848.051065</ele>
        <time>2021-07-04T08:45:16.820Z</time>
      </trkpt>
      <trkpt lat="36.970636" lon="-3.409782">
        <ele>1848.851146</ele>
        <time>2021-07-04T08:45:22.837Z</time>
      </trkpt>
      <trkpt lat="36.970713" lon="-3.409693">
        <ele>1849.624359</ele>
        <time>2021-07-04T08:45:25.801Z</time>
      </trkpt>
      <trkpt lat="36.970794" lon="-3.409609">
        <ele>1850.400377</ele>
        <time>2021-07-04T08:45:30.780Z</time>
      </trkpt>
      <trkpt lat="36.970879" lon="-3.409541">
        <ele>1851.144591</ele>
        <time>2021-07-04T08:45:38.801Z</time>
      </trkpt>
      <trkpt lat="36.970963" lon="-3.409496">
        <ele>1851.818660</ele>
        <time>2021-07-04T08:45:46.796Z</time>
      </trkpt>
      <trkpt lat="36.971032" lon="-3.409421">
        <ele>1852.492845</ele>
        <time>2021-07-04T08:45:58.794Z</time>
      </trkpt>
      <trkpt lat="36.971125" lon="-3.409419">
        <ele>1853.179036</ele>
        <time>2021-07-04T08:46:18.792Z</time>
      </trkpt>
      <trkpt lat="36.971216" lon="-3.409413">
        <ele>1853.851302</ele>
        <time>2021-07-04T08:46:29.799Z</time>
      </trkpt>
      <trkpt lat="36.971309" lon="-3.409412">
        <ele>1854.537417</ele>
        <time>2021-07-04T08:47:05.801Z</time>
      </trkpt>
      <trkpt lat="36.971405" lon="-3.409438">
        <ele>1855.262028</ele>
        <time>2021-07-04T08:47:12.801Z</time>
      </trkpt>
      <trkpt lat="36.971495" lon="-3.409458">
        <ele>1856.060628</ele>
        <time>2021-07-04T08:47:17.792Z</time>
      </trkpt>
      <trkpt lat="36.971592" lon="-3.409480">
        <ele>1857.050394</ele>
        <time>2021-07-04T08:47:21.827Z</time>
      </trkpt>
      <trkpt lat="36.971700" lon="-3.409495">
        <ele>1858.141398</ele>
        <time>2021-07-04T08:47:25.798Z</time>
      </trkpt>
      <trkpt lat="36.971791" lon="-3.409502">
        <ele>1859.056786</ele>
        <time>2021-07-04T08:47:34.797Z</time>
      </trkpt>
      <trkpt lat="36.971875" lon="-3.409544">
        <ele>1859.964969</ele>
        <time>2021-07-04T08:47:53.832Z</time>
      </trkpt>
      <trkpt lat="36.971924" lon="-3.409641">
        <ele>1860.885540</ele>
        <time>2021-07-04T08:48:07.791Z</time>
      </trkpt>
      <trkpt lat="36.971993" lon="-3.409728">
        <ele>1861.868881</ele>
        <time>2021-07-04T08:48:22.791Z</time>
      </trkpt>
      <trkpt lat="36.972079" lon="-3.409785">
        <ele>1862.845929</ele>
        <time>2021-07-04T08:48:57.805Z</time>
      </trkpt>
      <trkpt lat="36.972173" lon="-3.409829">
        <ele>1863.853549</ele>
        <time>2021-07-04T08:49:04.791Z</time>
      </trkpt>
      <trkpt lat="36.972262" lon="-3.409891">
        <ele>1864.876207</ele>
        <time>2021-07-04T08:49:13.795Z</time>
      </trkpt>
      <trkpt lat="36.972349" lon="-3.409933">
        <ele>1865.812427</ele>
        <time>2021-07-04T08:49:18.801Z</time>
      </trkpt>
      <trkpt lat="36.972436" lon="-3.409974">
        <ele>1866.745792</ele>
        <time>2021-07-04T08:49:28.796Z</time>
      </trkpt>
      <trkpt lat="36.972507" lon="-3.410072">
        <ele>1867.806979</ele>
        <time>2021-07-04T08:49:41.802Z</time>
      </trkpt>
      <trkpt lat="36.972569" lon="-3.410161">
        <ele>1868.754166</ele>
        <time>2021-07-04T08:49:51.797Z</time>
      </trkpt>
      <trkpt lat="36.972706" lon="-3.410240">
        <ele>1870.268632</ele>
        <time>2021-07-04T08:50:12.845Z</time>
      </trkpt>
      <trkpt lat="36.972779" lon="-3.410309">
        <ele>1871.187074</ele>
        <time>2021-07-04T08:50:23.792Z</time>
      </trkpt>
      <trkpt lat="36.972852" lon="-3.410228">
        <ele>1872.166539</ele>
        <time>2021-07-04T08:50:37.787Z</time>
      </trkpt>
      <trkpt lat="36.972847" lon="-3.410106">
        <ele>1873.146433</ele>
        <time>2021-07-04T08:50:49.800Z</time>
      </trkpt>
      <trkpt lat="36.972866" lon="-3.409996">
        <ele>1874.146263</ele>
        <time>2021-07-04T08:50:57.796Z</time>
      </trkpt>
      <trkpt lat="36.972913" lon="-3.409900">
        <ele>1875.269620</ele>
        <time>2021-07-04T08:51:13.789Z</time>
      </trkpt>
      <trkpt lat="36.972985" lon="-3.409832">
        <ele>1876.396030</ele>
        <time>2021-07-04T08:51:40.792Z</time>
      </trkpt>
      <trkpt lat="36.973035" lon="-3.409735">
        <ele>1877.547778</ele>
        <time>2021-07-04T08:52:10.793Z</time>
      </trkpt>
      <trkpt lat="36.973223" lon="-3.409652">
        <ele>1880.037365</ele>
        <time>2021-07-04T08:52:54.792Z</time>
      </trkpt>
      <trkpt lat="36.973266" lon="-3.409514">
        <ele>1881.515236</ele>
        <time>2021-07-04T08:53:30.795Z</time>
      </trkpt>
      <trkpt lat="36.973352" lon="-3.409471">
        <ele>1882.671759</ele>
        <time>2021-07-04T08:53:44.829Z</time>
      </trkpt>
      <trkpt lat="36.973431" lon="-3.409526">
        <ele>1883.800684</ele>
        <time>2021-07-04T08:54:00.789Z</time>
      </trkpt>
      <trkpt lat="36.973490" lon="-3.409424">
        <ele>1885.057091</ele>
        <time>2021-07-04T08:54:19.786Z</time>
      </trkpt>
      <trkpt lat="36.973577" lon="-3.409371">
        <ele>1886.265431</ele>
        <time>2021-07-04T08:54:25.791Z</time>
      </trkpt>
      <trkpt lat="36.973656" lon="-3.409315">
        <ele>1887.399239</ele>
        <time>2021-07-04T08:54:42.799Z</time>
      </trkpt>
      <trkpt lat="36.973695" lon="-3.409212">
        <ele>1888.536461</ele>
        <time>2021-07-04T08:54:59.796Z</time>
      </trkpt>
      <trkpt lat="36.973773" lon="-3.409146">
        <ele>1889.712249</ele>
        <time>2021-07-04T08:55:20.790Z</time>
      </trkpt>
      <trkpt lat="36.973848" lon="-3.409076">
        <ele>1890.880599</ele>
        <time>2021-07-04T08:55:31.834Z</time>
      </trkpt>
      <trkpt lat="36.973958" lon="-3.408889">
        <ele>1893.197503</ele>
        <time>2021-07-04T08:56:34.837Z</time>
      </trkpt>
      <trkpt lat="36.974115" lon="-3.408601">
        <ele>1896.399903</ele>
        <time>2021-07-04T08:57:13.789Z</time>
      </trkpt>
      <trkpt lat="36.974451" lon="-3.408478">
        <ele>1898.626552</ele>
        <time>2021-07-04T08:59:34.792Z</time>
      </trkpt>
      <trkpt lat="36.974545" lon="-3.408469">
        <ele>1899.226185</ele>
        <time>2021-07-04T08:59:49.804Z</time>
      </trkpt>
      <trkpt lat="36.974669" lon="-3.408463">
        <ele>1900.015477</ele>
        <time>2021-07-04T09:00:16.790Z</time>
      </trkpt>
      <trkpt lat="36.974670" lon="-3.408346">
        <ele>1900.610036</ele>
        <time>2021-07-04T09:00:43.807Z</time>
      </trkpt>
      <trkpt lat="36.974595" lon="-3.408414">
        <ele>1901.199069</ele>
        <time>2021-07-04T09:01:27.804Z</time>
      </trkpt>
      <trkpt lat="36.974459" lon="-3.408417">
        <ele>1902.064232</ele>
        <time>2021-07-04T09:01:46.793Z</time>
      </trkpt>
      <trkpt lat="36.974246" lon="-3.408468">
        <ele>1903.443582</ele>
        <time>2021-07-04T09:02:17.795Z</time>
      </trkpt>
      <trkpt lat="36.974046" lon="-3.408674">
        <ele>1905.090999</ele>
        <time>2021-07-04T09:03:47.795Z</time>
      </trkpt>
      <trkpt lat="36.973972" lon="-3.408741">
        <ele>1905.671902</ele>
        <time>2021-07-04T09:04:05.798Z</time>
      </trkpt>
      <trkpt lat="36.973907" lon="-3.408821">
        <ele>1906.251715</ele>
        <time>2021-07-04T09:04:20.789Z</time>
      </trkpt>
      <trkpt lat="36.973810" lon="-3.408748">
        <ele>1906.971612</ele>
        <time>2021-07-04T09:05:09.798Z</time>
      </trkpt>
      <trkpt lat="36.973786" lon="-3.408924">
        <ele>1907.030036</ele>
        <time>2021-07-04T09:07:45.829Z</time>
      </trkpt>
      <trkpt lat="36.973776" lon="-3.408811">
        <ele>1906.100728</ele>
        <time>2021-07-04T09:09:11.791Z</time>
      </trkpt>
      <trkpt lat="36.973643" lon="-3.408804">
        <ele>1904.738750</ele>
        <time>2021-07-04T09:10:08.794Z</time>
      </trkpt>
      <trkpt lat="36.973538" lon="-3.408807">
        <ele>1903.664174</ele>
        <time>2021-07-04T09:13:06.791Z</time>
      </trkpt>
      <trkpt lat="36.973415" lon="-3.408842">
        <ele>1902.373603</ele>
        <time>2021-07-04T09:14:16.793Z</time>
      </trkpt>
      <trkpt lat="36.973329" lon="-3.408889">
        <ele>1901.413490</ele>
        <time>2021-07-04T09:14:35.823Z</time>
      </trkpt>
      <trkpt lat="36.973240" lon="-3.408862">
        <ele>1900.476532</ele>
        <time>2021-07-04T09:15:16.800Z</time>
      </trkpt>
      <trkpt lat="36.973145" lon="-3.408882">
        <ele>1899.490897</ele>
        <time>2021-07-04T09:15:29.785Z</time>
      </trkpt>
      <trkpt lat="36.972767" lon="-3.408971">
        <ele>1895.555603</ele>
        <time>2021-07-04T09:16:21.801Z</time>
      </trkpt>
      <trkpt lat="36.972691" lon="-3.408905">
        <ele>1894.609194</ele>
        <time>2021-07-04T09:16:56.832Z</time>
      </trkpt>
      <trkpt lat="36.972625" lon="-3.408820">
        <ele>1893.640310</ele>
        <time>2021-07-04T09:17:06.831Z</time>
      </trkpt>
      <trkpt lat="36.972556" lon="-3.408733">
        <ele>1892.638254</ele>
        <time>2021-07-04T09:17:21.800Z</time>
      </trkpt>
      <trkpt lat="36.972483" lon="-3.408666">
        <ele>1891.712087</ele>
        <time>2021-07-04T09:17:28.792Z</time>
      </trkpt>
      <trkpt lat="36.972413" lon="-3.408591">
        <ele>1890.769336</ele>
        <time>2021-07-04T09:17:35.797Z</time>
      </trkpt>
      <trkpt lat="36.972333" lon="-3.408527">
        <ele>1889.797924</ele>
        <time>2021-07-04T09:17:41.797Z</time>
      </trkpt>
      <trkpt lat="36.972232" lon="-3.408507">
        <ele>1888.911023</ele>
        <time>2021-07-04T09:17:48.831Z</time>
      </trkpt>
      <trkpt lat="36.972128" lon="-3.408497">
        <ele>1888.269796</ele>
        <time>2021-07-04T09:17:56.790Z</time>
      </trkpt>
      <trkpt lat="36.972029" lon="-3.408488">
        <ele>1887.659588</ele>
        <time>2021-07-04T09:18:04.798Z</time>
      </trkpt>
      <trkpt lat="36.971940" lon="-3.408463">
        <ele>1887.098850</ele>
        <time>2021-07-04T09:18:22.828Z</time>
      </trkpt>
      <trkpt lat="36.971745" lon="-3.408297">
        <ele>1885.649106</ele>
        <time>2021-07-04T09:20:28.790Z</time>
      </trkpt>
      <trkpt lat="36.971655" lon="-3.408269">
        <ele>1885.078994</ele>
        <time>2021-07-04T09:20:44.781Z</time>
      </trkpt>
      <trkpt lat="36.971562" lon="-3.408255">
        <ele>1884.503154</ele>
        <time>2021-07-04T09:20:53.823Z</time>
      </trkpt>
      <trkpt lat="36.971471" lon="-3.408245">
        <ele>1883.941578</ele>
        <time>2021-07-04T09:21:23.801Z</time>
      </trkpt>
      <trkpt lat="36.971385" lon="-3.408210">
        <ele>1883.385646</ele>
        <time>2021-07-04T09:21:37.800Z</time>
      </trkpt>
      <trkpt lat="36.971293" lon="-3.408192">
        <ele>1882.813206</ele>
        <time>2021-07-04T09:21:51.792Z</time>
      </trkpt>
      <trkpt lat="36.971121" lon="-3.408178">
        <ele>1881.753598</ele>
        <time>2021-07-04T09:22:41.793Z</time>
      </trkpt>
      <trkpt lat="36.971034" lon="-3.408110">
        <ele>1881.123049</ele>
        <time>2021-07-04T09:22:49.825Z</time>
      </trkpt>
      <trkpt lat="36.970946" lon="-3.408057">
        <ele>1880.522697</ele>
        <time>2021-07-04T09:22:56.786Z</time>
      </trkpt>
      <trkpt lat="36.970783" lon="-3.408043">
        <ele>1879.518294</ele>
        <time>2021-07-04T09:23:41.796Z</time>
      </trkpt>
      <trkpt lat="36.970693" lon="-3.408026">
        <ele>1878.958752</ele>
        <time>2021-07-04T09:24:00.794Z</time>
      </trkpt>
      <trkpt lat="36.970599" lon="-3.408022">
        <ele>1878.380551</ele>
        <time>2021-07-04T09:24:07.794Z</time>
      </trkpt>
      <trkpt lat="36.970502" lon="-3.408027">
        <ele>1877.653228</ele>
        <time>2021-07-04T09:24:16.849Z</time>
      </trkpt>
      <trkpt lat="36.970405" lon="-3.408025">
        <ele>1876.805689</ele>
        <time>2021-07-04T09:24:28.784Z</time>
      </trkpt>
      <trkpt lat="36.970307" lon="-3.407995">
        <ele>1875.924295</ele>
        <time>2021-07-04T09:24:36.797Z</time>
      </trkpt>
      <trkpt lat="36.970213" lon="-3.408002">
        <ele>1875.101629</ele>
        <time>2021-07-04T09:24:46.803Z</time>
      </trkpt>
      <trkpt lat="36.970123" lon="-3.408044">
        <ele>1874.262487</ele>
        <time>2021-07-04T09:24:54.819Z</time>
      </trkpt>
      <trkpt lat="36.970024" lon="-3.408026">
        <ele>1873.388513</ele>
        <time>2021-07-04T09:25:03.801Z</time>
      </trkpt>
      <trkpt lat="36.969921" lon="-3.408016">
        <ele>1872.485969</ele>
        <time>2021-07-04T09:25:11.826Z</time>
      </trkpt>
      <trkpt lat="36.969828" lon="-3.408009">
        <ele>1871.672023</ele>
        <time>2021-07-04T09:25:21.787Z</time>
      </trkpt>
      <trkpt lat="36.969728" lon="-3.408026">
        <ele>1870.790370</ele>
        <time>2021-07-04T09:25:27.790Z</time>
      </trkpt>
      <trkpt lat="36.969638" lon="-3.408043">
        <ele>1869.995197</ele>
        <time>2021-07-04T09:25:39.797Z</time>
      </trkpt>
      <trkpt lat="36.969548" lon="-3.408065">
        <ele>1869.194074</ele>
        <time>2021-07-04T09:26:02.800Z</time>
      </trkpt>
      <trkpt lat="36.969455" lon="-3.408048">
        <ele>1868.372976</ele>
        <time>2021-07-04T09:26:13.793Z</time>
      </trkpt>
      <trkpt lat="36.969387" lon="-3.407973">
        <ele>1867.581164</ele>
        <time>2021-07-04T09:26:23.793Z</time>
      </trkpt>
      <trkpt lat="36.969348" lon="-3.407866">
        <ele>1866.760262</ele>
        <time>2021-07-04T09:26:34.795Z</time>
      </trkpt>
      <trkpt lat="36.969313" lon="-3.407758">
        <ele>1865.946774</ele>
        <time>2021-07-04T09:26:40.792Z</time>
      </trkpt>
      <trkpt lat="36.969229" lon="-3.407707">
        <ele>1865.131141</ele>
        <time>2021-07-04T09:26:46.793Z</time>
      </trkpt>
      <trkpt lat="36.969129" lon="-3.407711">
        <ele>1864.257063</ele>
        <time>2021-07-04T09:27:00.805Z</time>
      </trkpt>
      <trkpt lat="36.969034" lon="-3.407720">
        <ele>1863.424738</ele>
        <time>2021-07-04T09:27:09.793Z</time>
      </trkpt>
      <trkpt lat="36.968935" lon="-3.407728">
        <ele>1862.558041</ele>
        <time>2021-07-04T09:27:17.791Z</time>
      </trkpt>
      <trkpt lat="36.968845" lon="-3.407751">
        <ele>1861.988715</ele>
        <time>2021-07-04T09:27:24.793Z</time>
      </trkpt>
      <trkpt lat="36.968754" lon="-3.407777">
        <ele>1861.477686</ele>
        <time>2021-07-04T09:27:35.790Z</time>
      </trkpt>
      <trkpt lat="36.968643" lon="-3.407815">
        <ele>1860.847652</ele>
        <time>2021-07-04T09:28:20.792Z</time>
      </trkpt>
      <trkpt lat="36.968556" lon="-3.407845">
        <ele>1860.353592</ele>
        <time>2021-07-04T09:28:28.788Z</time>
      </trkpt>
      <trkpt lat="36.968464" lon="-3.407833">
        <ele>1859.847175</ele>
        <time>2021-07-04T09:28:36.795Z</time>
      </trkpt>
      <trkpt lat="36.968382" lon="-3.407893">
        <ele>1859.327147</ele>
        <time>2021-07-04T09:28:45.793Z</time>
      </trkpt>
      <trkpt lat="36.968292" lon="-3.407939">
        <ele>1858.794907</ele>
        <time>2021-07-04T09:28:56.825Z</time>
      </trkpt>
      <trkpt lat="36.968196" lon="-3.407956">
        <ele>1858.264085</ele>
        <time>2021-07-04T09:29:04.785Z</time>
      </trkpt>
      <trkpt lat="36.968103" lon="-3.407970">
        <ele>1857.751252</ele>
        <time>2021-07-04T09:29:12.804Z</time>
      </trkpt>
      <trkpt lat="36.968014" lon="-3.407942">
        <ele>1857.248831</ele>
        <time>2021-07-04T09:29:26.794Z</time>
      </trkpt>
      <trkpt lat="36.967939" lon="-3.407876">
        <ele>1856.746880</ele>
        <time>2021-07-04T09:29:32.792Z</time>
      </trkpt>
      <trkpt lat="36.967853" lon="-3.407830">
        <ele>1856.234848</ele>
        <time>2021-07-04T09:29:52.835Z</time>
      </trkpt>
      <trkpt lat="36.967744" lon="-3.407827">
        <ele>1855.637942</ele>
        <time>2021-07-04T09:30:01.807Z</time>
      </trkpt>
      <trkpt lat="36.967654" lon="-3.407813">
        <ele>1855.141412</ele>
        <time>2021-07-04T09:30:06.795Z</time>
      </trkpt>
      <trkpt lat="36.967569" lon="-3.407762">
        <ele>1854.625338</ele>
        <time>2021-07-04T09:30:17.833Z</time>
      </trkpt>
      <trkpt lat="36.967464" lon="-3.407632">
        <ele>1853.816735</ele>
        <time>2021-07-04T09:31:05.798Z</time>
      </trkpt>
      <trkpt lat="36.967393" lon="-3.407554">
        <ele>1853.299517</ele>
        <time>2021-07-04T09:31:17.804Z</time>
      </trkpt>
      <trkpt lat="36.967319" lon="-3.407482">
        <ele>1852.786357</ele>
        <time>2021-07-04T09:31:29.780Z</time>
      </trkpt>
      <trkpt lat="36.967258" lon="-3.407377">
        <ele>1852.338027</ele>
        <time>2021-07-04T09:31:40.792Z</time>
      </trkpt>
      <trkpt lat="36.967209" lon="-3.407275">
        <ele>1852.015442</ele>
        <time>2021-07-04T09:31:50.850Z</time>
      </trkpt>
      <trkpt lat="36.967145" lon="-3.407195">
        <ele>1851.708599</ele>
        <time>2021-07-04T09:32:01.826Z</time>
      </trkpt>
      <trkpt lat="36.967071" lon="-3.407127">
        <ele>1851.397172</ele>
        <time>2021-07-04T09:32:18.796Z</time>
      </trkpt>
      <trkpt lat="36.966987" lon="-3.407070">
        <ele>1851.073031</ele>
        <time>2021-07-04T09:32:28.826Z</time>
      </trkpt>
      <trkpt lat="36.966900" lon="-3.407008">
        <ele>1850.733409</ele>
        <time>2021-07-04T09:32:35.796Z</time>
      </trkpt>
      <trkpt lat="36.966809" lon="-3.406991">
        <ele>1850.421287</ele>
        <time>2021-07-04T09:32:47.788Z</time>
      </trkpt>
      <trkpt lat="36.966716" lon="-3.406969">
        <ele>1850.100215</ele>
        <time>2021-07-04T09:33:05.786Z</time>
      </trkpt>
      <trkpt lat="36.966635" lon="-3.406901">
        <ele>1849.769348</ele>
        <time>2021-07-04T09:33:16.786Z</time>
      </trkpt>
      <trkpt lat="36.966540" lon="-3.406849">
        <ele>1849.417604</ele>
        <time>2021-07-04T09:33:23.796Z</time>
      </trkpt>
      <trkpt lat="36.966457" lon="-3.406780">
        <ele>1849.079589</ele>
        <time>2021-07-04T09:33:32.825Z</time>
      </trkpt>
      <trkpt lat="36.966384" lon="-3.406710">
        <ele>1848.767623</ele>
        <time>2021-07-04T09:33:40.798Z</time>
      </trkpt>
      <trkpt lat="36.966283" lon="-3.406685">
        <ele>1848.418361</ele>
        <time>2021-07-04T09:33:45.788Z</time>
      </trkpt>
      <trkpt lat="36.966187" lon="-3.406662">
        <ele>1848.086784</ele>
        <time>2021-07-04T09:33:51.802Z</time>
      </trkpt>
      <trkpt lat="36.966093" lon="-3.406640">
        <ele>1847.762378</ele>
        <time>2021-07-04T09:34:00.785Z</time>
      </trkpt>
      <trkpt lat="36.966000" lon="-3.406618">
        <ele>1847.441305</ele>
        <time>2021-07-04T09:34:09.797Z</time>
      </trkpt>
      <trkpt lat="36.965907" lon="-3.406571">
        <ele>1847.101070</ele>
        <time>2021-07-04T09:34:18.787Z</time>
      </trkpt>
      <trkpt lat="36.965816" lon="-3.406577">
        <ele>1846.791940</ele>
        <time>2021-07-04T09:34:41.792Z</time>
      </trkpt>
      <trkpt lat="36.965721" lon="-3.406567">
        <ele>1846.468530</ele>
        <time>2021-07-04T09:34:54.837Z</time>
      </trkpt>
      <trkpt lat="36.965631" lon="-3.406552">
        <ele>1846.349303</ele>
        <time>2021-07-04T09:35:02.796Z</time>
      </trkpt>
      <trkpt lat="36.965532" lon="-3.406513">
        <ele>1846.242789</ele>
        <time>2021-07-04T09:35:09.790Z</time>
      </trkpt>
      <trkpt lat="36.965435" lon="-3.406484">
        <ele>1846.140441</ele>
        <time>2021-07-04T09:35:18.819Z</time>
      </trkpt>
      <trkpt lat="36.965342" lon="-3.406438">
        <ele>1846.037816</ele>
        <time>2021-07-04T09:35:27.795Z</time>
      </trkpt>
      <trkpt lat="36.965272" lon="-3.406364">
        <ele>1845.943780</ele>
        <time>2021-07-04T09:35:35.793Z</time>
      </trkpt>
      <trkpt lat="36.965076" lon="-3.406329">
        <ele>1845.740596</ele>
        <time>2021-07-04T09:36:38.800Z</time>
      </trkpt>
      <trkpt lat="36.964986" lon="-3.406297">
        <ele>1845.644578</ele>
        <time>2021-07-04T09:36:48.780Z</time>
      </trkpt>
      <trkpt lat="36.964903" lon="-3.406228">
        <ele>1845.542320</ele>
        <time>2021-07-04T09:36:58.799Z</time>
      </trkpt>
      <trkpt lat="36.964812" lon="-3.406141">
        <ele>1845.424800</ele>
        <time>2021-07-04T09:37:07.792Z</time>
      </trkpt>
      <trkpt lat="36.964727" lon="-3.406081">
        <ele>1845.324650</ele>
        <time>2021-07-04T09:37:13.795Z</time>
      </trkpt>
      <trkpt lat="36.964632" lon="-3.406045">
        <ele>1845.222784</ele>
        <time>2021-07-04T09:37:22.824Z</time>
      </trkpt>
      <trkpt lat="36.964546" lon="-3.406008">
        <ele>1845.129457</ele>
        <time>2021-07-04T09:37:32.801Z</time>
      </trkpt>
      <trkpt lat="36.964455" lon="-3.405988">
        <ele>1845.034638</ele>
        <time>2021-07-04T09:37:44.802Z</time>
      </trkpt>
      <trkpt lat="36.964386" lon="-3.406065">
        <ele>1844.939765</ele>
        <time>2021-07-04T09:38:05.785Z</time>
      </trkpt>
      <trkpt lat="36.964300" lon="-3.405998">
        <ele>1844.835804</ele>
        <time>2021-07-04T09:38:18.798Z</time>
      </trkpt>
      <trkpt lat="36.964208" lon="-3.405975">
        <ele>1844.739523</ele>
        <time>2021-07-04T09:38:28.821Z</time>
      </trkpt>
      <trkpt lat="36.963916" lon="-3.405865">
        <ele>1843.829164</ele>
        <time>2021-07-04T09:39:15.821Z</time>
      </trkpt>
      <trkpt lat="36.963826" lon="-3.405821">
        <ele>1843.356801</ele>
        <time>2021-07-04T09:39:22.789Z</time>
      </trkpt>
      <trkpt lat="36.963747" lon="-3.405757">
        <ele>1842.896742</ele>
        <time>2021-07-04T09:39:27.819Z</time>
      </trkpt>
      <trkpt lat="36.963657" lon="-3.405712">
        <ele>1842.422944</ele>
        <time>2021-07-04T09:39:36.787Z</time>
      </trkpt>
      <trkpt lat="36.963567" lon="-3.405667">
        <ele>1841.949145</ele>
        <time>2021-07-04T09:39:43.801Z</time>
      </trkpt>
      <trkpt lat="36.963476" lon="-3.405655">
        <ele>1841.501809</ele>
        <time>2021-07-04T09:39:48.792Z</time>
      </trkpt>
      <trkpt lat="36.963381" lon="-3.405621">
        <ele>1841.018764</ele>
        <time>2021-07-04T09:39:56.783Z</time>
      </trkpt>
      <trkpt lat="36.962965" lon="-3.405352">
        <ele>1838.729641</ele>
        <time>2021-07-04T09:41:19.800Z</time>
      </trkpt>
      <trkpt lat="36.962689" lon="-3.405036">
        <ele>1836.900917</ele>
        <time>2021-07-04T09:42:02.824Z</time>
      </trkpt>
      <trkpt lat="36.962625" lon="-3.404953">
        <ele>1836.450352</ele>
        <time>2021-07-04T09:42:14.789Z</time>
      </trkpt>
      <trkpt lat="36.962560" lon="-3.404861">
        <ele>1835.970639</ele>
        <time>2021-07-04T09:42:21.788Z</time>
      </trkpt>
      <trkpt lat="36.962472" lon="-3.404799">
        <ele>1835.628073</ele>
        <time>2021-07-04T09:42:29.830Z</time>
      </trkpt>
      <trkpt lat="36.962413" lon="-3.404709">
        <ele>1835.391300</ele>
        <time>2021-07-04T09:42:36.794Z</time>
      </trkpt>
      <trkpt lat="36.962368" lon="-3.404594">
        <ele>1835.130862</ele>
        <time>2021-07-04T09:42:44.797Z</time>
      </trkpt>
      <trkpt lat="36.962365" lon="-3.404482">
        <ele>1834.902939</ele>
        <time>2021-07-04T09:42:54.786Z</time>
      </trkpt>
      <trkpt lat="36.962290" lon="-3.404408">
        <ele>1834.659837</ele>
        <time>2021-07-04T09:43:04.788Z</time>
      </trkpt>
      <trkpt lat="36.962192" lon="-3.404430">
        <ele>1834.406402</ele>
        <time>2021-07-04T09:43:13.793Z</time>
      </trkpt>
      <trkpt lat="36.962097" lon="-3.404471">
        <ele>1834.150611</ele>
        <time>2021-07-04T09:43:20.792Z</time>
      </trkpt>
      <trkpt lat="36.962009" lon="-3.404498">
        <ele>1833.919979</ele>
        <time>2021-07-04T09:43:27.786Z</time>
      </trkpt>
      <trkpt lat="36.961915" lon="-3.404490">
        <ele>1833.680155</ele>
        <time>2021-07-04T09:43:34.784Z</time>
      </trkpt>
      <trkpt lat="36.961819" lon="-3.404467">
        <ele>1833.431355</ele>
        <time>2021-07-04T09:43:43.794Z</time>
      </trkpt>
      <trkpt lat="36.961726" lon="-3.404433">
        <ele>1833.184736</ele>
        <time>2021-07-04T09:43:50.795Z</time>
      </trkpt>
      <trkpt lat="36.961641" lon="-3.404390">
        <ele>1832.951365</ele>
        <time>2021-07-04T09:43:57.787Z</time>
      </trkpt>
      <trkpt lat="36.961552" lon="-3.404334">
        <ele>1832.697800</ele>
        <time>2021-07-04T09:44:05.790Z</time>
      </trkpt>
      <trkpt lat="36.961445" lon="-3.404308">
        <ele>1832.420352</ele>
        <time>2021-07-04T09:44:13.797Z</time>
      </trkpt>
      <trkpt lat="36.961342" lon="-3.404294">
        <ele>1832.156630</ele>
        <time>2021-07-04T09:44:19.816Z</time>
      </trkpt>
      <trkpt lat="36.961257" lon="-3.404253">
        <ele>1831.924753</ele>
        <time>2021-07-04T09:44:25.786Z</time>
      </trkpt>
      <trkpt lat="36.961167" lon="-3.404202">
        <ele>1831.673274</ele>
        <time>2021-07-04T09:44:33.798Z</time>
      </trkpt>
      <trkpt lat="36.961088" lon="-3.404141">
        <ele>1831.436990</ele>
        <time>2021-07-04T09:44:42.792Z</time>
      </trkpt>
      <trkpt lat="36.961028" lon="-3.404042">
        <ele>1831.213352</ele>
        <time>2021-07-04T09:44:50.778Z</time>
      </trkpt>
      <trkpt lat="36.960935" lon="-3.403989">
        <ele>1831.208551</ele>
        <time>2021-07-04T09:44:58.827Z</time>
      </trkpt>
      <trkpt lat="36.960862" lon="-3.403915">
        <ele>1831.204137</ele>
        <time>2021-07-04T09:45:05.786Z</time>
      </trkpt>
      <trkpt lat="36.960780" lon="-3.403868">
        <ele>1831.199900</ele>
        <time>2021-07-04T09:45:15.826Z</time>
      </trkpt>
      <trkpt lat="36.960689" lon="-3.403838">
        <ele>1831.195478</ele>
        <time>2021-07-04T09:45:30.786Z</time>
      </trkpt>
      <trkpt lat="36.960611" lon="-3.403779">
        <ele>1831.191196</ele>
        <time>2021-07-04T09:45:39.796Z</time>
      </trkpt>
      <trkpt lat="36.960528" lon="-3.403704">
        <ele>1831.186387</ele>
        <time>2021-07-04T09:45:51.790Z</time>
      </trkpt>
      <trkpt lat="36.960436" lon="-3.403662">
        <ele>1831.181786</ele>
        <time>2021-07-04T09:45:58.798Z</time>
      </trkpt>
      <trkpt lat="36.960344" lon="-3.403614">
        <ele>1831.177103</ele>
        <time>2021-07-04T09:46:07.798Z</time>
      </trkpt>
      <trkpt lat="36.960254" lon="-3.403581">
        <ele>1831.172696</ele>
        <time>2021-07-04T09:46:14.826Z</time>
      </trkpt>
      <trkpt lat="36.960164" lon="-3.403569">
        <ele>1831.168444</ele>
        <time>2021-07-04T09:46:26.789Z</time>
      </trkpt>
      <trkpt lat="36.959791" lon="-3.403425">
        <ele>1831.150105</ele>
        <time>2021-07-04T09:47:17.795Z</time>
      </trkpt>
      <trkpt lat="36.959715" lon="-3.403362">
        <ele>1831.145822</ele>
        <time>2021-07-04T09:47:25.840Z</time>
      </trkpt>
      <trkpt lat="36.959628" lon="-3.403296">
        <ele>1831.141042</ele>
        <time>2021-07-04T09:47:33.788Z</time>
      </trkpt>
      <trkpt lat="36.959546" lon="-3.403231">
        <ele>1831.136482</ele>
        <time>2021-07-04T09:47:42.845Z</time>
      </trkpt>
      <trkpt lat="36.959466" lon="-3.403175">
        <ele>1831.132175</ele>
        <time>2021-07-04T09:47:50.796Z</time>
      </trkpt>
      <trkpt lat="36.959388" lon="-3.403099">
        <ele>1831.055804</ele>
        <time>2021-07-04T09:47:58.788Z</time>
      </trkpt>
      <trkpt lat="36.959331" lon="-3.403011">
        <ele>1830.887851</ele>
        <time>2021-07-04T09:48:09.794Z</time>
      </trkpt>
      <trkpt lat="36.959300" lon="-3.402898">
        <ele>1830.710714</ele>
        <time>2021-07-04T09:48:19.783Z</time>
      </trkpt>
      <trkpt lat="36.959308" lon="-3.402773">
        <ele>1830.524791</ele>
        <time>2021-07-04T09:48:27.788Z</time>
      </trkpt>
      <trkpt lat="36.959339" lon="-3.402654">
        <ele>1830.339219</ele>
        <time>2021-07-04T09:48:35.826Z</time>
      </trkpt>
      <trkpt lat="36.959365" lon="-3.402544">
        <ele>1830.169143</ele>
        <time>2021-07-04T09:48:45.813Z</time>
      </trkpt>
      <trkpt lat="36.959389" lon="-3.402431">
        <ele>1829.995789</ele>
        <time>2021-07-04T09:48:55.782Z</time>
      </trkpt>
      <trkpt lat="36.959345" lon="-3.402332">
        <ele>1829.827831</ele>
        <time>2021-07-04T10:03:23.490Z</time>
      </trkpt>
      <trkpt lat="36.959266" lon="-3.402259">
        <ele>1829.645621</ele>
        <time>2021-07-04T10:03:40.488Z</time>
      </trkpt>
      <trkpt lat="36.959172" lon="-3.402211">
        <ele>1829.457247</ele>
        <time>2021-07-04T10:03:51.507Z</time>
      </trkpt>
      <trkpt lat="36.959075" lon="-3.402181">
        <ele>1829.271852</ele>
        <time>2021-07-04T10:03:59.496Z</time>
      </trkpt>
      <trkpt lat="36.958980" lon="-3.402124">
        <ele>1829.076371</ele>
        <time>2021-07-04T10:04:06.494Z</time>
      </trkpt>
      <trkpt lat="36.958879" lon="-3.402071">
        <ele>1828.873161</ele>
        <time>2021-07-04T10:04:13.511Z</time>
      </trkpt>
      <trkpt lat="36.958792" lon="-3.402037">
        <ele>1828.704047</ele>
        <time>2021-07-04T10:04:18.485Z</time>
      </trkpt>
      <trkpt lat="36.958704" lon="-3.401991">
        <ele>1828.527095</ele>
        <time>2021-07-04T10:04:26.491Z</time>
      </trkpt>
      <trkpt lat="36.958636" lon="-3.401911">
        <ele>1828.353924</ele>
        <time>2021-07-04T10:04:34.493Z</time>
      </trkpt>
      <trkpt lat="36.958577" lon="-3.401819">
        <ele>1828.179024</ele>
        <time>2021-07-04T10:04:41.490Z</time>
      </trkpt>
      <trkpt lat="36.958518" lon="-3.401720">
        <ele>1827.995914</ele>
        <time>2021-07-04T10:04:51.490Z</time>
      </trkpt>
      <trkpt lat="36.958487" lon="-3.401603">
        <ele>1827.813156</ele>
        <time>2021-07-04T10:05:01.491Z</time>
      </trkpt>
      <trkpt lat="36.958451" lon="-3.401497">
        <ele>1827.555342</ele>
        <time>2021-07-04T10:05:08.486Z</time>
      </trkpt>
      <trkpt lat="36.958437" lon="-3.401380">
        <ele>1827.277932</ele>
        <time>2021-07-04T10:05:16.491Z</time>
      </trkpt>
      <trkpt lat="36.958437" lon="-3.401257">
        <ele>1826.989512</ele>
        <time>2021-07-04T10:05:26.489Z</time>
      </trkpt>
      <trkpt lat="36.958475" lon="-3.401144">
        <ele>1826.702032</ele>
        <time>2021-07-04T10:05:34.515Z</time>
      </trkpt>
      <trkpt lat="36.958527" lon="-3.401051">
        <ele>1826.435872</ele>
        <time>2021-07-04T10:05:42.490Z</time>
      </trkpt>
      <trkpt lat="36.958536" lon="-3.400932">
        <ele>1826.155584</ele>
        <time>2021-07-04T10:05:51.515Z</time>
      </trkpt>
      <trkpt lat="36.958440" lon="-3.400930">
        <ele>1825.873833</ele>
        <time>2021-07-04T10:05:58.494Z</time>
      </trkpt>
      <trkpt lat="36.958338" lon="-3.400901">
        <ele>1825.566886</ele>
        <time>2021-07-04T10:06:05.492Z</time>
      </trkpt>
      <trkpt lat="36.958239" lon="-3.400897">
        <ele>1825.276219</ele>
        <time>2021-07-04T10:06:12.492Z</time>
      </trkpt>
      <trkpt lat="36.957998" lon="-3.400793">
        <ele>1824.528137</ele>
        <time>2021-07-04T10:07:24.488Z</time>
      </trkpt>
      <trkpt lat="36.957829" lon="-3.400484">
        <ele>1823.650097</ele>
        <time>2021-07-04T10:08:49.486Z</time>
      </trkpt>
      <trkpt lat="36.957867" lon="-3.400382">
        <ele>1823.386200</ele>
        <time>2021-07-04T10:09:25.527Z</time>
      </trkpt>
      <trkpt lat="36.957615" lon="-3.400197">
        <ele>1822.528854</ele>
        <time>2021-07-04T10:10:12.516Z</time>
      </trkpt>
      <trkpt lat="36.957529" lon="-3.400157">
        <ele>1822.420802</ele>
        <time>2021-07-04T10:10:26.521Z</time>
      </trkpt>
      <trkpt lat="36.957447" lon="-3.400108">
        <ele>1822.323144</ele>
        <time>2021-07-04T10:10:35.508Z</time>
      </trkpt>
      <trkpt lat="36.957373" lon="-3.400043">
        <ele>1822.225980</ele>
        <time>2021-07-04T10:10:52.509Z</time>
      </trkpt>
      <trkpt lat="36.957284" lon="-3.399984">
        <ele>1822.117739</ele>
        <time>2021-07-04T10:11:08.545Z</time>
      </trkpt>
      <trkpt lat="36.957200" lon="-3.399924">
        <ele>1822.013793</ele>
        <time>2021-07-04T10:11:17.506Z</time>
      </trkpt>
      <trkpt lat="36.957110" lon="-3.399878">
        <ele>1821.909312</ele>
        <time>2021-07-04T10:11:27.505Z</time>
      </trkpt>
      <trkpt lat="36.957021" lon="-3.399857">
        <ele>1821.811977</ele>
        <time>2021-07-04T10:11:33.544Z</time>
      </trkpt>
      <trkpt lat="36.956929" lon="-3.399849">
        <ele>1821.712865</ele>
        <time>2021-07-04T10:11:43.519Z</time>
      </trkpt>
      <trkpt lat="36.956839" lon="-3.399860">
        <ele>1821.615681</ele>
        <time>2021-07-04T10:11:55.504Z</time>
      </trkpt>
      <trkpt lat="36.956754" lon="-3.399902">
        <ele>1821.517467</ele>
        <time>2021-07-04T10:12:04.505Z</time>
      </trkpt>
      <trkpt lat="36.956654" lon="-3.399923">
        <ele>1821.408493</ele>
        <time>2021-07-04T10:12:11.513Z</time>
      </trkpt>
      <trkpt lat="36.956546" lon="-3.399949">
        <ele>1821.290295</ele>
        <time>2021-07-04T10:12:17.518Z</time>
      </trkpt>
      <trkpt lat="36.956447" lon="-3.399954">
        <ele>1821.183812</ele>
        <time>2021-07-04T10:12:22.508Z</time>
      </trkpt>
      <trkpt lat="36.956353" lon="-3.399989">
        <ele>1821.078412</ele>
        <time>2021-07-04T10:12:29.544Z</time>
      </trkpt>
      <trkpt lat="36.956273" lon="-3.399935">
        <ele>1820.980725</ele>
        <time>2021-07-04T10:12:38.523Z</time>
      </trkpt>
      <trkpt lat="36.956205" lon="-3.399847">
        <ele>1820.875595</ele>
        <time>2021-07-04T10:12:46.546Z</time>
      </trkpt>
      <trkpt lat="36.956156" lon="-3.399741">
        <ele>1820.770428</ele>
        <time>2021-07-04T10:12:54.510Z</time>
      </trkpt>
      <trkpt lat="36.956096" lon="-3.399651">
        <ele>1820.669770</ele>
        <time>2021-07-04T10:13:01.506Z</time>
      </trkpt>
      <trkpt lat="36.956031" lon="-3.399557">
        <ele>1820.601027</ele>
        <time>2021-07-04T10:13:09.520Z</time>
      </trkpt>
      <trkpt lat="36.956022" lon="-3.399428">
        <ele>1820.725960</ele>
        <time>2021-07-04T10:13:16.517Z</time>
      </trkpt>
      <trkpt lat="36.955997" lon="-3.399311">
        <ele>1820.842807</ele>
        <time>2021-07-04T10:13:24.520Z</time>
      </trkpt>
      <trkpt lat="36.955953" lon="-3.399190">
        <ele>1820.971067</ele>
        <time>2021-07-04T10:13:31.517Z</time>
      </trkpt>
      <trkpt lat="36.955878" lon="-3.399107">
        <ele>1821.091948</ele>
        <time>2021-07-04T10:13:38.507Z</time>
      </trkpt>
      <trkpt lat="36.955783" lon="-3.399106">
        <ele>1821.206652</ele>
        <time>2021-07-04T10:13:45.516Z</time>
      </trkpt>
      <trkpt lat="36.955702" lon="-3.399055">
        <ele>1821.316129</ele>
        <time>2021-07-04T10:13:52.503Z</time>
      </trkpt>
      <trkpt lat="36.955610" lon="-3.399017">
        <ele>1821.433100</ele>
        <time>2021-07-04T10:13:59.503Z</time>
      </trkpt>
      <trkpt lat="36.955521" lon="-3.398979">
        <ele>1821.546638</ele>
        <time>2021-07-04T10:14:07.524Z</time>
      </trkpt>
      <trkpt lat="36.955435" lon="-3.398935">
        <ele>1821.658814</ele>
        <time>2021-07-04T10:14:14.512Z</time>
      </trkpt>
      <trkpt lat="36.955341" lon="-3.398892">
        <ele>1821.779651</ele>
        <time>2021-07-04T10:14:21.561Z</time>
      </trkpt>
      <trkpt lat="36.955258" lon="-3.398829">
        <ele>1821.896855</ele>
        <time>2021-07-04T10:14:28.543Z</time>
      </trkpt>
      <trkpt lat="36.955179" lon="-3.398762">
        <ele>1822.012078</ele>
        <time>2021-07-04T10:14:36.516Z</time>
      </trkpt>
      <trkpt lat="36.955099" lon="-3.398687">
        <ele>1822.132765</ele>
        <time>2021-07-04T10:14:44.508Z</time>
      </trkpt>
      <trkpt lat="36.955017" lon="-3.398638">
        <ele>1822.242477</ele>
        <time>2021-07-04T10:14:49.531Z</time>
      </trkpt>
      <trkpt lat="36.954924" lon="-3.398637">
        <ele>1822.354766</ele>
        <time>2021-07-04T10:14:59.510Z</time>
      </trkpt>
      <trkpt lat="36.954829" lon="-3.398643">
        <ele>1822.469611</ele>
        <time>2021-07-04T10:15:08.512Z</time>
      </trkpt>
      <trkpt lat="36.954729" lon="-3.398630">
        <ele>1822.590997</ele>
        <time>2021-07-04T10:15:15.510Z</time>
      </trkpt>
      <trkpt lat="36.954640" lon="-3.398583">
        <ele>1822.707629</ele>
        <time>2021-07-04T10:15:22.513Z</time>
      </trkpt>
      <trkpt lat="36.954548" lon="-3.398534">
        <ele>1822.613063</ele>
        <time>2021-07-04T10:15:30.545Z</time>
      </trkpt>
      <trkpt lat="36.954454" lon="-3.398519">
        <ele>1822.402609</ele>
        <time>2021-07-04T10:15:38.518Z</time>
      </trkpt>
      <trkpt lat="36.954351" lon="-3.398516">
        <ele>1822.173795</ele>
        <time>2021-07-04T10:15:45.512Z</time>
      </trkpt>
      <trkpt lat="36.954257" lon="-3.398481">
        <ele>1821.955986</ele>
        <time>2021-07-04T10:15:53.506Z</time>
      </trkpt>
      <trkpt lat="36.954163" lon="-3.398457">
        <ele>1821.742922</ele>
        <time>2021-07-04T10:16:02.510Z</time>
      </trkpt>
      <trkpt lat="36.954078" lon="-3.398407">
        <ele>1821.534330</ele>
        <time>2021-07-04T10:16:11.512Z</time>
      </trkpt>
      <trkpt lat="36.954007" lon="-3.398327">
        <ele>1821.322145</ele>
        <time>2021-07-04T10:16:17.518Z</time>
      </trkpt>
      <trkpt lat="36.953944" lon="-3.398239">
        <ele>1821.112459</ele>
        <time>2021-07-04T10:16:23.523Z</time>
      </trkpt>
      <trkpt lat="36.953877" lon="-3.398164">
        <ele>1820.912813</ele>
        <time>2021-07-04T10:16:47.491Z</time>
      </trkpt>
      <trkpt lat="36.953807" lon="-3.398092">
        <ele>1820.711574</ele>
        <time>2021-07-04T10:16:55.514Z</time>
      </trkpt>
      <trkpt lat="36.953721" lon="-3.398033">
        <ele>1820.493758</ele>
        <time>2021-07-04T10:17:02.511Z</time>
      </trkpt>
      <trkpt lat="36.953638" lon="-3.397979">
        <ele>1820.285999</ele>
        <time>2021-07-04T10:17:09.539Z</time>
      </trkpt>
      <trkpt lat="36.953538" lon="-3.397962">
        <ele>1820.061870</ele>
        <time>2021-07-04T10:17:16.519Z</time>
      </trkpt>
      <trkpt lat="36.953443" lon="-3.397960">
        <ele>1819.850856</ele>
        <time>2021-07-04T10:17:25.515Z</time>
      </trkpt>
      <trkpt lat="36.953339" lon="-3.397961">
        <ele>1819.619877</ele>
        <time>2021-07-04T10:17:33.505Z</time>
      </trkpt>
      <trkpt lat="36.953236" lon="-3.397962">
        <ele>1819.391118</ele>
        <time>2021-07-04T10:17:37.513Z</time>
      </trkpt>
      <trkpt lat="36.953135" lon="-3.397941">
        <ele>1819.163733</ele>
        <time>2021-07-04T10:17:43.509Z</time>
      </trkpt>
      <trkpt lat="36.953037" lon="-3.397904">
        <ele>1818.936396</ele>
        <time>2021-07-04T10:17:51.507Z</time>
      </trkpt>
      <trkpt lat="36.952943" lon="-3.397876">
        <ele>1818.719400</ele>
        <time>2021-07-04T10:17:59.536Z</time>
      </trkpt>
      <trkpt lat="36.952852" lon="-3.397861">
        <ele>1818.502023</ele>
        <time>2021-07-04T10:18:06.520Z</time>
      </trkpt>
      <trkpt lat="36.952757" lon="-3.397843">
        <ele>1818.274469</ele>
        <time>2021-07-04T10:18:11.521Z</time>
      </trkpt>
      <trkpt lat="36.952660" lon="-3.397816">
        <ele>1818.039129</ele>
        <time>2021-07-04T10:18:19.513Z</time>
      </trkpt>
      <trkpt lat="36.952573" lon="-3.397757">
        <ele>1817.804775</ele>
        <time>2021-07-04T10:18:28.516Z</time>
      </trkpt>
      <trkpt lat="36.952478" lon="-3.397718">
        <ele>1817.567988</ele>
        <time>2021-07-04T10:18:36.499Z</time>
      </trkpt>
      <trkpt lat="36.952387" lon="-3.397687">
        <ele>1817.344629</ele>
        <time>2021-07-04T10:18:43.552Z</time>
      </trkpt>
      <trkpt lat="36.952308" lon="-3.397630">
        <ele>1817.128660</ele>
        <time>2021-07-04T10:18:49.535Z</time>
      </trkpt>
      <trkpt lat="36.952231" lon="-3.397554">
        <ele>1816.896401</ele>
        <time>2021-07-04T10:18:57.522Z</time>
      </trkpt>
      <trkpt lat="36.952159" lon="-3.397465">
        <ele>1816.656716</ele>
        <time>2021-07-04T10:19:05.522Z</time>
      </trkpt>
      <trkpt lat="36.952090" lon="-3.397376">
        <ele>1816.422032</ele>
        <time>2021-07-04T10:19:13.557Z</time>
      </trkpt>
      <trkpt lat="36.952021" lon="-3.397299">
        <ele>1816.203078</ele>
        <time>2021-07-04T10:19:21.513Z</time>
      </trkpt>
      <trkpt lat="36.951941" lon="-3.397237">
        <ele>1815.980220</ele>
        <time>2021-07-04T10:19:27.515Z</time>
      </trkpt>
      <trkpt lat="36.951859" lon="-3.397184">
        <ele>1815.761643</ele>
        <time>2021-07-04T10:19:34.505Z</time>
      </trkpt>
      <trkpt lat="36.951786" lon="-3.397114">
        <ele>1815.543833</ele>
        <time>2021-07-04T10:19:41.508Z</time>
      </trkpt>
      <trkpt lat="36.951708" lon="-3.397056">
        <ele>1815.328951</ele>
        <time>2021-07-04T10:19:47.558Z</time>
      </trkpt>
      <trkpt lat="36.951614" lon="-3.397028">
        <ele>1815.100110</ele>
        <time>2021-07-04T10:19:54.505Z</time>
      </trkpt>
      <trkpt lat="36.951513" lon="-3.397028">
        <ele>1814.860912</ele>
        <time>2021-07-04T10:20:01.518Z</time>
      </trkpt>
      <trkpt lat="36.951421" lon="-3.397005">
        <ele>1814.638722</ele>
        <time>2021-07-04T10:20:08.514Z</time>
      </trkpt>
      <trkpt lat="36.951326" lon="-3.397025">
        <ele>1814.445099</ele>
        <time>2021-07-04T10:20:16.539Z</time>
      </trkpt>
      <trkpt lat="36.951236" lon="-3.397024">
        <ele>1814.315923</ele>
        <time>2021-07-04T10:20:26.516Z</time>
      </trkpt>
      <trkpt lat="36.951154" lon="-3.396971">
        <ele>1814.183462</ele>
        <time>2021-07-04T10:20:38.535Z</time>
      </trkpt>
      <trkpt lat="36.951066" lon="-3.396906">
        <ele>1814.036800</ele>
        <time>2021-07-04T10:20:45.533Z</time>
      </trkpt>
      <trkpt lat="36.950982" lon="-3.396854">
        <ele>1813.902295</ele>
        <time>2021-07-04T10:20:50.503Z</time>
      </trkpt>
      <trkpt lat="36.950670" lon="-3.395791">
        <ele>1812.603441</ele>
        <time>2021-07-04T10:22:26.528Z</time>
      </trkpt>
      <trkpt lat="36.950683" lon="-3.395676">
        <ele>1812.470226</ele>
        <time>2021-07-04T10:22:35.553Z</time>
      </trkpt>
      <trkpt lat="36.950696" lon="-3.395559">
        <ele>1812.334740</ele>
        <time>2021-07-04T10:22:43.513Z</time>
      </trkpt>
      <trkpt lat="36.950742" lon="-3.395431">
        <ele>1812.173767</ele>
        <time>2021-07-04T10:22:51.513Z</time>
      </trkpt>
      <trkpt lat="36.950798" lon="-3.395323">
        <ele>1812.026105</ele>
        <time>2021-07-04T10:22:56.515Z</time>
      </trkpt>
      <trkpt lat="36.950856" lon="-3.395222">
        <ele>1811.907592</ele>
        <time>2021-07-04T10:23:02.517Z</time>
      </trkpt>
      <trkpt lat="36.950921" lon="-3.395128">
        <ele>1811.868388</ele>
        <time>2021-07-04T10:23:10.539Z</time>
      </trkpt>
      <trkpt lat="36.950963" lon="-3.395028">
        <ele>1811.832759</ele>
        <time>2021-07-04T10:23:17.512Z</time>
      </trkpt>
      <trkpt lat="36.951012" lon="-3.394931">
        <ele>1811.796567</ele>
        <time>2021-07-04T10:23:23.505Z</time>
      </trkpt>
      <trkpt lat="36.951067" lon="-3.394828">
        <ele>1811.757498</ele>
        <time>2021-07-04T10:23:32.524Z</time>
      </trkpt>
      <trkpt lat="36.951060" lon="-3.394713">
        <ele>1811.721123</ele>
        <time>2021-07-04T10:23:38.505Z</time>
      </trkpt>
      <trkpt lat="36.951027" lon="-3.394602">
        <ele>1811.683771</ele>
        <time>2021-07-04T10:23:45.542Z</time>
      </trkpt>
      <trkpt lat="36.950933" lon="-3.394549">
        <ele>1811.643082</ele>
        <time>2021-07-04T10:23:52.510Z</time>
      </trkpt>
      <trkpt lat="36.950869" lon="-3.394455">
        <ele>1811.604135</ele>
        <time>2021-07-04T10:24:01.511Z</time>
      </trkpt>
      <trkpt lat="36.950791" lon="-3.394379">
        <ele>1811.565121</ele>
        <time>2021-07-04T10:24:09.508Z</time>
      </trkpt>
      <trkpt lat="36.950707" lon="-3.394306">
        <ele>1811.524760</ele>
        <time>2021-07-04T10:24:17.506Z</time>
      </trkpt>
      <trkpt lat="36.950635" lon="-3.394238">
        <ele>1811.489160</ele>
        <time>2021-07-04T10:24:24.523Z</time>
      </trkpt>
      <trkpt lat="36.950568" lon="-3.394149">
        <ele>1811.450598</ele>
        <time>2021-07-04T10:24:33.506Z</time>
      </trkpt>
      <trkpt lat="36.950489" lon="-3.394086">
        <ele>1811.413627</ele>
        <time>2021-07-04T10:24:40.517Z</time>
      </trkpt>
      <trkpt lat="36.950397" lon="-3.394025">
        <ele>1811.372537</ele>
        <time>2021-07-04T10:24:46.510Z</time>
      </trkpt>
      <trkpt lat="36.950335" lon="-3.393943">
        <ele>1811.336934</ele>
        <time>2021-07-04T10:24:52.502Z</time>
      </trkpt>
      <trkpt lat="36.950265" lon="-3.393855">
        <ele>1811.297775</ele>
        <time>2021-07-04T10:24:59.515Z</time>
      </trkpt>
      <trkpt lat="36.950183" lon="-3.393792">
        <ele>1811.259800</ele>
        <time>2021-07-04T10:25:08.497Z</time>
      </trkpt>
      <trkpt lat="36.950122" lon="-3.393695">
        <ele>1811.220871</ele>
        <time>2021-07-04T10:25:16.502Z</time>
      </trkpt>
      <trkpt lat="36.950042" lon="-3.393606">
        <ele>1811.070759</ele>
        <time>2021-07-04T10:25:23.540Z</time>
      </trkpt>
      <trkpt lat="36.949971" lon="-3.393523">
        <ele>1810.886169</ele>
        <time>2021-07-04T10:25:30.502Z</time>
      </trkpt>
      <trkpt lat="36.949914" lon="-3.393431">
        <ele>1810.709431</ele>
        <time>2021-07-04T10:25:37.505Z</time>
      </trkpt>
      <trkpt lat="36.949859" lon="-3.393327">
        <ele>1810.520092</ele>
        <time>2021-07-04T10:25:45.528Z</time>
      </trkpt>
      <trkpt lat="36.949828" lon="-3.393218">
        <ele>1810.344436</ele>
        <time>2021-07-04T10:25:52.548Z</time>
      </trkpt>
      <trkpt lat="36.949796" lon="-3.393103">
        <ele>1810.159557</ele>
        <time>2021-07-04T10:26:02.521Z</time>
      </trkpt>
      <trkpt lat="36.949763" lon="-3.392981">
        <ele>1809.964009</ele>
        <time>2021-07-04T10:26:10.503Z</time>
      </trkpt>
      <trkpt lat="36.949721" lon="-3.392870">
        <ele>1809.777549</ele>
        <time>2021-07-04T10:26:17.512Z</time>
      </trkpt>
      <trkpt lat="36.949654" lon="-3.392795">
        <ele>1809.606763</ele>
        <time>2021-07-04T10:26:23.499Z</time>
      </trkpt>
      <trkpt lat="36.949587" lon="-3.392704">
        <ele>1809.418907</ele>
        <time>2021-07-04T10:26:30.504Z</time>
      </trkpt>
      <trkpt lat="36.949510" lon="-3.392626">
        <ele>1809.230697</ele>
        <time>2021-07-04T10:26:38.534Z</time>
      </trkpt>
      <trkpt lat="36.949428" lon="-3.392572">
        <ele>1809.054657</ele>
        <time>2021-07-04T10:26:44.521Z</time>
      </trkpt>
      <trkpt lat="36.949350" lon="-3.392490">
        <ele>1808.861117</ele>
        <time>2021-07-04T10:26:52.518Z</time>
      </trkpt>
      <trkpt lat="36.949326" lon="-3.392368">
        <ele>1808.670360</ele>
        <time>2021-07-04T10:26:59.512Z</time>
      </trkpt>
      <trkpt lat="36.949328" lon="-3.392254">
        <ele>1808.497238</ele>
        <time>2021-07-04T10:27:06.513Z</time>
      </trkpt>
      <trkpt lat="36.949342" lon="-3.392133">
        <ele>1808.311614</ele>
        <time>2021-07-04T10:27:13.507Z</time>
      </trkpt>
      <trkpt lat="36.949380" lon="-3.392025">
        <ele>1808.132454</ele>
        <time>2021-07-04T10:27:20.501Z</time>
      </trkpt>
      <trkpt lat="36.949403" lon="-3.391909">
        <ele>1807.950998</ele>
        <time>2021-07-04T10:27:27.513Z</time>
      </trkpt>
      <trkpt lat="36.949413" lon="-3.391792">
        <ele>1807.779609</ele>
        <time>2021-07-04T10:27:34.509Z</time>
      </trkpt>
      <trkpt lat="36.949390" lon="-3.391684">
        <ele>1807.680278</ele>
        <time>2021-07-04T10:27:41.518Z</time>
      </trkpt>
      <trkpt lat="36.949355" lon="-3.391575">
        <ele>1807.575879</ele>
        <time>2021-07-04T10:27:48.499Z</time>
      </trkpt>
      <trkpt lat="36.949319" lon="-3.391469">
        <ele>1807.473521</ele>
        <time>2021-07-04T10:27:54.512Z</time>
      </trkpt>
      <trkpt lat="36.949287" lon="-3.391363">
        <ele>1807.372818</ele>
        <time>2021-07-04T10:28:00.517Z</time>
      </trkpt>
      <trkpt lat="36.949255" lon="-3.391251">
        <ele>1807.267111</ele>
        <time>2021-07-04T10:28:08.498Z</time>
      </trkpt>
      <trkpt lat="36.949274" lon="-3.391132">
        <ele>1807.159262</ele>
        <time>2021-07-04T10:28:18.514Z</time>
      </trkpt>
      <trkpt lat="36.949295" lon="-3.391021">
        <ele>1807.057887</ele>
        <time>2021-07-04T10:28:24.509Z</time>
      </trkpt>
      <trkpt lat="36.949316" lon="-3.390899">
        <ele>1806.946976</ele>
        <time>2021-07-04T10:28:30.507Z</time>
      </trkpt>
      <trkpt lat="36.949352" lon="-3.390785">
        <ele>1806.838038</ele>
        <time>2021-07-04T10:28:37.506Z</time>
      </trkpt>
      <trkpt lat="36.949332" lon="-3.390672">
        <ele>1806.735178</ele>
        <time>2021-07-04T10:28:47.509Z</time>
      </trkpt>
      <trkpt lat="36.949240" lon="-3.390696">
        <ele>1806.630668</ele>
        <time>2021-07-04T10:29:03.499Z</time>
      </trkpt>
      <trkpt lat="36.949148" lon="-3.390709">
        <ele>1806.527708</ele>
        <time>2021-07-04T10:29:14.518Z</time>
      </trkpt>
      <trkpt lat="36.949060" lon="-3.390667">
        <ele>1806.422969</ele>
        <time>2021-07-04T10:29:22.510Z</time>
      </trkpt>
      <trkpt lat="36.948976" lon="-3.390595">
        <ele>1806.309741</ele>
        <time>2021-07-04T10:29:31.514Z</time>
      </trkpt>
      <trkpt lat="36.948915" lon="-3.390511">
        <ele>1806.208871</ele>
        <time>2021-07-04T10:29:38.513Z</time>
      </trkpt>
      <trkpt lat="36.948852" lon="-3.390403">
        <ele>1806.090038</ele>
        <time>2021-07-04T10:29:42.502Z</time>
      </trkpt>
      <trkpt lat="36.948798" lon="-3.390297">
        <ele>1805.978320</ele>
        <time>2021-07-04T10:29:48.510Z</time>
      </trkpt>
      <trkpt lat="36.948757" lon="-3.390188">
        <ele>1805.871255</ele>
        <time>2021-07-04T10:29:56.501Z</time>
      </trkpt>
      <trkpt lat="36.948701" lon="-3.390081">
        <ele>1805.671537</ele>
        <time>2021-07-04T10:30:04.519Z</time>
      </trkpt>
      <trkpt lat="36.948642" lon="-3.389995">
        <ele>1805.300510</ele>
        <time>2021-07-04T10:30:11.509Z</time>
      </trkpt>
      <trkpt lat="36.948586" lon="-3.389893">
        <ele>1804.895409</ele>
        <time>2021-07-04T10:30:18.510Z</time>
      </trkpt>
      <trkpt lat="36.948524" lon="-3.389800">
        <ele>1804.498951</ele>
        <time>2021-07-04T10:30:25.541Z</time>
      </trkpt>
      <trkpt lat="36.948476" lon="-3.389691">
        <ele>1804.091550</ele>
        <time>2021-07-04T10:30:32.495Z</time>
      </trkpt>
      <trkpt lat="36.948436" lon="-3.389572">
        <ele>1803.668944</ele>
        <time>2021-07-04T10:30:38.496Z</time>
      </trkpt>
      <trkpt lat="36.948398" lon="-3.389465">
        <ele>1803.285648</ele>
        <time>2021-07-04T10:30:44.509Z</time>
      </trkpt>
      <trkpt lat="36.948362" lon="-3.389359">
        <ele>1802.908619</ele>
        <time>2021-07-04T10:30:52.511Z</time>
      </trkpt>
      <trkpt lat="36.948340" lon="-3.389235">
        <ele>1802.492816</ele>
        <time>2021-07-04T10:30:59.540Z</time>
      </trkpt>
      <trkpt lat="36.948339" lon="-3.389116">
        <ele>1802.103243</ele>
        <time>2021-07-04T10:31:06.512Z</time>
      </trkpt>
      <trkpt lat="36.948321" lon="-3.388987">
        <ele>1801.674567</ele>
        <time>2021-07-04T10:31:13.504Z</time>
      </trkpt>
      <trkpt lat="36.948310" lon="-3.388858">
        <ele>1801.249882</ele>
        <time>2021-07-04T10:31:19.506Z</time>
      </trkpt>
      <trkpt lat="36.948307" lon="-3.388738">
        <ele>1800.856864</ele>
        <time>2021-07-04T10:31:26.511Z</time>
      </trkpt>
      <trkpt lat="36.948288" lon="-3.388623">
        <ele>1800.472446</ele>
        <time>2021-07-04T10:31:33.516Z</time>
      </trkpt>
      <trkpt lat="36.948295" lon="-3.388503">
        <ele>1800.078575</ele>
        <time>2021-07-04T10:31:41.509Z</time>
      </trkpt>
      <trkpt lat="36.948318" lon="-3.388389">
        <ele>1799.693682</ele>
        <time>2021-07-04T10:31:49.508Z</time>
      </trkpt>
      <trkpt lat="36.948290" lon="-3.388270">
        <ele>1799.287597</ele>
        <time>2021-07-04T10:31:57.505Z</time>
      </trkpt>
      <trkpt lat="36.948244" lon="-3.388173">
        <ele>1798.918366</ele>
        <time>2021-07-04T10:32:05.514Z</time>
      </trkpt>
      <trkpt lat="36.948206" lon="-3.388059">
        <ele>1798.514021</ele>
        <time>2021-07-04T10:32:13.514Z</time>
      </trkpt>
      <trkpt lat="36.948207" lon="-3.387929">
        <ele>1797.502384</ele>
        <time>2021-07-04T10:32:21.549Z</time>
      </trkpt>
      <trkpt lat="36.948207" lon="-3.387803">
        <ele>1796.365548</ele>
        <time>2021-07-04T10:32:28.509Z</time>
      </trkpt>
      <trkpt lat="36.948192" lon="-3.387673">
        <ele>1795.180460</ele>
        <time>2021-07-04T10:32:35.503Z</time>
      </trkpt>
      <trkpt lat="36.948188" lon="-3.387559">
        <ele>1794.150903</ele>
        <time>2021-07-04T10:32:42.505Z</time>
      </trkpt>
      <trkpt lat="36.948193" lon="-3.387438">
        <ele>1793.057721</ele>
        <time>2021-07-04T10:32:50.512Z</time>
      </trkpt>
      <trkpt lat="36.948165" lon="-3.387303">
        <ele>1791.799330</ele>
        <time>2021-07-04T10:32:59.511Z</time>
      </trkpt>
      <trkpt lat="36.948144" lon="-3.387185">
        <ele>1790.708595</ele>
        <time>2021-07-04T10:33:05.509Z</time>
      </trkpt>
      <trkpt lat="36.948117" lon="-3.387077">
        <ele>1789.687599</ele>
        <time>2021-07-04T10:33:11.517Z</time>
      </trkpt>
      <trkpt lat="36.948052" lon="-3.386986">
        <ele>1788.586403</ele>
        <time>2021-07-04T10:33:19.512Z</time>
      </trkpt>
      <trkpt lat="36.947861" lon="-3.386848">
        <ele>1786.096406</ele>
        <time>2021-07-04T10:34:44.498Z</time>
      </trkpt>
      <trkpt lat="36.947766" lon="-3.386838">
        <ele>1785.020094</ele>
        <time>2021-07-04T10:34:52.505Z</time>
      </trkpt>
      <trkpt lat="36.947668" lon="-3.386837">
        <ele>1783.913665</ele>
        <time>2021-07-04T10:35:00.513Z</time>
      </trkpt>
      <trkpt lat="36.947576" lon="-3.386830">
        <ele>1782.873092</ele>
        <time>2021-07-04T10:35:07.511Z</time>
      </trkpt>
      <trkpt lat="36.947479" lon="-3.386814">
        <ele>1781.768515</ele>
        <time>2021-07-04T10:35:16.515Z</time>
      </trkpt>
      <trkpt lat="36.947379" lon="-3.386791">
        <ele>1780.620629</ele>
        <time>2021-07-04T10:35:23.513Z</time>
      </trkpt>
      <trkpt lat="36.947284" lon="-3.386782">
        <ele>1779.545036</ele>
        <time>2021-07-04T10:35:29.510Z</time>
      </trkpt>
      <trkpt lat="36.947182" lon="-3.386763">
        <ele>1778.380794</ele>
        <time>2021-07-04T10:35:37.507Z</time>
      </trkpt>
      <trkpt lat="36.947091" lon="-3.386748">
        <ele>1777.117472</ele>
        <time>2021-07-04T10:35:44.510Z</time>
      </trkpt>
      <trkpt lat="36.946993" lon="-3.386725">
        <ele>1775.660418</ele>
        <time>2021-07-04T10:35:53.504Z</time>
      </trkpt>
      <trkpt lat="36.946900" lon="-3.386714">
        <ele>1774.295344</ele>
        <time>2021-07-04T10:36:00.550Z</time>
      </trkpt>
      <trkpt lat="36.946806" lon="-3.386686">
        <ele>1772.883330</ele>
        <time>2021-07-04T10:36:07.506Z</time>
      </trkpt>
      <trkpt lat="36.946712" lon="-3.386656">
        <ele>1771.465723</ele>
        <time>2021-07-04T10:36:13.536Z</time>
      </trkpt>
      <trkpt lat="36.946625" lon="-3.386606">
        <ele>1770.066696</ele>
        <time>2021-07-04T10:36:19.509Z</time>
      </trkpt>
      <trkpt lat="36.946545" lon="-3.386553">
        <ele>1768.743898</ele>
        <time>2021-07-04T10:36:26.505Z</time>
      </trkpt>
      <trkpt lat="36.946449" lon="-3.386540">
        <ele>1767.332852</ele>
        <time>2021-07-04T10:36:37.505Z</time>
      </trkpt>
      <trkpt lat="36.946358" lon="-3.386519">
        <ele>1765.980636</ele>
        <time>2021-07-04T10:37:05.538Z</time>
      </trkpt>
      <trkpt lat="36.946274" lon="-3.386463">
        <ele>1764.589780</ele>
        <time>2021-07-04T10:37:13.504Z</time>
      </trkpt>
      <trkpt lat="36.946193" lon="-3.386384">
        <ele>1763.089021</ele>
        <time>2021-07-04T10:37:20.502Z</time>
      </trkpt>
      <trkpt lat="36.946113" lon="-3.386317">
        <ele>1761.682273</ele>
        <time>2021-07-04T10:37:26.519Z</time>
      </trkpt>
      <trkpt lat="36.946033" lon="-3.386258">
        <ele>1760.325271</ele>
        <time>2021-07-04T10:37:33.504Z</time>
      </trkpt>
      <trkpt lat="36.945949" lon="-3.386210">
        <ele>1758.975825</ele>
        <time>2021-07-04T10:37:39.499Z</time>
      </trkpt>
      <trkpt lat="36.945846" lon="-3.386181">
        <ele>1757.433045</ele>
        <time>2021-07-04T10:37:45.487Z</time>
      </trkpt>
      <trkpt lat="36.945752" lon="-3.386173">
        <ele>1756.056242</ele>
        <time>2021-07-04T10:37:51.536Z</time>
      </trkpt>
      <trkpt lat="36.945661" lon="-3.386162">
        <ele>1754.720262</ele>
        <time>2021-07-04T10:37:57.511Z</time>
      </trkpt>
      <trkpt lat="36.945565" lon="-3.386137">
        <ele>1753.287346</ele>
        <time>2021-07-04T10:38:05.506Z</time>
      </trkpt>
      <trkpt lat="36.945470" lon="-3.386150">
        <ele>1751.890827</ele>
        <time>2021-07-04T10:38:12.503Z</time>
      </trkpt>
      <trkpt lat="36.945373" lon="-3.386168">
        <ele>1751.065169</ele>
        <time>2021-07-04T10:38:20.513Z</time>
      </trkpt>
      <trkpt lat="36.945276" lon="-3.386192">
        <ele>1750.258716</ele>
        <time>2021-07-04T10:38:27.507Z</time>
      </trkpt>
      <trkpt lat="36.945179" lon="-3.386219">
        <ele>1749.448243</ele>
        <time>2021-07-04T10:38:35.500Z</time>
      </trkpt>
      <trkpt lat="36.945083" lon="-3.386231">
        <ele>1748.661368</ele>
        <time>2021-07-04T10:38:43.547Z</time>
      </trkpt>
      <trkpt lat="36.944993" lon="-3.386252">
        <ele>1747.914672</ele>
        <time>2021-07-04T10:38:50.511Z</time>
      </trkpt>
      <trkpt lat="36.944895" lon="-3.386263">
        <ele>1747.112172</ele>
        <time>2021-07-04T10:38:58.508Z</time>
      </trkpt>
      <trkpt lat="36.944804" lon="-3.386238">
        <ele>1746.352295</ele>
        <time>2021-07-04T10:39:04.509Z</time>
      </trkpt>
      <trkpt lat="36.944716" lon="-3.386190">
        <ele>1745.569332</ele>
        <time>2021-07-04T10:39:10.508Z</time>
      </trkpt>
      <trkpt lat="36.944636" lon="-3.386133">
        <ele>1744.818478</ele>
        <time>2021-07-04T10:39:15.502Z</time>
      </trkpt>
      <trkpt lat="36.944558" lon="-3.386058">
        <ele>1744.016159</ele>
        <time>2021-07-04T10:39:22.499Z</time>
      </trkpt>
      <trkpt lat="36.944488" lon="-3.385974">
        <ele>1743.225108</ele>
        <time>2021-07-04T10:39:29.504Z</time>
      </trkpt>
      <trkpt lat="36.944296" lon="-3.385868">
        <ele>1741.513491</ele>
        <time>2021-07-04T10:40:09.577Z</time>
      </trkpt>
      <trkpt lat="36.944229" lon="-3.385783">
        <ele>1740.735286</ele>
        <time>2021-07-04T10:40:16.511Z</time>
      </trkpt>
      <trkpt lat="36.944158" lon="-3.385708">
        <ele>1739.977435</ele>
        <time>2021-07-04T10:40:24.500Z</time>
      </trkpt>
      <trkpt lat="36.944071" lon="-3.385680">
        <ele>1739.244763</ele>
        <time>2021-07-04T10:40:31.503Z</time>
      </trkpt>
      <trkpt lat="36.943981" lon="-3.385661">
        <ele>1738.500347</ele>
        <time>2021-07-04T10:40:37.500Z</time>
      </trkpt>
      <trkpt lat="36.943895" lon="-3.385623">
        <ele>1737.756477</ele>
        <time>2021-07-04T10:40:43.514Z</time>
      </trkpt>
      <trkpt lat="36.943815" lon="-3.385570">
        <ele>1737.127373</ele>
        <time>2021-07-04T10:40:51.506Z</time>
      </trkpt>
      <trkpt lat="36.943685" lon="-3.385382">
        <ele>1736.732847</ele>
        <time>2021-07-04T10:41:27.510Z</time>
      </trkpt>
      <trkpt lat="36.943625" lon="-3.385290">
        <ele>1736.544402</ele>
        <time>2021-07-04T10:41:33.507Z</time>
      </trkpt>
      <trkpt lat="36.943584" lon="-3.385178">
        <ele>1736.348901</ele>
        <time>2021-07-04T10:41:40.512Z</time>
      </trkpt>
      <trkpt lat="36.943493" lon="-3.385123">
        <ele>1736.148228</ele>
        <time>2021-07-04T10:41:48.507Z</time>
      </trkpt>
      <trkpt lat="36.943402" lon="-3.385121">
        <ele>1735.967504</ele>
        <time>2021-07-04T10:41:55.521Z</time>
      </trkpt>
      <trkpt lat="36.943301" lon="-3.385124">
        <ele>1735.766895</ele>
        <time>2021-07-04T10:42:03.523Z</time>
      </trkpt>
      <trkpt lat="36.943201" lon="-3.385096">
        <ele>1735.563417</ele>
        <time>2021-07-04T10:42:10.500Z</time>
      </trkpt>
      <trkpt lat="36.943105" lon="-3.385081">
        <ele>1735.371313</ele>
        <time>2021-07-04T10:42:16.512Z</time>
      </trkpt>
      <trkpt lat="36.943012" lon="-3.385075">
        <ele>1735.186400</ele>
        <time>2021-07-04T10:42:22.508Z</time>
      </trkpt>
      <trkpt lat="36.942920" lon="-3.385061">
        <ele>1735.002373</ele>
        <time>2021-07-04T10:42:28.506Z</time>
      </trkpt>
      <trkpt lat="36.942821" lon="-3.385045">
        <ele>1734.804159</ele>
        <time>2021-07-04T10:42:35.557Z</time>
      </trkpt>
      <trkpt lat="36.942729" lon="-3.385073">
        <ele>1734.616151</ele>
        <time>2021-07-04T10:42:57.515Z</time>
      </trkpt>
      <trkpt lat="36.942638" lon="-3.385078">
        <ele>1734.435281</ele>
        <time>2021-07-04T10:43:03.519Z</time>
      </trkpt>
      <trkpt lat="36.942542" lon="-3.385030">
        <ele>1734.229999</ele>
        <time>2021-07-04T10:43:11.506Z</time>
      </trkpt>
      <trkpt lat="36.942458" lon="-3.384974">
        <ele>1734.041004</ele>
        <time>2021-07-04T10:43:17.513Z</time>
      </trkpt>
      <trkpt lat="36.942380" lon="-3.384908">
        <ele>1733.854029</ele>
        <time>2021-07-04T10:43:33.510Z</time>
      </trkpt>
      <trkpt lat="36.942288" lon="-3.384897">
        <ele>1733.670515</ele>
        <time>2021-07-04T10:43:46.500Z</time>
      </trkpt>
      <trkpt lat="36.942373" lon="-3.384976">
        <ele>1733.042378</ele>
        <time>2021-07-04T10:48:42.515Z</time>
      </trkpt>
      <trkpt lat="36.942460" lon="-3.385023">
        <ele>1732.252789</ele>
        <time>2021-07-04T10:48:51.509Z</time>
      </trkpt>
      <trkpt lat="36.942548" lon="-3.385053">
        <ele>1731.492823</ele>
        <time>2021-07-04T10:49:00.507Z</time>
      </trkpt>
      <trkpt lat="36.942644" lon="-3.385064">
        <ele>1730.689582</ele>
        <time>2021-07-04T10:49:11.550Z</time>
      </trkpt>
      <trkpt lat="36.942733" lon="-3.385080">
        <ele>1729.940398</ele>
        <time>2021-07-04T10:49:16.512Z</time>
      </trkpt>
      <trkpt lat="36.942825" lon="-3.385099">
        <ele>1729.163461</ele>
        <time>2021-07-04T10:49:23.519Z</time>
      </trkpt>
      <trkpt lat="36.942974" lon="-3.385335">
        <ele>1727.160634</ele>
        <time>2021-07-04T10:52:46.503Z</time>
      </trkpt>
      <trkpt lat="36.942923" lon="-3.385429">
        <ele>1726.404041</ele>
        <time>2021-07-04T10:53:02.507Z</time>
      </trkpt>
      <trkpt lat="36.942831" lon="-3.385430">
        <ele>1725.637447</ele>
        <time>2021-07-04T10:53:13.528Z</time>
      </trkpt>
      <trkpt lat="36.942814" lon="-3.385550">
        <ele>1724.825861</ele>
        <time>2021-07-04T10:53:29.512Z</time>
      </trkpt>
      <trkpt lat="36.942770" lon="-3.385654">
        <ele>1724.042231</ele>
        <time>2021-07-04T10:53:40.500Z</time>
      </trkpt>
      <trkpt lat="36.942687" lon="-3.385703">
        <ele>1723.277538</ele>
        <time>2021-07-04T10:53:59.499Z</time>
      </trkpt>
      <trkpt lat="36.942595" lon="-3.385741">
        <ele>1722.470284</ele>
        <time>2021-07-04T10:54:08.509Z</time>
      </trkpt>
      <trkpt lat="36.942504" lon="-3.385783">
        <ele>1721.662108</ele>
        <time>2021-07-04T10:54:15.505Z</time>
      </trkpt>
      <trkpt lat="36.942404" lon="-3.385811">
        <ele>1720.808276</ele>
        <time>2021-07-04T10:54:22.499Z</time>
      </trkpt>
      <trkpt lat="36.942307" lon="-3.385820">
        <ele>1719.997831</ele>
        <time>2021-07-04T10:54:30.516Z</time>
      </trkpt>
      <trkpt lat="36.942217" lon="-3.385825">
        <ele>1719.247192</ele>
        <time>2021-07-04T10:54:35.520Z</time>
      </trkpt>
      <trkpt lat="36.942122" lon="-3.385858">
        <ele>1718.343911</ele>
        <time>2021-07-04T10:54:42.498Z</time>
      </trkpt>
      <trkpt lat="36.942033" lon="-3.385911">
        <ele>1717.146603</ele>
        <time>2021-07-04T10:54:51.488Z</time>
      </trkpt>
      <trkpt lat="36.942000" lon="-3.386027">
        <ele>1715.951194</ele>
        <time>2021-07-04T10:54:57.510Z</time>
      </trkpt>
      <trkpt lat="36.941995" lon="-3.386146">
        <ele>1714.794278</ele>
        <time>2021-07-04T10:55:04.513Z</time>
      </trkpt>
      <trkpt lat="36.941994" lon="-3.386271">
        <ele>1713.580644</ele>
        <time>2021-07-04T10:55:11.511Z</time>
      </trkpt>
      <trkpt lat="36.941999" lon="-3.386386">
        <ele>1712.462506</ele>
        <time>2021-07-04T10:55:17.505Z</time>
      </trkpt>
      <trkpt lat="36.942021" lon="-3.386506">
        <ele>1711.267219</ele>
        <time>2021-07-04T10:55:24.515Z</time>
      </trkpt>
      <trkpt lat="36.942043" lon="-3.386618">
        <ele>1710.147501</ele>
        <time>2021-07-04T10:55:31.496Z</time>
      </trkpt>
      <trkpt lat="36.942075" lon="-3.386738">
        <ele>1708.919336</ele>
        <time>2021-07-04T10:55:38.506Z</time>
      </trkpt>
      <trkpt lat="36.942066" lon="-3.386864">
        <ele>1707.691181</ele>
        <time>2021-07-04T10:55:45.510Z</time>
      </trkpt>
      <trkpt lat="36.942069" lon="-3.386983">
        <ele>1706.535286</ele>
        <time>2021-07-04T10:55:51.502Z</time>
      </trkpt>
      <trkpt lat="36.942075" lon="-3.387096">
        <ele>1705.435799</ele>
        <time>2021-07-04T10:55:58.503Z</time>
      </trkpt>
      <trkpt lat="36.942075" lon="-3.387211">
        <ele>1704.319313</ele>
        <time>2021-07-04T10:56:04.500Z</time>
      </trkpt>
      <trkpt lat="36.942074" lon="-3.387323">
        <ele>1703.231885</ele>
        <time>2021-07-04T10:56:10.504Z</time>
      </trkpt>
      <trkpt lat="36.942087" lon="-3.387436">
        <ele>1702.123510</ele>
        <time>2021-07-04T10:56:18.498Z</time>
      </trkpt>
      <trkpt lat="36.942104" lon="-3.387560">
        <ele>1700.902064</ele>
        <time>2021-07-04T10:56:28.512Z</time>
      </trkpt>
      <trkpt lat="36.942131" lon="-3.387679">
        <ele>1699.701094</ele>
        <time>2021-07-04T10:56:36.524Z</time>
      </trkpt>
      <trkpt lat="36.942121" lon="-3.387793">
        <ele>1698.587671</ele>
        <time>2021-07-04T10:56:45.518Z</time>
      </trkpt>
      <trkpt lat="36.942059" lon="-3.387892">
        <ele>1697.366604</ele>
        <time>2021-07-04T10:56:54.504Z</time>
      </trkpt>
      <trkpt lat="36.942004" lon="-3.387983">
        <ele>1695.954101</ele>
        <time>2021-07-04T10:57:00.507Z</time>
      </trkpt>
      <trkpt lat="36.941935" lon="-3.388068">
        <ele>1694.056202</ele>
        <time>2021-07-04T10:57:08.536Z</time>
      </trkpt>
      <trkpt lat="36.941889" lon="-3.388173">
        <ele>1692.180452</ele>
        <time>2021-07-04T10:57:18.506Z</time>
      </trkpt>
      <trkpt lat="36.941857" lon="-3.388284">
        <ele>1690.331947</ele>
        <time>2021-07-04T10:57:24.502Z</time>
      </trkpt>
      <trkpt lat="36.941830" lon="-3.388403">
        <ele>1688.394117</ele>
        <time>2021-07-04T10:57:32.504Z</time>
      </trkpt>
      <trkpt lat="36.941595" lon="-3.388527">
        <ele>1683.395243</ele>
        <time>2021-07-04T10:59:26.499Z</time>
      </trkpt>
      <trkpt lat="36.941505" lon="-3.388580">
        <ele>1681.445612</ele>
        <time>2021-07-04T10:59:32.500Z</time>
      </trkpt>
      <trkpt lat="36.941412" lon="-3.388582">
        <ele>1679.622534</ele>
        <time>2021-07-04T10:59:39.503Z</time>
      </trkpt>
      <trkpt lat="36.941319" lon="-3.388537">
        <ele>1677.668160</ele>
        <time>2021-07-04T10:59:49.506Z</time>
      </trkpt>
      <trkpt lat="36.941225" lon="-3.388520">
        <ele>1675.806604</ele>
        <time>2021-07-04T11:00:01.505Z</time>
      </trkpt>
      <trkpt lat="36.940975" lon="-3.388398">
        <ele>1670.547056</ele>
        <time>2021-07-04T11:00:50.506Z</time>
      </trkpt>
      <trkpt lat="36.940875" lon="-3.388384">
        <ele>1668.574815</ele>
        <time>2021-07-04T11:01:08.498Z</time>
      </trkpt>
      <trkpt lat="36.940808" lon="-3.388470">
        <ele>1666.693446</ele>
        <time>2021-07-04T11:01:15.512Z</time>
      </trkpt>
      <trkpt lat="36.940752" lon="-3.388561">
        <ele>1664.894290</ele>
        <time>2021-07-04T11:01:20.495Z</time>
      </trkpt>
      <trkpt lat="36.940696" lon="-3.388655">
        <ele>1663.057671</ele>
        <time>2021-07-04T11:01:26.502Z</time>
      </trkpt>
      <trkpt lat="36.940635" lon="-3.388745">
        <ele>1661.377360</ele>
        <time>2021-07-04T11:01:33.505Z</time>
      </trkpt>
      <trkpt lat="36.940543" lon="-3.388817">
        <ele>1660.471296</ele>
        <time>2021-07-04T11:01:40.502Z</time>
      </trkpt>
      <trkpt lat="36.940459" lon="-3.388867">
        <ele>1659.694599</ele>
        <time>2021-07-04T11:01:46.504Z</time>
      </trkpt>
      <trkpt lat="36.940382" lon="-3.388932">
        <ele>1658.919027</ele>
        <time>2021-07-04T11:01:54.502Z</time>
      </trkpt>
      <trkpt lat="36.940333" lon="-3.389028">
        <ele>1658.158873</ele>
        <time>2021-07-04T11:02:03.501Z</time>
      </trkpt>
      <trkpt lat="36.940315" lon="-3.388878">
        <ele>1657.146623</ele>
        <time>2021-07-04T11:03:44.469Z</time>
      </trkpt>
      <trkpt lat="36.940317" lon="-3.388766">
        <ele>1656.399000</ele>
        <time>2021-07-04T11:04:10.496Z</time>
      </trkpt>
      <trkpt lat="36.940296" lon="-3.388645">
        <ele>1655.572684</ele>
        <time>2021-07-04T11:04:19.499Z</time>
      </trkpt>
      <trkpt lat="36.940212" lon="-3.388587">
        <ele>1654.771599</ele>
        <time>2021-07-04T11:04:32.505Z</time>
      </trkpt>
      <trkpt lat="36.940121" lon="-3.388553">
        <ele>1653.978627</ele>
        <time>2021-07-04T11:04:45.545Z</time>
      </trkpt>
      <trkpt lat="36.940037" lon="-3.388506">
        <ele>1653.210318</ele>
        <time>2021-07-04T11:04:54.501Z</time>
      </trkpt>
      <trkpt lat="36.939938" lon="-3.388516">
        <ele>1652.381015</ele>
        <time>2021-07-04T11:05:02.546Z</time>
      </trkpt>
      <trkpt lat="36.939829" lon="-3.388539">
        <ele>1651.458053</ele>
        <time>2021-07-04T11:05:09.514Z</time>
      </trkpt>
      <trkpt lat="36.939735" lon="-3.388527">
        <ele>1650.669113</ele>
        <time>2021-07-04T11:05:15.510Z</time>
      </trkpt>
      <trkpt lat="36.939672" lon="-3.388423">
        <ele>1649.798244</ele>
        <time>2021-07-04T11:05:28.512Z</time>
      </trkpt>
      <trkpt lat="36.939603" lon="-3.388333">
        <ele>1648.965977</ele>
        <time>2021-07-04T11:05:35.504Z</time>
      </trkpt>
      <trkpt lat="36.939533" lon="-3.388259">
        <ele>1648.200801</ele>
        <time>2021-07-04T11:05:43.544Z</time>
      </trkpt>
      <trkpt lat="36.939456" lon="-3.388180">
        <ele>1647.369354</ele>
        <time>2021-07-04T11:05:49.543Z</time>
      </trkpt>
      <trkpt lat="36.939382" lon="-3.388099">
        <ele>1646.548395</ele>
        <time>2021-07-04T11:05:54.499Z</time>
      </trkpt>
      <trkpt lat="36.939296" lon="-3.388057">
        <ele>1645.393121</ele>
        <time>2021-07-04T11:06:03.501Z</time>
      </trkpt>
      <trkpt lat="36.939267" lon="-3.387939">
        <ele>1644.121059</ele>
        <time>2021-07-04T11:06:17.505Z</time>
      </trkpt>
      <trkpt lat="36.939262" lon="-3.387815">
        <ele>1642.841727</ele>
        <time>2021-07-04T11:06:25.513Z</time>
      </trkpt>
      <trkpt lat="36.939247" lon="-3.387686">
        <ele>1641.498507</ele>
        <time>2021-07-04T11:06:30.507Z</time>
      </trkpt>
      <trkpt lat="36.939233" lon="-3.387570">
        <ele>1640.289683</ele>
        <time>2021-07-04T11:06:37.521Z</time>
      </trkpt>
      <trkpt lat="36.939259" lon="-3.387450">
        <ele>1639.008566</ele>
        <time>2021-07-04T11:06:47.504Z</time>
      </trkpt>
      <trkpt lat="36.939243" lon="-3.387330">
        <ele>1637.754989</ele>
        <time>2021-07-04T11:06:57.509Z</time>
      </trkpt>
      <trkpt lat="36.939155" lon="-3.387302">
        <ele>1636.584397</ele>
        <time>2021-07-04T11:07:15.512Z</time>
      </trkpt>
      <trkpt lat="36.939064" lon="-3.387294">
        <ele>1635.408348</ele>
        <time>2021-07-04T11:07:23.508Z</time>
      </trkpt>
      <trkpt lat="36.938979" lon="-3.387331">
        <ele>1634.248115</ele>
        <time>2021-07-04T11:07:50.503Z</time>
      </trkpt>
      <trkpt lat="36.938921" lon="-3.387430">
        <ele>1632.983316</ele>
        <time>2021-07-04T11:14:43.652Z</time>
      </trkpt>
      <trkpt lat="36.938856" lon="-3.387516">
        <ele>1631.763700</ele>
        <time>2021-07-04T11:14:53.670Z</time>
      </trkpt>
      <trkpt lat="36.938783" lon="-3.387584">
        <ele>1630.590401</ele>
        <time>2021-07-04T11:15:01.651Z</time>
      </trkpt>
      <trkpt lat="36.938719" lon="-3.387682">
        <ele>1629.286383</ele>
        <time>2021-07-04T11:15:09.647Z</time>
      </trkpt>
      <trkpt lat="36.938667" lon="-3.387774">
        <ele>1628.125317</ele>
        <time>2021-07-04T11:15:13.650Z</time>
      </trkpt>
      <trkpt lat="36.938599" lon="-3.387854">
        <ele>1626.921976</ele>
        <time>2021-07-04T11:15:19.647Z</time>
      </trkpt>
      <trkpt lat="36.938530" lon="-3.387937">
        <ele>1625.687990</ele>
        <time>2021-07-04T11:15:26.645Z</time>
      </trkpt>
      <trkpt lat="36.938494" lon="-3.388042">
        <ele>1624.510710</ele>
        <time>2021-07-04T11:15:34.655Z</time>
      </trkpt>
      <trkpt lat="36.938509" lon="-3.388162">
        <ele>1623.230416</ele>
        <time>2021-07-04T11:15:44.648Z</time>
      </trkpt>
      <trkpt lat="36.938494" lon="-3.388273">
        <ele>1621.175529</ele>
        <time>2021-07-04T11:15:51.651Z</time>
      </trkpt>
      <trkpt lat="36.938394" lon="-3.388256">
        <ele>1618.870810</ele>
        <time>2021-07-04T11:15:58.644Z</time>
      </trkpt>
      <trkpt lat="36.938327" lon="-3.388340">
        <ele>1616.704662</ele>
        <time>2021-07-04T11:16:06.659Z</time>
      </trkpt>
      <trkpt lat="36.938307" lon="-3.388452">
        <ele>1614.609871</ele>
        <time>2021-07-04T11:16:16.644Z</time>
      </trkpt>
      <trkpt lat="36.938205" lon="-3.388449">
        <ele>1612.279819</ele>
        <time>2021-07-04T11:16:30.646Z</time>
      </trkpt>
      <trkpt lat="36.938142" lon="-3.388359">
        <ele>1610.096048</ele>
        <time>2021-07-04T11:16:36.659Z</time>
      </trkpt>
      <trkpt lat="36.938088" lon="-3.388262">
        <ele>1607.938313</ele>
        <time>2021-07-04T11:16:44.697Z</time>
      </trkpt>
      <trkpt lat="36.938018" lon="-3.388169">
        <ele>1605.606501</ele>
        <time>2021-07-04T11:16:53.654Z</time>
      </trkpt>
      <trkpt lat="36.937957" lon="-3.388269">
        <ele>1603.310289</ele>
        <time>2021-07-04T11:17:03.652Z</time>
      </trkpt>
      <trkpt lat="36.937882" lon="-3.388348">
        <ele>1601.071284</ele>
        <time>2021-07-04T11:17:12.680Z</time>
      </trkpt>
      <trkpt lat="36.937847" lon="-3.388459">
        <ele>1598.893171</ele>
        <time>2021-07-04T11:17:20.652Z</time>
      </trkpt>
      <trkpt lat="36.937765" lon="-3.388394">
        <ele>1596.676280</ele>
        <time>2021-07-04T11:17:29.673Z</time>
      </trkpt>
      <trkpt lat="36.937687" lon="-3.388336">
        <ele>1594.604098</ele>
        <time>2021-07-04T11:17:38.649Z</time>
      </trkpt>
      <trkpt lat="36.937662" lon="-3.388450">
        <ele>1592.446281</ele>
        <time>2021-07-04T11:17:48.662Z</time>
      </trkpt>
      <trkpt lat="36.937437" lon="-3.388341">
        <ele>1586.936121</ele>
        <time>2021-07-04T11:20:58.694Z</time>
      </trkpt>
      <trkpt lat="36.937351" lon="-3.388387">
        <ele>1584.800147</ele>
        <time>2021-07-04T11:21:21.646Z</time>
      </trkpt>
      <trkpt lat="36.937283" lon="-3.388477">
        <ele>1582.539499</ele>
        <time>2021-07-04T11:21:32.650Z</time>
      </trkpt>
      <trkpt lat="36.937241" lon="-3.388579">
        <ele>1580.388131</ele>
        <time>2021-07-04T11:21:48.646Z</time>
      </trkpt>
      <trkpt lat="36.937233" lon="-3.388695">
        <ele>1578.194653</ele>
        <time>2021-07-04T11:22:01.658Z</time>
      </trkpt>
      <trkpt lat="36.937237" lon="-3.388823">
        <ele>1575.781379</ele>
        <time>2021-07-04T11:22:12.650Z</time>
      </trkpt>
      <trkpt lat="36.937245" lon="-3.388938">
        <ele>1573.606670</ele>
        <time>2021-07-04T11:22:19.657Z</time>
      </trkpt>
      <trkpt lat="36.937223" lon="-3.389061">
        <ele>1571.232126</ele>
        <time>2021-07-04T11:22:32.649Z</time>
      </trkpt>
      <trkpt lat="36.937208" lon="-3.389187">
        <ele>1568.832189</ele>
        <time>2021-07-04T11:22:38.650Z</time>
      </trkpt>
      <trkpt lat="36.937206" lon="-3.389310">
        <ele>1566.514474</ele>
        <time>2021-07-04T11:22:45.650Z</time>
      </trkpt>
      <trkpt lat="36.937376" lon="-3.389644">
        <ele>1559.054684</ele>
        <time>2021-07-04T11:24:11.646Z</time>
      </trkpt>
      <trkpt lat="36.937273" lon="-3.389543">
        <ele>1555.970165</ele>
        <time>2021-07-04T11:25:40.646Z</time>
      </trkpt>
      <trkpt lat="36.937186" lon="-3.389486">
        <ele>1553.655424</ele>
        <time>2021-07-04T11:25:50.634Z</time>
      </trkpt>
      <trkpt lat="36.937090" lon="-3.389497">
        <ele>1551.383241</ele>
        <time>2021-07-04T11:25:56.630Z</time>
      </trkpt>
      <trkpt lat="36.936993" lon="-3.389492">
        <ele>1549.095019</ele>
        <time>2021-07-04T11:26:03.641Z</time>
      </trkpt>
      <trkpt lat="36.936904" lon="-3.389446">
        <ele>1546.825337</ele>
        <time>2021-07-04T11:26:13.644Z</time>
      </trkpt>
      <trkpt lat="36.936809" lon="-3.389466">
        <ele>1544.554714</ele>
        <time>2021-07-04T11:26:23.647Z</time>
      </trkpt>
      <trkpt lat="36.936722" lon="-3.389492">
        <ele>1542.446440</ele>
        <time>2021-07-04T11:26:36.648Z</time>
      </trkpt>
      <trkpt lat="36.936639" lon="-3.389557">
        <ele>1540.138480</ele>
        <time>2021-07-04T11:26:51.640Z</time>
      </trkpt>
      <trkpt lat="36.936543" lon="-3.389554">
        <ele>1538.045936</ele>
        <time>2021-07-04T11:27:12.636Z</time>
      </trkpt>
      <trkpt lat="36.936473" lon="-3.389468">
        <ele>1535.936032</ele>
        <time>2021-07-04T11:27:22.642Z</time>
      </trkpt>
      <trkpt lat="36.936377" lon="-3.389410">
        <ele>1533.643334</ele>
        <time>2021-07-04T11:27:31.639Z</time>
      </trkpt>
      <trkpt lat="36.936308" lon="-3.389318">
        <ele>1531.474695</ele>
        <time>2021-07-04T11:27:36.640Z</time>
      </trkpt>
      <trkpt lat="36.936215" lon="-3.389300">
        <ele>1529.450851</ele>
        <time>2021-07-04T11:27:43.648Z</time>
      </trkpt>
      <trkpt lat="36.936134" lon="-3.389353">
        <ele>1527.485012</ele>
        <time>2021-07-04T11:27:50.645Z</time>
      </trkpt>
      <trkpt lat="36.936171" lon="-3.389462">
        <ele>1525.449359</ele>
        <time>2021-07-04T11:28:16.692Z</time>
      </trkpt>
      <trkpt lat="36.936245" lon="-3.389537">
        <ele>1523.401238</ele>
        <time>2021-07-04T11:28:29.644Z</time>
      </trkpt>
      <trkpt lat="36.936310" lon="-3.389616">
        <ele>1521.452334</ele>
        <time>2021-07-04T11:28:42.648Z</time>
      </trkpt>
      <trkpt lat="36.936360" lon="-3.389724">
        <ele>1519.306912</ele>
        <time>2021-07-04T11:28:53.652Z</time>
      </trkpt>
      <trkpt lat="36.936406" lon="-3.389829">
        <ele>1517.248657</ele>
        <time>2021-07-04T11:29:02.647Z</time>
      </trkpt>
      <trkpt lat="36.936474" lon="-3.389924">
        <ele>1515.056536</ele>
        <time>2021-07-04T11:29:07.645Z</time>
      </trkpt>
      <trkpt lat="36.936530" lon="-3.390013">
        <ele>1513.109495</ele>
        <time>2021-07-04T11:29:26.653Z</time>
      </trkpt>
      <trkpt lat="36.936595" lon="-3.390098">
        <ele>1511.087375</ele>
        <time>2021-07-04T11:29:42.647Z</time>
      </trkpt>
      <trkpt lat="36.936675" lon="-3.390171">
        <ele>1508.957897</ele>
        <time>2021-07-04T11:29:50.654Z</time>
      </trkpt>
      <trkpt lat="36.936738" lon="-3.390256">
        <ele>1506.965270</ele>
        <time>2021-07-04T11:29:57.642Z</time>
      </trkpt>
      <trkpt lat="36.937075" lon="-3.390520">
        <ele>1501.979318</ele>
        <time>2021-07-04T11:31:01.649Z</time>
      </trkpt>
      <trkpt lat="36.937167" lon="-3.390590">
        <ele>1502.686959</ele>
        <time>2021-07-04T11:31:12.646Z</time>
      </trkpt>
      <trkpt lat="36.937243" lon="-3.390665">
        <ele>1503.323095</ele>
        <time>2021-07-04T11:31:18.675Z</time>
      </trkpt>
      <trkpt lat="36.937313" lon="-3.390747">
        <ele>1503.953300</ele>
        <time>2021-07-04T11:31:25.653Z</time>
      </trkpt>
      <trkpt lat="36.937383" lon="-3.390842">
        <ele>1504.632010</ele>
        <time>2021-07-04T11:31:30.643Z</time>
      </trkpt>
      <trkpt lat="36.937437" lon="-3.390948">
        <ele>1505.292288</ele>
        <time>2021-07-04T11:31:37.645Z</time>
      </trkpt>
      <trkpt lat="36.937457" lon="-3.391065">
        <ele>1505.920766</ele>
        <time>2021-07-04T11:32:00.642Z</time>
      </trkpt>
      <trkpt lat="36.937267" lon="-3.391341">
        <ele>1507.834141</ele>
        <time>2021-07-04T11:32:39.683Z</time>
      </trkpt>
      <trkpt lat="36.937216" lon="-3.391440">
        <ele>1508.452823</ele>
        <time>2021-07-04T11:32:46.636Z</time>
      </trkpt>
      <trkpt lat="36.937157" lon="-3.391524">
        <ele>1509.040219</ele>
        <time>2021-07-04T11:32:51.636Z</time>
      </trkpt>
      <trkpt lat="36.937090" lon="-3.391604">
        <ele>1509.648880</ele>
        <time>2021-07-04T11:32:56.689Z</time>
      </trkpt>
      <trkpt lat="36.937053" lon="-3.391721">
        <ele>1510.309819</ele>
        <time>2021-07-04T11:33:03.652Z</time>
      </trkpt>
      <trkpt lat="36.937059" lon="-3.391841">
        <ele>1510.941394</ele>
        <time>2021-07-04T11:33:10.643Z</time>
      </trkpt>
      <trkpt lat="36.937042" lon="-3.391957">
        <ele>1511.560883</ele>
        <time>2021-07-04T11:33:17.649Z</time>
      </trkpt>
      <trkpt lat="36.937066" lon="-3.392072">
        <ele>1512.185213</ele>
        <time>2021-07-04T11:33:23.663Z</time>
      </trkpt>
      <trkpt lat="36.937066" lon="-3.392190">
        <ele>1512.805050</ele>
        <time>2021-07-04T11:33:30.654Z</time>
      </trkpt>
      <trkpt lat="36.937084" lon="-3.392307">
        <ele>1512.436014</ele>
        <time>2021-07-04T11:33:38.642Z</time>
      </trkpt>
      <trkpt lat="36.937022" lon="-3.392402">
        <ele>1511.703689</ele>
        <time>2021-07-04T11:33:55.661Z</time>
      </trkpt>
      <trkpt lat="36.936959" lon="-3.392487">
        <ele>1511.011519</ele>
        <time>2021-07-04T11:34:15.640Z</time>
      </trkpt>
      <trkpt lat="36.936881" lon="-3.392559">
        <ele>1510.287391</ele>
        <time>2021-07-04T11:34:23.647Z</time>
      </trkpt>
      <trkpt lat="36.936838" lon="-3.392658">
        <ele>1509.614610</ele>
        <time>2021-07-04T11:34:30.652Z</time>
      </trkpt>
      <trkpt lat="36.936821" lon="-3.392768">
        <ele>1508.945624</ele>
        <time>2021-07-04T11:34:48.652Z</time>
      </trkpt>
      <trkpt lat="36.936825" lon="-3.393100">
        <ele>1506.962992</ele>
        <time>2021-07-04T11:35:33.699Z</time>
      </trkpt>
      <trkpt lat="36.936852" lon="-3.393218">
        <ele>1506.230099</ele>
        <time>2021-07-04T11:35:40.642Z</time>
      </trkpt>
      <trkpt lat="36.936867" lon="-3.393335">
        <ele>1505.522551</ele>
        <time>2021-07-04T11:35:49.651Z</time>
      </trkpt>
      <trkpt lat="36.936899" lon="-3.393454">
        <ele>1504.772855</ele>
        <time>2021-07-04T11:35:57.666Z</time>
      </trkpt>
      <trkpt lat="36.936925" lon="-3.393564">
        <ele>1504.087917</ele>
        <time>2021-07-04T11:36:05.645Z</time>
      </trkpt>
      <trkpt lat="36.936942" lon="-3.393684">
        <ele>1503.360218</ele>
        <time>2021-07-04T11:36:13.641Z</time>
      </trkpt>
      <trkpt lat="36.936954" lon="-3.393799">
        <ele>1502.667716</ele>
        <time>2021-07-04T11:36:20.684Z</time>
      </trkpt>
      <trkpt lat="36.936960" lon="-3.393939">
        <ele>1501.830561</ele>
        <time>2021-07-04T11:36:26.647Z</time>
      </trkpt>
      <trkpt lat="36.936962" lon="-3.394066">
        <ele>1501.072085</ele>
        <time>2021-07-04T11:36:32.678Z</time>
      </trkpt>
      <trkpt lat="36.936959" lon="-3.394179">
        <ele>1500.396979</ele>
        <time>2021-07-04T11:36:39.649Z</time>
      </trkpt>
      <trkpt lat="36.936959" lon="-3.394299">
        <ele>1499.680448</ele>
        <time>2021-07-04T11:36:46.654Z</time>
      </trkpt>
      <trkpt lat="36.936955" lon="-3.394422">
        <ele>1498.560750</ele>
        <time>2021-07-04T11:36:53.641Z</time>
      </trkpt>
      <trkpt lat="36.936942" lon="-3.394553">
        <ele>1497.252719</ele>
        <time>2021-07-04T11:37:00.648Z</time>
      </trkpt>
      <trkpt lat="36.936934" lon="-3.394680">
        <ele>1495.990387</ele>
        <time>2021-07-04T11:37:07.637Z</time>
      </trkpt>
      <trkpt lat="36.936930" lon="-3.394797">
        <ele>1494.829987</ele>
        <time>2021-07-04T11:37:14.648Z</time>
      </trkpt>
      <trkpt lat="36.936925" lon="-3.394913">
        <ele>1493.678885</ele>
        <time>2021-07-04T11:37:21.642Z</time>
      </trkpt>
      <trkpt lat="36.936922" lon="-3.395032">
        <ele>1492.499140</ele>
        <time>2021-07-04T11:37:28.644Z</time>
      </trkpt>
      <trkpt lat="36.936936" lon="-3.395158">
        <ele>1491.238614</ele>
        <time>2021-07-04T11:37:35.643Z</time>
      </trkpt>
      <trkpt lat="36.936979" lon="-3.395267">
        <ele>1490.034158</ele>
        <time>2021-07-04T11:37:42.649Z</time>
      </trkpt>
      <trkpt lat="36.937045" lon="-3.395358">
        <ele>1488.816565</ele>
        <time>2021-07-04T11:37:50.655Z</time>
      </trkpt>
      <trkpt lat="36.937119" lon="-3.395433">
        <ele>1487.635939</ele>
        <time>2021-07-04T11:37:56.654Z</time>
      </trkpt>
      <trkpt lat="36.937198" lon="-3.395508">
        <ele>1486.406530</ele>
        <time>2021-07-04T11:38:03.637Z</time>
      </trkpt>
      <trkpt lat="36.937269" lon="-3.395585">
        <ele>1485.241682</ele>
        <time>2021-07-04T11:38:10.662Z</time>
      </trkpt>
      <trkpt lat="36.937346" lon="-3.395657">
        <ele>1484.049963</ele>
        <time>2021-07-04T11:38:17.645Z</time>
      </trkpt>
      <trkpt lat="36.937431" lon="-3.395717">
        <ele>1482.840068</ele>
        <time>2021-07-04T11:38:24.648Z</time>
      </trkpt>
      <trkpt lat="36.937514" lon="-3.395766">
        <ele>1481.702315</ele>
        <time>2021-07-04T11:38:31.679Z</time>
      </trkpt>
      <trkpt lat="36.937615" lon="-3.395796">
        <ele>1480.415414</ele>
        <time>2021-07-04T11:38:38.642Z</time>
      </trkpt>
      <trkpt lat="36.937707" lon="-3.395837">
        <ele>1479.204694</ele>
        <time>2021-07-04T11:38:44.644Z</time>
      </trkpt>
      <trkpt lat="36.937806" lon="-3.395877">
        <ele>1477.914978</ele>
        <time>2021-07-04T11:38:51.645Z</time>
      </trkpt>
      <trkpt lat="36.937900" lon="-3.395913">
        <ele>1477.016977</ele>
        <time>2021-07-04T11:38:58.660Z</time>
      </trkpt>
      <trkpt lat="36.937997" lon="-3.395953">
        <ele>1476.510380</ele>
        <time>2021-07-04T11:39:05.644Z</time>
      </trkpt>
      <trkpt lat="36.938082" lon="-3.396017">
        <ele>1476.018303</ele>
        <time>2021-07-04T11:39:12.642Z</time>
      </trkpt>
      <trkpt lat="36.938144" lon="-3.396109">
        <ele>1475.541217</ele>
        <time>2021-07-04T11:39:19.634Z</time>
      </trkpt>
      <trkpt lat="36.938206" lon="-3.396201">
        <ele>1475.064130</ele>
        <time>2021-07-04T11:39:26.646Z</time>
      </trkpt>
      <trkpt lat="36.938171" lon="-3.396311">
        <ele>1474.594742</ele>
        <time>2021-07-04T11:39:36.642Z</time>
      </trkpt>
      <trkpt lat="36.938152" lon="-3.396431">
        <ele>1474.109747</ele>
        <time>2021-07-04T11:39:43.652Z</time>
      </trkpt>
      <trkpt lat="36.938119" lon="-3.396538">
        <ele>1473.655052</ele>
        <time>2021-07-04T11:39:48.640Z</time>
      </trkpt>
      <trkpt lat="36.938076" lon="-3.396650">
        <ele>1473.162449</ele>
        <time>2021-07-04T11:39:52.644Z</time>
      </trkpt>
      <trkpt lat="36.938014" lon="-3.396762">
        <ele>1472.622318</ele>
        <time>2021-07-04T11:39:57.650Z</time>
      </trkpt>
      <trkpt lat="36.937972" lon="-3.396886">
        <ele>1472.088389</ele>
        <time>2021-07-04T11:40:03.671Z</time>
      </trkpt>
      <trkpt lat="36.937924" lon="-3.396990">
        <ele>1471.612268</ele>
        <time>2021-07-04T11:40:17.634Z</time>
      </trkpt>
      <trkpt lat="36.937907" lon="-3.397102">
        <ele>1471.160297</ele>
        <time>2021-07-04T11:40:27.647Z</time>
      </trkpt>
      <trkpt lat="36.937922" lon="-3.397224">
        <ele>1470.670927</ele>
        <time>2021-07-04T11:40:42.684Z</time>
      </trkpt>
      <trkpt lat="36.937937" lon="-3.397341">
        <ele>1470.201140</ele>
        <time>2021-07-04T11:40:49.639Z</time>
      </trkpt>
      <trkpt lat="36.937950" lon="-3.397466">
        <ele>1469.701388</ele>
        <time>2021-07-04T11:40:54.682Z</time>
      </trkpt>
      <trkpt lat="36.937976" lon="-3.397586">
        <ele>1469.208467</ele>
        <time>2021-07-04T11:41:00.677Z</time>
      </trkpt>
      <trkpt lat="36.938009" lon="-3.397698">
        <ele>1468.735224</ele>
        <time>2021-07-04T11:41:15.649Z</time>
      </trkpt>
      <trkpt lat="36.938028" lon="-3.397808">
        <ele>1468.255670</ele>
        <time>2021-07-04T11:41:23.640Z</time>
      </trkpt>
      <trkpt lat="36.938028" lon="-3.397937">
        <ele>1466.901107</ele>
        <time>2021-07-04T11:41:28.690Z</time>
      </trkpt>
      <trkpt lat="36.938034" lon="-3.398070">
        <ele>1465.502319</ele>
        <time>2021-07-04T11:41:33.650Z</time>
      </trkpt>
      <trkpt lat="36.938042" lon="-3.398193">
        <ele>1464.206490</ele>
        <time>2021-07-04T11:41:39.639Z</time>
      </trkpt>
      <trkpt lat="36.938079" lon="-3.398308">
        <ele>1462.904773</ele>
        <time>2021-07-04T11:41:45.648Z</time>
      </trkpt>
      <trkpt lat="36.938139" lon="-3.398397">
        <ele>1461.682197</ele>
        <time>2021-07-04T11:41:51.658Z</time>
      </trkpt>
      <trkpt lat="36.938204" lon="-3.398498">
        <ele>1460.320598</ele>
        <time>2021-07-04T11:41:58.640Z</time>
      </trkpt>
      <trkpt lat="36.938258" lon="-3.398588">
        <ele>1459.138914</ele>
        <time>2021-07-04T11:42:04.641Z</time>
      </trkpt>
      <trkpt lat="36.938311" lon="-3.398687">
        <ele>1457.887732</ele>
        <time>2021-07-04T11:42:10.641Z</time>
      </trkpt>
      <trkpt lat="36.938366" lon="-3.398780">
        <ele>1456.672941</ele>
        <time>2021-07-04T11:42:16.658Z</time>
      </trkpt>
      <trkpt lat="36.938436" lon="-3.398869">
        <ele>1455.361814</ele>
        <time>2021-07-04T11:42:22.640Z</time>
      </trkpt>
      <trkpt lat="36.938503" lon="-3.398945">
        <ele>1454.173702</ele>
        <time>2021-07-04T11:42:28.639Z</time>
      </trkpt>
      <trkpt lat="36.938583" lon="-3.399021">
        <ele>1452.854070</ele>
        <time>2021-07-04T11:42:34.642Z</time>
      </trkpt>
      <trkpt lat="36.938656" lon="-3.399103">
        <ele>1451.565230</ele>
        <time>2021-07-04T11:42:41.639Z</time>
      </trkpt>
      <trkpt lat="36.938727" lon="-3.399174">
        <ele>1450.371146</ele>
        <time>2021-07-04T11:42:47.648Z</time>
      </trkpt>
      <trkpt lat="36.938786" lon="-3.399260">
        <ele>1449.181081</ele>
        <time>2021-07-04T11:42:54.648Z</time>
      </trkpt>
      <trkpt lat="36.938814" lon="-3.399370">
        <ele>1447.968879</ele>
        <time>2021-07-04T11:43:00.638Z</time>
      </trkpt>
      <trkpt lat="36.938809" lon="-3.399497">
        <ele>1446.633714</ele>
        <time>2021-07-04T11:43:07.684Z</time>
      </trkpt>
      <trkpt lat="36.938803" lon="-3.399620">
        <ele>1445.339764</ele>
        <time>2021-07-04T11:43:13.687Z</time>
      </trkpt>
      <trkpt lat="36.938822" lon="-3.399730">
        <ele>1444.274151</ele>
        <time>2021-07-04T11:43:20.649Z</time>
      </trkpt>
      <trkpt lat="36.938777" lon="-3.399841">
        <ele>1443.257983</ele>
        <time>2021-07-04T11:43:40.646Z</time>
      </trkpt>
      <trkpt lat="36.938789" lon="-3.399961">
        <ele>1442.270606</ele>
        <time>2021-07-04T11:43:48.643Z</time>
      </trkpt>
      <trkpt lat="36.938802" lon="-3.400099">
        <ele>1441.136109</ele>
        <time>2021-07-04T11:43:55.648Z</time>
      </trkpt>
      <trkpt lat="36.938824" lon="-3.400229">
        <ele>1440.051197</ele>
        <time>2021-07-04T11:44:00.645Z</time>
      </trkpt>
      <trkpt lat="36.938863" lon="-3.400345">
        <ele>1439.023741</ele>
        <time>2021-07-04T11:44:06.639Z</time>
      </trkpt>
      <trkpt lat="36.938903" lon="-3.400448">
        <ele>1438.088792</ele>
        <time>2021-07-04T11:44:12.636Z</time>
      </trkpt>
      <trkpt lat="36.938958" lon="-3.400546">
        <ele>1437.111129</ele>
        <time>2021-07-04T11:44:18.643Z</time>
      </trkpt>
      <trkpt lat="36.939016" lon="-3.400642">
        <ele>1436.128616</ele>
        <time>2021-07-04T11:44:24.659Z</time>
      </trkpt>
      <trkpt lat="36.939075" lon="-3.400729">
        <ele>1435.197083</ele>
        <time>2021-07-04T11:44:30.663Z</time>
      </trkpt>
      <trkpt lat="36.939138" lon="-3.400829">
        <ele>1434.157507</ele>
        <time>2021-07-04T11:44:36.653Z</time>
      </trkpt>
      <trkpt lat="36.939198" lon="-3.400922">
        <ele>1433.181720</ele>
        <time>2021-07-04T11:44:42.642Z</time>
      </trkpt>
      <trkpt lat="36.939262" lon="-3.401020">
        <ele>1432.148487</ele>
        <time>2021-07-04T11:44:48.647Z</time>
      </trkpt>
      <trkpt lat="36.939318" lon="-3.401119">
        <ele>1431.158268</ele>
        <time>2021-07-04T11:44:55.668Z</time>
      </trkpt>
      <trkpt lat="36.939379" lon="-3.401204">
        <ele>1430.225604</ele>
        <time>2021-07-04T11:45:01.685Z</time>
      </trkpt>
      <trkpt lat="36.939465" lon="-3.401279">
        <ele>1429.154778</ele>
        <time>2021-07-04T11:45:08.661Z</time>
      </trkpt>
      <trkpt lat="36.939551" lon="-3.401338">
        <ele>1428.152904</ele>
        <time>2021-07-04T11:45:14.643Z</time>
      </trkpt>
      <trkpt lat="36.939643" lon="-3.401404">
        <ele>1427.069614</ele>
        <time>2021-07-04T11:45:21.651Z</time>
      </trkpt>
      <trkpt lat="36.939721" lon="-3.401473">
        <ele>1426.189709</ele>
        <time>2021-07-04T11:45:29.677Z</time>
      </trkpt>
      <trkpt lat="36.939796" lon="-3.401541">
        <ele>1425.668972</ele>
        <time>2021-07-04T11:45:36.643Z</time>
      </trkpt>
      <trkpt lat="36.939875" lon="-3.401612">
        <ele>1425.122111</ele>
        <time>2021-07-04T11:45:42.643Z</time>
      </trkpt>
      <trkpt lat="36.939961" lon="-3.401683">
        <ele>1424.542831</ele>
        <time>2021-07-04T11:45:49.640Z</time>
      </trkpt>
      <trkpt lat="36.940039" lon="-3.401740">
        <ele>1424.034982</ele>
        <time>2021-07-04T11:45:55.644Z</time>
      </trkpt>
      <trkpt lat="36.940117" lon="-3.401823">
        <ele>1423.459300</ele>
        <time>2021-07-04T11:46:02.648Z</time>
      </trkpt>
      <trkpt lat="36.940192" lon="-3.401897">
        <ele>1422.922299</ele>
        <time>2021-07-04T11:46:08.685Z</time>
      </trkpt>
      <trkpt lat="36.940283" lon="-3.401921">
        <ele>1422.399442</ele>
        <time>2021-07-04T11:46:15.675Z</time>
      </trkpt>
      <trkpt lat="36.940379" lon="-3.401913">
        <ele>1421.858521</ele>
        <time>2021-07-04T11:46:21.642Z</time>
      </trkpt>
      <trkpt lat="36.940483" lon="-3.401912">
        <ele>1421.273801</ele>
        <time>2021-07-04T11:46:28.638Z</time>
      </trkpt>
      <trkpt lat="36.940574" lon="-3.401933">
        <ele>1420.753557</ele>
        <time>2021-07-04T11:46:34.649Z</time>
      </trkpt>
      <trkpt lat="36.940666" lon="-3.401981">
        <ele>1420.193150</ele>
        <time>2021-07-04T11:46:41.638Z</time>
      </trkpt>
      <trkpt lat="36.940702" lon="-3.402103">
        <ele>1419.608769</ele>
        <time>2021-07-04T11:46:48.643Z</time>
      </trkpt>
      <trkpt lat="36.940689" lon="-3.402229">
        <ele>1419.037886</ele>
        <time>2021-07-04T11:46:55.654Z</time>
      </trkpt>
      <trkpt lat="36.940625" lon="-3.402337">
        <ele>1418.433744</ele>
        <time>2021-07-04T11:47:01.716Z</time>
      </trkpt>
      <trkpt lat="36.940575" lon="-3.402450">
        <ele>1417.853355</ele>
        <time>2021-07-04T11:47:07.649Z</time>
      </trkpt>
      <trkpt lat="36.940559" lon="-3.402570">
        <ele>1417.306678</ele>
        <time>2021-07-04T11:47:13.644Z</time>
      </trkpt>
      <trkpt lat="36.940604" lon="-3.402680">
        <ele>1416.751403</ele>
        <time>2021-07-04T11:47:20.643Z</time>
      </trkpt>
      <trkpt lat="36.940651" lon="-3.402776">
        <ele>1416.245526</ele>
        <time>2021-07-04T11:47:27.640Z</time>
      </trkpt>
      <trkpt lat="36.940717" lon="-3.402868">
        <ele>1415.345079</ele>
        <time>2021-07-04T11:47:34.642Z</time>
      </trkpt>
      <trkpt lat="36.940768" lon="-3.402981">
        <ele>1414.363528</ele>
        <time>2021-07-04T11:47:41.633Z</time>
      </trkpt>
      <trkpt lat="36.940796" lon="-3.403101">
        <ele>1413.417998</ele>
        <time>2021-07-04T11:47:48.647Z</time>
      </trkpt>
      <trkpt lat="36.940803" lon="-3.403228">
        <ele>1412.455128</ele>
        <time>2021-07-04T11:47:55.635Z</time>
      </trkpt>
      <trkpt lat="36.940805" lon="-3.403341">
        <ele>1411.600221</ele>
        <time>2021-07-04T11:48:01.651Z</time>
      </trkpt>
      <trkpt lat="36.940795" lon="-3.403461">
        <ele>1410.687659</ele>
        <time>2021-07-04T11:48:07.643Z</time>
      </trkpt>
      <trkpt lat="36.940797" lon="-3.403583">
        <ele>1409.764694</ele>
        <time>2021-07-04T11:48:14.670Z</time>
      </trkpt>
      <trkpt lat="36.940811" lon="-3.403703">
        <ele>1408.847433</ele>
        <time>2021-07-04T11:48:20.642Z</time>
      </trkpt>
      <trkpt lat="36.940846" lon="-3.403815">
        <ele>1407.937851</ele>
        <time>2021-07-04T11:48:26.646Z</time>
      </trkpt>
      <trkpt lat="36.940889" lon="-3.403933">
        <ele>1406.956948</ele>
        <time>2021-07-04T11:48:32.680Z</time>
      </trkpt>
      <trkpt lat="36.940915" lon="-3.404044">
        <ele>1406.082068</ele>
        <time>2021-07-04T11:48:38.634Z</time>
      </trkpt>
      <trkpt lat="36.940907" lon="-3.404169">
        <ele>1405.133582</ele>
        <time>2021-07-04T11:48:44.653Z</time>
      </trkpt>
      <trkpt lat="36.940897" lon="-3.404286">
        <ele>1404.243586</ele>
        <time>2021-07-04T11:48:50.650Z</time>
      </trkpt>
      <trkpt lat="36.940861" lon="-3.404410">
        <ele>1403.245731</ele>
        <time>2021-07-04T11:48:56.651Z</time>
      </trkpt>
      <trkpt lat="36.940835" lon="-3.404536">
        <ele>1402.261457</ele>
        <time>2021-07-04T11:49:02.650Z</time>
      </trkpt>
      <trkpt lat="36.940825" lon="-3.404655">
        <ele>1401.356417</ele>
        <time>2021-07-04T11:49:08.651Z</time>
      </trkpt>
      <trkpt lat="36.940828" lon="-3.404771">
        <ele>1400.478570</ele>
        <time>2021-07-04T11:49:14.666Z</time>
      </trkpt>
      <trkpt lat="36.940882" lon="-3.404881">
        <ele>1399.502160</ele>
        <time>2021-07-04T11:49:21.638Z</time>
      </trkpt>
      <trkpt lat="36.940947" lon="-3.404968">
        <ele>1399.173591</ele>
        <time>2021-07-04T11:49:27.654Z</time>
      </trkpt>
      <trkpt lat="36.941012" lon="-3.405067">
        <ele>1399.173591</ele>
        <time>2021-07-04T11:49:34.649Z</time>
      </trkpt>
      <trkpt lat="36.941072" lon="-3.405151">
        <ele>1399.173591</ele>
        <time>2021-07-04T11:49:41.632Z</time>
      </trkpt>
      <trkpt lat="36.941179" lon="-3.405221">
        <ele>1399.173591</ele>
        <time>2021-07-04T11:51:15.650Z</time>
      </trkpt>
      <trkpt lat="36.941250" lon="-3.405311">
        <ele>1399.173591</ele>
        <time>2021-07-04T11:51:22.654Z</time>
      </trkpt>
      <trkpt lat="36.941337" lon="-3.405382">
        <ele>1399.173591</ele>
        <time>2021-07-04T11:51:34.635Z</time>
      </trkpt>
      <trkpt lat="36.941563" lon="-3.405523">
        <ele>1399.173591</ele>
        <time>2021-07-04T11:51:57.659Z</time>
      </trkpt>
      <trkpt lat="36.941674" lon="-3.405563">
        <ele>1399.173591</ele>
        <time>2021-07-04T11:52:02.642Z</time>
      </trkpt>
      <trkpt lat="36.941772" lon="-3.405590">
        <ele>1399.173591</ele>
        <time>2021-07-04T11:52:12.651Z</time>
      </trkpt>
      <trkpt lat="36.941866" lon="-3.405597">
        <ele>1399.173591</ele>
        <time>2021-07-04T11:52:20.651Z</time>
      </trkpt>
      <trkpt lat="36.941968" lon="-3.405583">
        <ele>1399.173591</ele>
        <time>2021-07-04T11:52:32.648Z</time>
      </trkpt>
      <trkpt lat="36.942077" lon="-3.405571">
        <ele>1399.173591</ele>
        <time>2021-07-04T11:52:36.646Z</time>
      </trkpt>
      <trkpt lat="36.942193" lon="-3.405579">
        <ele>1399.173591</ele>
        <time>2021-07-04T11:52:40.646Z</time>
      </trkpt>
      <trkpt lat="36.942285" lon="-3.405600">
        <ele>1399.173591</ele>
        <time>2021-07-04T11:52:43.650Z</time>
      </trkpt>
      <trkpt lat="36.942383" lon="-3.405645">
        <ele>1399.173591</ele>
        <time>2021-07-04T11:52:47.650Z</time>
      </trkpt>
      <trkpt lat="36.942466" lon="-3.405730">
        <ele>1399.173591</ele>
        <time>2021-07-04T11:52:54.679Z</time>
      </trkpt>
      <trkpt lat="36.942537" lon="-3.405820">
        <ele>1399.173591</ele>
        <time>2021-07-04T11:53:00.643Z</time>
      </trkpt>
      <trkpt lat="36.942615" lon="-3.405884">
        <ele>1399.173591</ele>
        <time>2021-07-04T11:53:04.644Z</time>
      </trkpt>
      <trkpt lat="36.942700" lon="-3.405925">
        <ele>1399.173591</ele>
        <time>2021-07-04T11:53:17.642Z</time>
      </trkpt>
      <trkpt lat="36.942676" lon="-3.405964">
        <ele>1399.173591</ele>
        <time>2021-07-04T11:53:59.550Z</time>
      </trkpt>
    </trkseg>
  </trk>
</gpx>